<?xml version="1.0" encoding="UTF-8" standalone="no" ?>
<gpx xmlns="http://www.topografix.com/GPX/1/1" xmlns:xsi="http://www.w3.org/2001/XMLSchema-instance" xsi:schemaLocation="http://www.topografix.com/GPX/1/1 http://www.topografix.com/GPX/1/1/gpx.xsd" version="1.1" creator="VisuGPX - https://www.visugpx.com">
  <metadata>
    <name>Gap/L\\\'Avance/la Durance/Ceuse</name>
    <desc><![CDATA[Un circuit avec au menu le col de la Sentinelle et la rude montée de Tallard à Sigoyer]]></desc>
  </metadata>
  <trk>
    <name><![CDATA[N°7 13/02/2011]]></name>
    <trkseg>
      <trkpt lat="44.55837" lon="6.07498">
        <ele>737.468506</ele>
        <time>2011-02-13T09:22:52Z</time>
      </trkpt>
      <trkpt lat="44.55835" lon="6.07496">
        <ele>737.468506</ele>
        <time>2011-02-13T09:23:28Z</time>
      </trkpt>
      <trkpt lat="44.55816" lon="6.07443">
        <ele>736.026611</ele>
        <time>2011-02-13T09:23:38Z</time>
      </trkpt>
      <trkpt lat="44.55812" lon="6.07443">
        <ele>735.545898</ele>
        <time>2011-02-13T09:23:39Z</time>
      </trkpt>
      <trkpt lat="44.55792" lon="6.07449">
        <ele>735.06543</ele>
        <time>2011-02-13T09:23:43Z</time>
      </trkpt>
      <trkpt lat="44.5575" lon="6.07486">
        <ele>731.700439</ele>
        <time>2011-02-13T09:23:50Z</time>
      </trkpt>
      <trkpt lat="44.55743" lon="6.07485">
        <ele>731.700439</ele>
        <time>2011-02-13T09:23:54Z</time>
      </trkpt>
      <trkpt lat="44.5571" lon="6.07551">
        <ele>728.335938</ele>
        <time>2011-02-13T09:24:05Z</time>
      </trkpt>
      <trkpt lat="44.55674" lon="6.07621">
        <ele>726.41333</ele>
        <time>2011-02-13T09:24:15Z</time>
      </trkpt>
      <trkpt lat="44.55653" lon="6.07651">
        <ele>725.932617</ele>
        <time>2011-02-13T09:24:22Z</time>
      </trkpt>
      <trkpt lat="44.55635" lon="6.07645">
        <ele>725.451904</ele>
        <time>2011-02-13T09:24:27Z</time>
      </trkpt>
      <trkpt lat="44.55561" lon="6.07555">
        <ele>724.490723</ele>
        <time>2011-02-13T09:24:48Z</time>
      </trkpt>
      <trkpt lat="44.55536" lon="6.07525">
        <ele>725.451904</ele>
        <time>2011-02-13T09:24:55Z</time>
      </trkpt>
      <trkpt lat="44.55494" lon="6.07486">
        <ele>725.451904</ele>
        <time>2011-02-13T09:25:07Z</time>
      </trkpt>
      <trkpt lat="44.55487" lon="6.07526">
        <ele>724.971436</ele>
        <time>2011-02-13T09:25:14Z</time>
      </trkpt>
      <trkpt lat="44.55496" lon="6.07552">
        <ele>724.490723</ele>
        <time>2011-02-13T09:25:18Z</time>
      </trkpt>
      <trkpt lat="44.55514" lon="6.07635">
        <ele>720.164795</ele>
        <time>2011-02-13T09:25:28Z</time>
      </trkpt>
      <trkpt lat="44.55554" lon="6.07785">
        <ele>721.126221</ele>
        <time>2011-02-13T09:25:46Z</time>
      </trkpt>
      <trkpt lat="44.55578" lon="6.07864">
        <ele>722.568115</ele>
        <time>2011-02-13T09:26:01Z</time>
      </trkpt>
      <trkpt lat="44.5557" lon="6.07886">
        <ele>721.126221</ele>
        <time>2011-02-13T09:26:06Z</time>
      </trkpt>
      <trkpt lat="44.55555" lon="6.07902">
        <ele>720.645508</ele>
        <time>2011-02-13T09:26:10Z</time>
      </trkpt>
      <trkpt lat="44.55535" lon="6.07911">
        <ele>721.126221</ele>
        <time>2011-02-13T09:26:15Z</time>
      </trkpt>
      <trkpt lat="44.55477" lon="6.07898">
        <ele>722.568115</ele>
        <time>2011-02-13T09:26:33Z</time>
      </trkpt>
      <trkpt lat="44.55431" lon="6.07888">
        <ele>725.451904</ele>
        <time>2011-02-13T09:26:49Z</time>
      </trkpt>
      <trkpt lat="44.55389" lon="6.07879">
        <ele>728.335938</ele>
        <time>2011-02-13T09:27:05Z</time>
      </trkpt>
      <trkpt lat="44.55343" lon="6.07873">
        <ele>731.700439</ele>
        <time>2011-02-13T09:27:22Z</time>
      </trkpt>
      <trkpt lat="44.55318" lon="6.07878">
        <ele>733.623291</ele>
        <time>2011-02-13T09:27:33Z</time>
      </trkpt>
      <trkpt lat="44.55281" lon="6.07884">
        <ele>735.545898</ele>
        <time>2011-02-13T09:27:50Z</time>
      </trkpt>
      <trkpt lat="44.55255" lon="6.07882">
        <ele>736.987793</ele>
        <time>2011-02-13T09:28:02Z</time>
      </trkpt>
      <trkpt lat="44.55225" lon="6.0787">
        <ele>739.871826</ele>
        <time>2011-02-13T09:28:17Z</time>
      </trkpt>
      <trkpt lat="44.55181" lon="6.0786">
        <ele>743.236328</ele>
        <time>2011-02-13T09:28:38Z</time>
      </trkpt>
      <trkpt lat="44.55137" lon="6.07864">
        <ele>746.120361</ele>
        <time>2011-02-13T09:28:59Z</time>
      </trkpt>
      <trkpt lat="44.55097" lon="6.07861">
        <ele>749.004395</ele>
        <time>2011-02-13T09:29:18Z</time>
      </trkpt>
      <trkpt lat="44.55059" lon="6.07854">
        <ele>751.888428</ele>
        <time>2011-02-13T09:29:36Z</time>
      </trkpt>
      <trkpt lat="44.55017" lon="6.07841">
        <ele>754.772217</ele>
        <time>2011-02-13T09:29:56Z</time>
      </trkpt>
      <trkpt lat="44.54978" lon="6.07829">
        <ele>758.136963</ele>
        <time>2011-02-13T09:30:15Z</time>
      </trkpt>
      <trkpt lat="44.54935" lon="6.07816">
        <ele>761.501465</ele>
        <time>2011-02-13T09:30:36Z</time>
      </trkpt>
      <trkpt lat="44.54904" lon="6.07839">
        <ele>763.904541</ele>
        <time>2011-02-13T09:30:53Z</time>
      </trkpt>
      <trkpt lat="44.54867" lon="6.07869">
        <ele>766.788818</ele>
        <time>2011-02-13T09:31:14Z</time>
      </trkpt>
      <trkpt lat="44.54828" lon="6.07859">
        <ele>770.15332</ele>
        <time>2011-02-13T09:31:33Z</time>
      </trkpt>
      <trkpt lat="44.54798" lon="6.07837">
        <ele>772.075928</ele>
        <time>2011-02-13T09:31:50Z</time>
      </trkpt>
      <trkpt lat="44.54771" lon="6.07815">
        <ele>774.479248</ele>
        <time>2011-02-13T09:32:05Z</time>
      </trkpt>
      <trkpt lat="44.54734" lon="6.07795">
        <ele>777.363281</ele>
        <time>2011-02-13T09:32:26Z</time>
      </trkpt>
      <trkpt lat="44.54693" lon="6.07778">
        <ele>780.247314</ele>
        <time>2011-02-13T09:32:46Z</time>
      </trkpt>
      <trkpt lat="44.54656" lon="6.07763">
        <ele>782.650635</ele>
        <time>2011-02-13T09:33:05Z</time>
      </trkpt>
      <trkpt lat="44.54621" lon="6.07749">
        <ele>785.534424</ele>
        <time>2011-02-13T09:33:24Z</time>
      </trkpt>
      <trkpt lat="44.54583" lon="6.07748">
        <ele>788.89917</ele>
        <time>2011-02-13T09:33:43Z</time>
      </trkpt>
      <trkpt lat="44.54544" lon="6.07776">
        <ele>791.302246</ele>
        <time>2011-02-13T09:34:05Z</time>
      </trkpt>
      <trkpt lat="44.54503" lon="6.07811">
        <ele>795.147461</ele>
        <time>2011-02-13T09:34:30Z</time>
      </trkpt>
      <trkpt lat="44.54497" lon="6.0786">
        <ele>797.551025</ele>
        <time>2011-02-13T09:34:48Z</time>
      </trkpt>
      <trkpt lat="44.54505" lon="6.07911">
        <ele>798.99292</ele>
        <time>2011-02-13T09:35:06Z</time>
      </trkpt>
      <trkpt lat="44.54529" lon="6.07993">
        <ele>797.070313</ele>
        <time>2011-02-13T09:35:24Z</time>
      </trkpt>
      <trkpt lat="44.54541" lon="6.08032">
        <ele>797.070313</ele>
        <time>2011-02-13T09:35:31Z</time>
      </trkpt>
      <trkpt lat="44.54546" lon="6.08064">
        <ele>796.109131</ele>
        <time>2011-02-13T09:35:36Z</time>
      </trkpt>
      <trkpt lat="44.5455" lon="6.08123">
        <ele>794.666748</ele>
        <time>2011-02-13T09:35:44Z</time>
      </trkpt>
      <trkpt lat="44.54558" lon="6.08168">
        <ele>791.782959</ele>
        <time>2011-02-13T09:35:49Z</time>
      </trkpt>
      <trkpt lat="44.54566" lon="6.08209">
        <ele>789.860352</ele>
        <time>2011-02-13T09:35:53Z</time>
      </trkpt>
      <trkpt lat="44.54573" lon="6.08242">
        <ele>787.937744</ele>
        <time>2011-02-13T09:35:56Z</time>
      </trkpt>
      <trkpt lat="44.54578" lon="6.08265">
        <ele>786.976318</ele>
        <time>2011-02-13T09:35:58Z</time>
      </trkpt>
      <trkpt lat="44.54591" lon="6.08337">
        <ele>783.131104</ele>
        <time>2011-02-13T09:36:04Z</time>
      </trkpt>
      <trkpt lat="44.54605" lon="6.0841">
        <ele>780.728027</ele>
        <time>2011-02-13T09:36:10Z</time>
      </trkpt>
      <trkpt lat="44.54615" lon="6.08458">
        <ele>778.805176</ele>
        <time>2011-02-13T09:36:14Z</time>
      </trkpt>
      <trkpt lat="44.54619" lon="6.08491">
        <ele>776.882568</ele>
        <time>2011-02-13T09:36:17Z</time>
      </trkpt>
      <trkpt lat="44.54614" lon="6.08554">
        <ele>775.921143</ele>
        <time>2011-02-13T09:36:24Z</time>
      </trkpt>
      <trkpt lat="44.54606" lon="6.08573">
        <ele>774.479248</ele>
        <time>2011-02-13T09:36:27Z</time>
      </trkpt>
      <trkpt lat="44.54567" lon="6.08639">
        <ele>776.401855</ele>
        <time>2011-02-13T09:36:40Z</time>
      </trkpt>
      <trkpt lat="44.54546" lon="6.08671">
        <ele>778.805176</ele>
        <time>2011-02-13T09:36:56Z</time>
      </trkpt>
      <trkpt lat="44.54526" lon="6.0871">
        <ele>781.689209</ele>
        <time>2011-02-13T09:37:13Z</time>
      </trkpt>
      <trkpt lat="44.54517" lon="6.08767">
        <ele>784.092529</ele>
        <time>2011-02-13T09:37:33Z</time>
      </trkpt>
      <trkpt lat="44.54508" lon="6.08837">
        <ele>786.976318</ele>
        <time>2011-02-13T09:37:58Z</time>
      </trkpt>
      <trkpt lat="44.545" lon="6.08895">
        <ele>788.89917</ele>
        <time>2011-02-13T09:38:19Z</time>
      </trkpt>
      <trkpt lat="44.54493" lon="6.08952">
        <ele>791.302246</ele>
        <time>2011-02-13T09:38:39Z</time>
      </trkpt>
      <trkpt lat="44.54485" lon="6.09016">
        <ele>793.705566</ele>
        <time>2011-02-13T09:39:01Z</time>
      </trkpt>
      <trkpt lat="44.54477" lon="6.09077">
        <ele>795.147461</ele>
        <time>2011-02-13T09:39:22Z</time>
      </trkpt>
      <trkpt lat="44.54468" lon="6.09137">
        <ele>797.070313</ele>
        <time>2011-02-13T09:39:43Z</time>
      </trkpt>
      <trkpt lat="44.54442" lon="6.09155">
        <ele>799.473633</ele>
        <time>2011-02-13T09:39:59Z</time>
      </trkpt>
      <trkpt lat="44.54413" lon="6.09129">
        <ele>801.876953</ele>
        <time>2011-02-13T09:40:16Z</time>
      </trkpt>
      <trkpt lat="44.54383" lon="6.09085">
        <ele>803.799561</ele>
        <time>2011-02-13T09:40:37Z</time>
      </trkpt>
      <trkpt lat="44.54331" lon="6.09059">
        <ele>807.164063</ele>
        <time>2011-02-13T09:41:03Z</time>
      </trkpt>
      <trkpt lat="44.54289" lon="6.09043">
        <ele>810.528564</ele>
        <time>2011-02-13T09:41:25Z</time>
      </trkpt>
      <trkpt lat="44.54245" lon="6.09034">
        <ele>813.412842</ele>
        <time>2011-02-13T09:41:48Z</time>
      </trkpt>
      <trkpt lat="44.54208" lon="6.09048">
        <ele>815.816162</ele>
        <time>2011-02-13T09:42:08Z</time>
      </trkpt>
      <trkpt lat="44.54157" lon="6.09078">
        <ele>818.699951</ele>
        <time>2011-02-13T09:42:36Z</time>
      </trkpt>
      <trkpt lat="44.54118" lon="6.09101">
        <ele>821.58374</ele>
        <time>2011-02-13T09:42:58Z</time>
      </trkpt>
      <trkpt lat="44.54089" lon="6.09113">
        <ele>824.467773</ele>
        <time>2011-02-13T09:43:14Z</time>
      </trkpt>
      <trkpt lat="44.54048" lon="6.09102">
        <ele>826.390381</ele>
        <time>2011-02-13T09:43:34Z</time>
      </trkpt>
      <trkpt lat="44.54008" lon="6.0907">
        <ele>828.793945</ele>
        <time>2011-02-13T09:43:56Z</time>
      </trkpt>
      <trkpt lat="44.53963" lon="6.09051">
        <ele>830.716553</ele>
        <time>2011-02-13T09:44:19Z</time>
      </trkpt>
      <trkpt lat="44.53915" lon="6.09045">
        <ele>833.600342</ele>
        <time>2011-02-13T09:44:43Z</time>
      </trkpt>
      <trkpt lat="44.53868" lon="6.09021">
        <ele>836.003662</ele>
        <time>2011-02-13T09:45:08Z</time>
      </trkpt>
      <trkpt lat="44.53829" lon="6.09007">
        <ele>838.406982</ele>
        <time>2011-02-13T09:45:29Z</time>
      </trkpt>
      <trkpt lat="44.53781" lon="6.09001">
        <ele>841.290771</ele>
        <time>2011-02-13T09:45:52Z</time>
      </trkpt>
      <trkpt lat="44.53738" lon="6.08999">
        <ele>843.213379</ele>
        <time>2011-02-13T09:46:14Z</time>
      </trkpt>
      <trkpt lat="44.53695" lon="6.0902">
        <ele>845.616943</ele>
        <time>2011-02-13T09:46:36Z</time>
      </trkpt>
      <trkpt lat="44.53657" lon="6.09048">
        <ele>846.578369</ele>
        <time>2011-02-13T09:46:55Z</time>
      </trkpt>
      <trkpt lat="44.5362" lon="6.09074">
        <ele>847.539551</ele>
        <time>2011-02-13T09:47:12Z</time>
      </trkpt>
      <trkpt lat="44.53569" lon="6.09112">
        <ele>847.058838</ele>
        <time>2011-02-13T09:47:34Z</time>
      </trkpt>
      <trkpt lat="44.5352" lon="6.09146">
        <ele>847.058838</ele>
        <time>2011-02-13T09:47:54Z</time>
      </trkpt>
      <trkpt lat="44.53486" lon="6.09182">
        <ele>848.020264</ele>
        <time>2011-02-13T09:48:10Z</time>
      </trkpt>
      <trkpt lat="44.53442" lon="6.09234">
        <ele>848.981445</ele>
        <time>2011-02-13T09:48:33Z</time>
      </trkpt>
      <trkpt lat="44.53391" lon="6.09259">
        <ele>848.981445</ele>
        <time>2011-02-13T09:48:53Z</time>
      </trkpt>
      <trkpt lat="44.53329" lon="6.09289">
        <ele>848.020264</ele>
        <time>2011-02-13T09:49:11Z</time>
      </trkpt>
      <trkpt lat="44.533" lon="6.09348">
        <ele>844.655518</ele>
        <time>2011-02-13T09:49:21Z</time>
      </trkpt>
      <trkpt lat="44.533" lon="6.09357">
        <ele>844.655518</ele>
        <time>2011-02-13T09:49:22Z</time>
      </trkpt>
      <trkpt lat="44.53301" lon="6.09386">
        <ele>843.213379</ele>
        <time>2011-02-13T09:49:25Z</time>
      </trkpt>
      <trkpt lat="44.53303" lon="6.09428">
        <ele>840.810059</ele>
        <time>2011-02-13T09:49:29Z</time>
      </trkpt>
      <trkpt lat="44.53312" lon="6.09482">
        <ele>838.406982</ele>
        <time>2011-02-13T09:49:34Z</time>
      </trkpt>
      <trkpt lat="44.53315" lon="6.095">
        <ele>837.92627</ele>
        <time>2011-02-13T09:49:36Z</time>
      </trkpt>
      <trkpt lat="44.53304" lon="6.09529">
        <ele>836.003662</ele>
        <time>2011-02-13T09:49:41Z</time>
      </trkpt>
      <trkpt lat="44.53263" lon="6.09537">
        <ele>833.119629</ele>
        <time>2011-02-13T09:49:48Z</time>
      </trkpt>
      <trkpt lat="44.53233" lon="6.09593">
        <ele>830.716553</ele>
        <time>2011-02-13T09:49:55Z</time>
      </trkpt>
      <trkpt lat="44.53235" lon="6.09614">
        <ele>830.23584</ele>
        <time>2011-02-13T09:49:57Z</time>
      </trkpt>
      <trkpt lat="44.53235" lon="6.09632">
        <ele>829.274414</ele>
        <time>2011-02-13T09:49:59Z</time>
      </trkpt>
      <trkpt lat="44.5321" lon="6.0965">
        <ele>829.755127</ele>
        <time>2011-02-13T09:50:06Z</time>
      </trkpt>
      <trkpt lat="44.53208" lon="6.09646">
        <ele>830.23584</ele>
        <time>2011-02-13T09:50:07Z</time>
      </trkpt>
      <trkpt lat="44.53186" lon="6.0959">
        <ele>832.63916</ele>
        <time>2011-02-13T09:50:25Z</time>
      </trkpt>
      <trkpt lat="44.53159" lon="6.09534">
        <ele>835.04248</ele>
        <time>2011-02-13T09:50:46Z</time>
      </trkpt>
      <trkpt lat="44.53129" lon="6.09503">
        <ele>836.964844</ele>
        <time>2011-02-13T09:51:03Z</time>
      </trkpt>
      <trkpt lat="44.53091" lon="6.09484">
        <ele>838.406982</ele>
        <time>2011-02-13T09:51:22Z</time>
      </trkpt>
      <trkpt lat="44.53073" lon="6.09518">
        <ele>839.368164</ele>
        <time>2011-02-13T09:51:37Z</time>
      </trkpt>
      <trkpt lat="44.53059" lon="6.09576">
        <ele>841.290771</ele>
        <time>2011-02-13T09:51:55Z</time>
      </trkpt>
      <trkpt lat="44.53035" lon="6.09619">
        <ele>843.213379</ele>
        <time>2011-02-13T09:52:12Z</time>
      </trkpt>
      <trkpt lat="44.52997" lon="6.09651">
        <ele>845.616943</ele>
        <time>2011-02-13T09:52:32Z</time>
      </trkpt>
      <trkpt lat="44.52957" lon="6.09638">
        <ele>848.500732</ele>
        <time>2011-02-13T09:52:51Z</time>
      </trkpt>
      <trkpt lat="44.52928" lon="6.09598">
        <ele>850.904053</ele>
        <time>2011-02-13T09:53:10Z</time>
      </trkpt>
      <trkpt lat="44.52895" lon="6.09585">
        <ele>852.82666</ele>
        <time>2011-02-13T09:53:28Z</time>
      </trkpt>
      <trkpt lat="44.52841" lon="6.09631">
        <ele>853.788086</ele>
        <time>2011-02-13T09:53:53Z</time>
      </trkpt>
      <trkpt lat="44.5279" lon="6.0966">
        <ele>855.22998</ele>
        <time>2011-02-13T09:54:14Z</time>
      </trkpt>
      <trkpt lat="44.52747" lon="6.09703">
        <ele>854.749268</ele>
        <time>2011-02-13T09:54:32Z</time>
      </trkpt>
      <trkpt lat="44.52712" lon="6.09723">
        <ele>856.671875</ele>
        <time>2011-02-13T09:54:47Z</time>
      </trkpt>
      <trkpt lat="44.52667" lon="6.09743">
        <ele>858.594482</ele>
        <time>2011-02-13T09:55:09Z</time>
      </trkpt>
      <trkpt lat="44.52634" lon="6.09754">
        <ele>860.517334</ele>
        <time>2011-02-13T09:55:25Z</time>
      </trkpt>
      <trkpt lat="44.52593" lon="6.09779">
        <ele>862.439941</ele>
        <time>2011-02-13T09:55:47Z</time>
      </trkpt>
      <trkpt lat="44.52581" lon="6.0984">
        <ele>864.362549</ele>
        <time>2011-02-13T09:56:08Z</time>
      </trkpt>
      <trkpt lat="44.52584" lon="6.099">
        <ele>867.246582</ele>
        <time>2011-02-13T09:56:29Z</time>
      </trkpt>
      <trkpt lat="44.52598" lon="6.09979">
        <ele>869.649902</ele>
        <time>2011-02-13T09:56:56Z</time>
      </trkpt>
      <trkpt lat="44.52597" lon="6.10053">
        <ele>871.572266</ele>
        <time>2011-02-13T09:57:19Z</time>
      </trkpt>
      <trkpt lat="44.52588" lon="6.10111">
        <ele>873.495117</ele>
        <time>2011-02-13T09:57:38Z</time>
      </trkpt>
      <trkpt lat="44.52576" lon="6.10169">
        <ele>875.41748</ele>
        <time>2011-02-13T09:57:58Z</time>
      </trkpt>
      <trkpt lat="44.52541" lon="6.10185">
        <ele>876.37915</ele>
        <time>2011-02-13T09:58:15Z</time>
      </trkpt>
      <trkpt lat="44.52527" lon="6.10158">
        <ele>876.859863</ele>
        <time>2011-02-13T09:58:27Z</time>
      </trkpt>
      <trkpt lat="44.52533" lon="6.10092">
        <ele>879.262939</ele>
        <time>2011-02-13T09:58:50Z</time>
      </trkpt>
      <trkpt lat="44.52527" lon="6.10029">
        <ele>882.627686</ele>
        <time>2011-02-13T09:59:12Z</time>
      </trkpt>
      <trkpt lat="44.525" lon="6.09979">
        <ele>885.031006</ele>
        <time>2011-02-13T09:59:33Z</time>
      </trkpt>
      <trkpt lat="44.52474" lon="6.09948">
        <ele>887.434082</ele>
        <time>2011-02-13T09:59:50Z</time>
      </trkpt>
      <trkpt lat="44.52437" lon="6.09923">
        <ele>889.837402</ele>
        <time>2011-02-13T10:00:11Z</time>
      </trkpt>
      <trkpt lat="44.52421" lon="6.09919">
        <ele>890.798584</ele>
        <time>2011-02-13T10:00:19Z</time>
      </trkpt>
      <trkpt lat="44.52389" lon="6.09922">
        <ele>893.202148</ele>
        <time>2011-02-13T10:00:35Z</time>
      </trkpt>
      <trkpt lat="44.52351" lon="6.09933">
        <ele>896.566895</ele>
        <time>2011-02-13T10:00:54Z</time>
      </trkpt>
      <trkpt lat="44.5231" lon="6.0995">
        <ele>898.969971</ele>
        <time>2011-02-13T10:01:15Z</time>
      </trkpt>
      <trkpt lat="44.5227" lon="6.09971">
        <ele>902.334473</ele>
        <time>2011-02-13T10:01:38Z</time>
      </trkpt>
      <trkpt lat="44.5223" lon="6.09982">
        <ele>904.257324</ele>
        <time>2011-02-13T10:01:58Z</time>
      </trkpt>
      <trkpt lat="44.52186" lon="6.09974">
        <ele>906.6604</ele>
        <time>2011-02-13T10:02:19Z</time>
      </trkpt>
      <trkpt lat="44.52139" lon="6.09964">
        <ele>910.025146</ele>
        <time>2011-02-13T10:02:43Z</time>
      </trkpt>
      <trkpt lat="44.52096" lon="6.09954">
        <ele>912.90918</ele>
        <time>2011-02-13T10:03:05Z</time>
      </trkpt>
      <trkpt lat="44.52055" lon="6.09943">
        <ele>915.793213</ele>
        <time>2011-02-13T10:03:27Z</time>
      </trkpt>
      <trkpt lat="44.5202" lon="6.09958">
        <ele>918.677002</ele>
        <time>2011-02-13T10:03:48Z</time>
      </trkpt>
      <trkpt lat="44.51989" lon="6.09961">
        <ele>920.599609</ele>
        <time>2011-02-13T10:04:05Z</time>
      </trkpt>
      <trkpt lat="44.51954" lon="6.09948">
        <ele>923.00293</ele>
        <time>2011-02-13T10:04:25Z</time>
      </trkpt>
      <trkpt lat="44.51942" lon="6.09942">
        <ele>924.925781</ele>
        <time>2011-02-13T10:04:32Z</time>
      </trkpt>
      <trkpt lat="44.51903" lon="6.09936">
        <ele>927.329102</ele>
        <time>2011-02-13T10:04:54Z</time>
      </trkpt>
      <trkpt lat="44.51892" lon="6.09974">
        <ele>929.732178</ele>
        <time>2011-02-13T10:05:11Z</time>
      </trkpt>
      <trkpt lat="44.51884" lon="6.10031">
        <ele>932.135498</ele>
        <time>2011-02-13T10:05:33Z</time>
      </trkpt>
      <trkpt lat="44.51863" lon="6.1008">
        <ele>935.019531</ele>
        <time>2011-02-13T10:05:56Z</time>
      </trkpt>
      <trkpt lat="44.51857" lon="6.10133">
        <ele>937.90332</ele>
        <time>2011-02-13T10:06:17Z</time>
      </trkpt>
      <trkpt lat="44.5186" lon="6.10196">
        <ele>939.345215</ele>
        <time>2011-02-13T10:06:40Z</time>
      </trkpt>
      <trkpt lat="44.51833" lon="6.10225">
        <ele>940.787354</ele>
        <time>2011-02-13T10:06:58Z</time>
      </trkpt>
      <trkpt lat="44.51805" lon="6.10218">
        <ele>943.190674</ele>
        <time>2011-02-13T10:07:15Z</time>
      </trkpt>
      <trkpt lat="44.51788" lon="6.10166">
        <ele>945.593994</ele>
        <time>2011-02-13T10:07:37Z</time>
      </trkpt>
      <trkpt lat="44.51775" lon="6.10123">
        <ele>947.035889</ele>
        <time>2011-02-13T10:07:55Z</time>
      </trkpt>
      <trkpt lat="44.51765" lon="6.10091">
        <ele>948.958496</ele>
        <time>2011-02-13T10:08:09Z</time>
      </trkpt>
      <trkpt lat="44.51751" lon="6.10049">
        <ele>950.881104</ele>
        <time>2011-02-13T10:08:26Z</time>
      </trkpt>
      <trkpt lat="44.51736" lon="6.10034">
        <ele>951.842529</ele>
        <time>2011-02-13T10:08:36Z</time>
      </trkpt>
      <trkpt lat="44.51695" lon="6.10018">
        <ele>954.726318</ele>
        <time>2011-02-13T10:08:59Z</time>
      </trkpt>
      <trkpt lat="44.51663" lon="6.09998">
        <ele>957.129883</ele>
        <time>2011-02-13T10:09:19Z</time>
      </trkpt>
      <trkpt lat="44.51626" lon="6.09973">
        <ele>960.013672</ele>
        <time>2011-02-13T10:09:42Z</time>
      </trkpt>
      <trkpt lat="44.51579" lon="6.09964">
        <ele>962.897705</ele>
        <time>2011-02-13T10:10:07Z</time>
      </trkpt>
      <trkpt lat="44.51543" lon="6.09959">
        <ele>965.301025</ele>
        <time>2011-02-13T10:10:26Z</time>
      </trkpt>
      <trkpt lat="44.51501" lon="6.09954">
        <ele>968.665527</ele>
        <time>2011-02-13T10:10:48Z</time>
      </trkpt>
      <trkpt lat="44.51459" lon="6.0996">
        <ele>971.549316</ele>
        <time>2011-02-13T10:11:11Z</time>
      </trkpt>
      <trkpt lat="44.51423" lon="6.09971">
        <ele>974.433594</ele>
        <time>2011-02-13T10:11:32Z</time>
      </trkpt>
      <trkpt lat="44.51386" lon="6.09993">
        <ele>976.836914</ele>
        <time>2011-02-13T10:11:52Z</time>
      </trkpt>
      <trkpt lat="44.51349" lon="6.10017">
        <ele>979.720703</ele>
        <time>2011-02-13T10:12:14Z</time>
      </trkpt>
      <trkpt lat="44.51314" lon="6.10049">
        <ele>982.604736</ele>
        <time>2011-02-13T10:12:37Z</time>
      </trkpt>
      <trkpt lat="44.51285" lon="6.10087">
        <ele>984.527344</ele>
        <time>2011-02-13T10:12:58Z</time>
      </trkpt>
      <trkpt lat="44.5126" lon="6.10146">
        <ele>984.527344</ele>
        <time>2011-02-13T10:13:17Z</time>
      </trkpt>
      <trkpt lat="44.51213" lon="6.10224">
        <ele>984.046631</ele>
        <time>2011-02-13T10:13:38Z</time>
      </trkpt>
      <trkpt lat="44.51167" lon="6.10265">
        <ele>982.604736</ele>
        <time>2011-02-13T10:13:53Z</time>
      </trkpt>
      <trkpt lat="44.51133" lon="6.10314">
        <ele>978.759521</ele>
        <time>2011-02-13T10:14:02Z</time>
      </trkpt>
      <trkpt lat="44.51128" lon="6.10321">
        <ele>978.759521</ele>
        <time>2011-02-13T10:14:03Z</time>
      </trkpt>
      <trkpt lat="44.51118" lon="6.10338">
        <ele>977.798096</ele>
        <time>2011-02-13T10:14:05Z</time>
      </trkpt>
      <trkpt lat="44.51106" lon="6.10357">
        <ele>974.433594</ele>
        <time>2011-02-13T10:14:07Z</time>
      </trkpt>
      <trkpt lat="44.511" lon="6.10365">
        <ele>974.433594</ele>
        <time>2011-02-13T10:14:08Z</time>
      </trkpt>
      <trkpt lat="44.51073" lon="6.10406">
        <ele>972.030273</ele>
        <time>2011-02-13T10:14:13Z</time>
      </trkpt>
      <trkpt lat="44.51065" lon="6.10423">
        <ele>971.068848</ele>
        <time>2011-02-13T10:14:15Z</time>
      </trkpt>
      <trkpt lat="44.51057" lon="6.10473">
        <ele>968.665527</ele>
        <time>2011-02-13T10:14:20Z</time>
      </trkpt>
      <trkpt lat="44.51057" lon="6.10497">
        <ele>967.223633</ele>
        <time>2011-02-13T10:14:22Z</time>
      </trkpt>
      <trkpt lat="44.5106" lon="6.10521">
        <ele>965.781738</ele>
        <time>2011-02-13T10:14:24Z</time>
      </trkpt>
      <trkpt lat="44.51062" lon="6.10547">
        <ele>964.3396</ele>
        <time>2011-02-13T10:14:26Z</time>
      </trkpt>
      <trkpt lat="44.51064" lon="6.10585">
        <ele>961.936523</ele>
        <time>2011-02-13T10:14:29Z</time>
      </trkpt>
      <trkpt lat="44.51042" lon="6.10658">
        <ele>957.129883</ele>
        <time>2011-02-13T10:14:35Z</time>
      </trkpt>
      <trkpt lat="44.51001" lon="6.10726">
        <ele>953.284424</ele>
        <time>2011-02-13T10:14:41Z</time>
      </trkpt>
      <trkpt lat="44.50994" lon="6.10738">
        <ele>953.284424</ele>
        <time>2011-02-13T10:14:42Z</time>
      </trkpt>
      <trkpt lat="44.50973" lon="6.10771">
        <ele>950.881104</ele>
        <time>2011-02-13T10:14:45Z</time>
      </trkpt>
      <trkpt lat="44.50946" lon="6.10815">
        <ele>948.477783</ele>
        <time>2011-02-13T10:14:49Z</time>
      </trkpt>
      <trkpt lat="44.50931" lon="6.10836">
        <ele>945.113281</ele>
        <time>2011-02-13T10:14:51Z</time>
      </trkpt>
      <trkpt lat="44.50924" lon="6.10846">
        <ele>945.113281</ele>
        <time>2011-02-13T10:14:52Z</time>
      </trkpt>
      <trkpt lat="44.50895" lon="6.10881">
        <ele>943.671387</ele>
        <time>2011-02-13T10:14:56Z</time>
      </trkpt>
      <trkpt lat="44.50831" lon="6.10908">
        <ele>941.268066</ele>
        <time>2011-02-13T10:15:04Z</time>
      </trkpt>
      <trkpt lat="44.50725" lon="6.10937">
        <ele>941.748779</ele>
        <time>2011-02-13T10:15:20Z</time>
      </trkpt>
      <trkpt lat="44.50648" lon="6.10961">
        <ele>939.825928</ele>
        <time>2011-02-13T10:15:35Z</time>
      </trkpt>
      <trkpt lat="44.50616" lon="6.10969">
        <ele>937.90332</ele>
        <time>2011-02-13T10:15:40Z</time>
      </trkpt>
      <trkpt lat="44.50596" lon="6.10975">
        <ele>935.5</ele>
        <time>2011-02-13T10:15:43Z</time>
      </trkpt>
      <trkpt lat="44.50547" lon="6.1099">
        <ele>935.980713</ele>
        <time>2011-02-13T10:15:53Z</time>
      </trkpt>
      <trkpt lat="44.50539" lon="6.10993">
        <ele>935.980713</ele>
        <time>2011-02-13T10:15:55Z</time>
      </trkpt>
      <trkpt lat="44.50479" lon="6.11007">
        <ele>935.019531</ele>
        <time>2011-02-13T10:16:11Z</time>
      </trkpt>
      <trkpt lat="44.50459" lon="6.11016">
        <ele>935.019531</ele>
        <time>2011-02-13T10:16:16Z</time>
      </trkpt>
      <trkpt lat="44.50446" lon="6.11029">
        <ele>934.538818</ele>
        <time>2011-02-13T10:16:20Z</time>
      </trkpt>
      <trkpt lat="44.50428" lon="6.11073">
        <ele>931.174316</ele>
        <time>2011-02-13T10:16:27Z</time>
      </trkpt>
      <trkpt lat="44.50421" lon="6.11091">
        <ele>929.732178</ele>
        <time>2011-02-13T10:16:29Z</time>
      </trkpt>
      <trkpt lat="44.50399" lon="6.11137">
        <ele>927.80957</ele>
        <time>2011-02-13T10:16:37Z</time>
      </trkpt>
      <trkpt lat="44.50371" lon="6.11156">
        <ele>925.40625</ele>
        <time>2011-02-13T10:16:50Z</time>
      </trkpt>
      <trkpt lat="44.50336" lon="6.11161">
        <ele>922.041504</ele>
        <time>2011-02-13T10:16:56Z</time>
      </trkpt>
      <trkpt lat="44.50329" lon="6.11162">
        <ele>922.041504</ele>
        <time>2011-02-13T10:16:57Z</time>
      </trkpt>
      <trkpt lat="44.503" lon="6.11162">
        <ele>920.118896</ele>
        <time>2011-02-13T10:17:01Z</time>
      </trkpt>
      <trkpt lat="44.50279" lon="6.11161">
        <ele>918.677002</ele>
        <time>2011-02-13T10:17:04Z</time>
      </trkpt>
      <trkpt lat="44.50235" lon="6.11154">
        <ele>916.273682</ele>
        <time>2011-02-13T10:17:11Z</time>
      </trkpt>
      <trkpt lat="44.50187" lon="6.11144">
        <ele>912.90918</ele>
        <time>2011-02-13T10:17:19Z</time>
      </trkpt>
      <trkpt lat="44.50168" lon="6.1114">
        <ele>911.467285</ele>
        <time>2011-02-13T10:17:22Z</time>
      </trkpt>
      <trkpt lat="44.50146" lon="6.1114">
        <ele>910.505859</ele>
        <time>2011-02-13T10:17:25Z</time>
      </trkpt>
      <trkpt lat="44.50111" lon="6.11151">
        <ele>908.102783</ele>
        <time>2011-02-13T10:17:30Z</time>
      </trkpt>
      <trkpt lat="44.50086" lon="6.11151">
        <ele>906.6604</ele>
        <time>2011-02-13T10:17:34Z</time>
      </trkpt>
      <trkpt lat="44.50049" lon="6.11144">
        <ele>902.815186</ele>
        <time>2011-02-13T10:17:40Z</time>
      </trkpt>
      <trkpt lat="44.50043" lon="6.11143">
        <ele>902.815186</ele>
        <time>2011-02-13T10:17:41Z</time>
      </trkpt>
      <trkpt lat="44.50029" lon="6.11142">
        <ele>901.854004</ele>
        <time>2011-02-13T10:17:43Z</time>
      </trkpt>
      <trkpt lat="44.50009" lon="6.11142">
        <ele>899.931396</ele>
        <time>2011-02-13T10:17:46Z</time>
      </trkpt>
      <trkpt lat="44.49989" lon="6.1116">
        <ele>898.489258</ele>
        <time>2011-02-13T10:17:50Z</time>
      </trkpt>
      <trkpt lat="44.4999" lon="6.11201">
        <ele>895.605469</ele>
        <time>2011-02-13T10:17:56Z</time>
      </trkpt>
      <trkpt lat="44.49993" lon="6.11207">
        <ele>895.605469</ele>
        <time>2011-02-13T10:17:57Z</time>
      </trkpt>
      <trkpt lat="44.50003" lon="6.11225">
        <ele>896.086182</ele>
        <time>2011-02-13T10:18:00Z</time>
      </trkpt>
      <trkpt lat="44.50032" lon="6.11256">
        <ele>892.72168</ele>
        <time>2011-02-13T10:18:10Z</time>
      </trkpt>
      <trkpt lat="44.50043" lon="6.11277">
        <ele>891.279297</ele>
        <time>2011-02-13T10:18:13Z</time>
      </trkpt>
      <trkpt lat="44.5003" lon="6.11312">
        <ele>887.914795</ele>
        <time>2011-02-13T10:18:17Z</time>
      </trkpt>
      <trkpt lat="44.50024" lon="6.11315">
        <ele>887.914795</ele>
        <time>2011-02-13T10:18:18Z</time>
      </trkpt>
      <trkpt lat="44.50018" lon="6.11316">
        <ele>887.434082</ele>
        <time>2011-02-13T10:18:19Z</time>
      </trkpt>
      <trkpt lat="44.49979" lon="6.11321">
        <ele>885.031006</ele>
        <time>2011-02-13T10:18:25Z</time>
      </trkpt>
      <trkpt lat="44.49943" lon="6.11324">
        <ele>882.627686</ele>
        <time>2011-02-13T10:18:30Z</time>
      </trkpt>
      <trkpt lat="44.49899" lon="6.1134">
        <ele>878.782471</ele>
        <time>2011-02-13T10:18:38Z</time>
      </trkpt>
      <trkpt lat="44.49893" lon="6.11343">
        <ele>878.782471</ele>
        <time>2011-02-13T10:18:39Z</time>
      </trkpt>
      <trkpt lat="44.49866" lon="6.11356">
        <ele>876.859863</ele>
        <time>2011-02-13T10:18:43Z</time>
      </trkpt>
      <trkpt lat="44.49825" lon="6.11396">
        <ele>873.495117</ele>
        <time>2011-02-13T10:18:52Z</time>
      </trkpt>
      <trkpt lat="44.4982" lon="6.11401">
        <ele>873.495117</ele>
        <time>2011-02-13T10:18:53Z</time>
      </trkpt>
      <trkpt lat="44.49803" lon="6.11422">
        <ele>873.014404</ele>
        <time>2011-02-13T10:18:57Z</time>
      </trkpt>
      <trkpt lat="44.49781" lon="6.1143">
        <ele>869.649902</ele>
        <time>2011-02-13T10:19:01Z</time>
      </trkpt>
      <trkpt lat="44.49762" lon="6.11428">
        <ele>869.169189</ele>
        <time>2011-02-13T10:19:04Z</time>
      </trkpt>
      <trkpt lat="44.4974" lon="6.11469">
        <ele>866.765869</ele>
        <time>2011-02-13T10:19:11Z</time>
      </trkpt>
      <trkpt lat="44.49741" lon="6.11489">
        <ele>865.804688</ele>
        <time>2011-02-13T10:19:13Z</time>
      </trkpt>
      <trkpt lat="44.49743" lon="6.11521">
        <ele>862.920654</ele>
        <time>2011-02-13T10:19:16Z</time>
      </trkpt>
      <trkpt lat="44.49745" lon="6.11569">
        <ele>861.959473</ele>
        <time>2011-02-13T10:19:22Z</time>
      </trkpt>
      <trkpt lat="44.4972" lon="6.11598">
        <ele>858.594482</ele>
        <time>2011-02-13T10:19:29Z</time>
      </trkpt>
      <trkpt lat="44.49713" lon="6.11592">
        <ele>858.594482</ele>
        <time>2011-02-13T10:19:30Z</time>
      </trkpt>
      <trkpt lat="44.49709" lon="6.11578">
        <ele>857.633301</ele>
        <time>2011-02-13T10:19:32Z</time>
      </trkpt>
      <trkpt lat="44.49704" lon="6.11563">
        <ele>857.633301</ele>
        <time>2011-02-13T10:19:34Z</time>
      </trkpt>
      <trkpt lat="44.49691" lon="6.11543">
        <ele>855.710693</ele>
        <time>2011-02-13T10:19:37Z</time>
      </trkpt>
      <trkpt lat="44.49671" lon="6.11532">
        <ele>853.307373</ele>
        <time>2011-02-13T10:19:40Z</time>
      </trkpt>
      <trkpt lat="44.49646" lon="6.11524">
        <ele>851.865479</ele>
        <time>2011-02-13T10:19:43Z</time>
      </trkpt>
      <trkpt lat="44.49604" lon="6.11514">
        <ele>849.462158</ele>
        <time>2011-02-13T10:19:48Z</time>
      </trkpt>
      <trkpt lat="44.49588" lon="6.11504">
        <ele>847.539551</ele>
        <time>2011-02-13T10:19:50Z</time>
      </trkpt>
      <trkpt lat="44.4957" lon="6.11484">
        <ele>846.097656</ele>
        <time>2011-02-13T10:19:53Z</time>
      </trkpt>
      <trkpt lat="44.49563" lon="6.11467">
        <ele>846.097656</ele>
        <time>2011-02-13T10:19:55Z</time>
      </trkpt>
      <trkpt lat="44.49552" lon="6.11447">
        <ele>845.13623</ele>
        <time>2011-02-13T10:19:58Z</time>
      </trkpt>
      <trkpt lat="44.4952" lon="6.11413">
        <ele>842.73291</ele>
        <time>2011-02-13T10:20:06Z</time>
      </trkpt>
      <trkpt lat="44.49509" lon="6.11404">
        <ele>841.771484</ele>
        <time>2011-02-13T10:20:09Z</time>
      </trkpt>
      <trkpt lat="44.49482" lon="6.11353">
        <ele>838.406982</ele>
        <time>2011-02-13T10:20:17Z</time>
      </trkpt>
      <trkpt lat="44.49457" lon="6.11334">
        <ele>836.003662</ele>
        <time>2011-02-13T10:20:23Z</time>
      </trkpt>
      <trkpt lat="44.49449" lon="6.11327">
        <ele>835.522949</ele>
        <time>2011-02-13T10:20:24Z</time>
      </trkpt>
      <trkpt lat="44.49413" lon="6.11362">
        <ele>835.04248</ele>
        <time>2011-02-13T10:20:30Z</time>
      </trkpt>
      <trkpt lat="44.49399" lon="6.11397">
        <ele>832.158447</ele>
        <time>2011-02-13T10:20:37Z</time>
      </trkpt>
      <trkpt lat="44.49413" lon="6.11449">
        <ele>828.313232</ele>
        <time>2011-02-13T10:20:43Z</time>
      </trkpt>
      <trkpt lat="44.49415" lon="6.11483">
        <ele>826.871094</ele>
        <time>2011-02-13T10:20:46Z</time>
      </trkpt>
      <trkpt lat="44.49409" lon="6.1154">
        <ele>824.948486</ele>
        <time>2011-02-13T10:20:51Z</time>
      </trkpt>
      <trkpt lat="44.49379" lon="6.1158">
        <ele>823.025879</ele>
        <time>2011-02-13T10:20:58Z</time>
      </trkpt>
      <trkpt lat="44.49358" lon="6.11539">
        <ele>820.622559</ele>
        <time>2011-02-13T10:21:04Z</time>
      </trkpt>
      <trkpt lat="44.4936" lon="6.11529">
        <ele>820.622559</ele>
        <time>2011-02-13T10:21:05Z</time>
      </trkpt>
      <trkpt lat="44.49367" lon="6.11511">
        <ele>819.661377</ele>
        <time>2011-02-13T10:21:07Z</time>
      </trkpt>
      <trkpt lat="44.49374" lon="6.11494">
        <ele>819.661377</ele>
        <time>2011-02-13T10:21:09Z</time>
      </trkpt>
      <trkpt lat="44.49371" lon="6.11443">
        <ele>816.777344</ele>
        <time>2011-02-13T10:21:14Z</time>
      </trkpt>
      <trkpt lat="44.49366" lon="6.11434">
        <ele>815.816162</ele>
        <time>2011-02-13T10:21:15Z</time>
      </trkpt>
      <trkpt lat="44.49354" lon="6.11403">
        <ele>814.374023</ele>
        <time>2011-02-13T10:21:18Z</time>
      </trkpt>
      <trkpt lat="44.49343" lon="6.1137">
        <ele>812.451416</ele>
        <time>2011-02-13T10:21:21Z</time>
      </trkpt>
      <trkpt lat="44.49327" lon="6.11296">
        <ele>809.567383</ele>
        <time>2011-02-13T10:21:28Z</time>
      </trkpt>
      <trkpt lat="44.49323" lon="6.11276">
        <ele>809.08667</ele>
        <time>2011-02-13T10:21:30Z</time>
      </trkpt>
      <trkpt lat="44.49335" lon="6.11225">
        <ele>808.125488</ele>
        <time>2011-02-13T10:21:38Z</time>
      </trkpt>
      <trkpt lat="44.49356" lon="6.11211">
        <ele>806.68335</ele>
        <time>2011-02-13T10:21:42Z</time>
      </trkpt>
      <trkpt lat="44.49404" lon="6.11181">
        <ele>804.760742</ele>
        <time>2011-02-13T10:21:50Z</time>
      </trkpt>
      <trkpt lat="44.49426" lon="6.11134">
        <ele>802.357422</ele>
        <time>2011-02-13T10:21:58Z</time>
      </trkpt>
      <trkpt lat="44.49421" lon="6.11105">
        <ele>799.954346</ele>
        <time>2011-02-13T10:22:02Z</time>
      </trkpt>
      <trkpt lat="44.49411" lon="6.11092">
        <ele>797.070313</ele>
        <time>2011-02-13T10:22:04Z</time>
      </trkpt>
      <trkpt lat="44.49404" lon="6.11088">
        <ele>797.070313</ele>
        <time>2011-02-13T10:22:05Z</time>
      </trkpt>
      <trkpt lat="44.49398" lon="6.11085">
        <ele>796.589844</ele>
        <time>2011-02-13T10:22:06Z</time>
      </trkpt>
      <trkpt lat="44.49379" lon="6.11076">
        <ele>796.109131</ele>
        <time>2011-02-13T10:22:09Z</time>
      </trkpt>
      <trkpt lat="44.49359" lon="6.11059">
        <ele>793.705566</ele>
        <time>2011-02-13T10:22:12Z</time>
      </trkpt>
      <trkpt lat="44.49349" lon="6.11039">
        <ele>792.263672</ele>
        <time>2011-02-13T10:22:14Z</time>
      </trkpt>
      <trkpt lat="44.49339" lon="6.11011">
        <ele>790.821533</ele>
        <time>2011-02-13T10:22:17Z</time>
      </trkpt>
      <trkpt lat="44.49296" lon="6.11005">
        <ele>787.937744</ele>
        <time>2011-02-13T10:22:24Z</time>
      </trkpt>
      <trkpt lat="44.49289" lon="6.1101">
        <ele>786.49585</ele>
        <time>2011-02-13T10:22:25Z</time>
      </trkpt>
      <trkpt lat="44.49267" lon="6.11024">
        <ele>785.053955</ele>
        <time>2011-02-13T10:22:28Z</time>
      </trkpt>
      <trkpt lat="44.49243" lon="6.11038">
        <ele>782.650635</ele>
        <time>2011-02-13T10:22:31Z</time>
      </trkpt>
      <trkpt lat="44.4921" lon="6.11039">
        <ele>781.689209</ele>
        <time>2011-02-13T10:22:35Z</time>
      </trkpt>
      <trkpt lat="44.49196" lon="6.11031">
        <ele>780.728027</ele>
        <time>2011-02-13T10:22:37Z</time>
      </trkpt>
      <trkpt lat="44.49182" lon="6.11022">
        <ele>779.285645</ele>
        <time>2011-02-13T10:22:39Z</time>
      </trkpt>
      <trkpt lat="44.49162" lon="6.11006">
        <ele>777.363281</ele>
        <time>2011-02-13T10:22:42Z</time>
      </trkpt>
      <trkpt lat="44.49134" lon="6.10989">
        <ele>776.882568</ele>
        <time>2011-02-13T10:22:47Z</time>
      </trkpt>
      <trkpt lat="44.49097" lon="6.11004">
        <ele>773.518066</ele>
        <time>2011-02-13T10:22:54Z</time>
      </trkpt>
      <trkpt lat="44.49086" lon="6.11015">
        <ele>772.556641</ele>
        <time>2011-02-13T10:22:56Z</time>
      </trkpt>
      <trkpt lat="44.4906" lon="6.11053">
        <ele>770.15332</ele>
        <time>2011-02-13T10:23:03Z</time>
      </trkpt>
      <trkpt lat="44.49055" lon="6.11063">
        <ele>770.634033</ele>
        <time>2011-02-13T10:23:05Z</time>
      </trkpt>
      <trkpt lat="44.49053" lon="6.111">
        <ele>767.75</ele>
        <time>2011-02-13T10:23:10Z</time>
      </trkpt>
      <trkpt lat="44.49056" lon="6.11119">
        <ele>766.308105</ele>
        <time>2011-02-13T10:23:12Z</time>
      </trkpt>
      <trkpt lat="44.49063" lon="6.11161">
        <ele>763.904541</ele>
        <time>2011-02-13T10:23:16Z</time>
      </trkpt>
      <trkpt lat="44.49069" lon="6.11193">
        <ele>762.462646</ele>
        <time>2011-02-13T10:23:19Z</time>
      </trkpt>
      <trkpt lat="44.49097" lon="6.11245">
        <ele>759.098145</ele>
        <time>2011-02-13T10:23:25Z</time>
      </trkpt>
      <trkpt lat="44.49128" lon="6.11277">
        <ele>758.136963</ele>
        <time>2011-02-13T10:23:30Z</time>
      </trkpt>
      <trkpt lat="44.49128" lon="6.11326">
        <ele>755.733643</ele>
        <time>2011-02-13T10:23:37Z</time>
      </trkpt>
      <trkpt lat="44.49112" lon="6.11329">
        <ele>753.811035</ele>
        <time>2011-02-13T10:23:40Z</time>
      </trkpt>
      <trkpt lat="44.49103" lon="6.11317">
        <ele>752.849609</ele>
        <time>2011-02-13T10:23:42Z</time>
      </trkpt>
      <trkpt lat="44.49093" lon="6.11306">
        <ele>751.888428</ele>
        <time>2011-02-13T10:23:44Z</time>
      </trkpt>
      <trkpt lat="44.49071" lon="6.11305">
        <ele>749.485107</ele>
        <time>2011-02-13T10:23:47Z</time>
      </trkpt>
      <trkpt lat="44.49054" lon="6.11309">
        <ele>748.043213</ele>
        <time>2011-02-13T10:23:49Z</time>
      </trkpt>
      <trkpt lat="44.49037" lon="6.11311">
        <ele>746.601074</ele>
        <time>2011-02-13T10:23:51Z</time>
      </trkpt>
      <trkpt lat="44.49021" lon="6.11313">
        <ele>745.158936</ele>
        <time>2011-02-13T10:23:53Z</time>
      </trkpt>
      <trkpt lat="44.48993" lon="6.11348">
        <ele>744.197754</ele>
        <time>2011-02-13T10:24:00Z</time>
      </trkpt>
      <trkpt lat="44.48999" lon="6.11373">
        <ele>742.275146</ele>
        <time>2011-02-13T10:24:03Z</time>
      </trkpt>
      <trkpt lat="44.49006" lon="6.11392">
        <ele>741.313721</ele>
        <time>2011-02-13T10:24:05Z</time>
      </trkpt>
      <trkpt lat="44.49014" lon="6.11412">
        <ele>739.391113</ele>
        <time>2011-02-13T10:24:07Z</time>
      </trkpt>
      <trkpt lat="44.49026" lon="6.11443">
        <ele>736.987793</ele>
        <time>2011-02-13T10:24:10Z</time>
      </trkpt>
      <trkpt lat="44.49059" lon="6.11526">
        <ele>733.623291</ele>
        <time>2011-02-13T10:24:18Z</time>
      </trkpt>
      <trkpt lat="44.49083" lon="6.11578">
        <ele>731.219971</ele>
        <time>2011-02-13T10:24:24Z</time>
      </trkpt>
      <trkpt lat="44.49115" lon="6.11622">
        <ele>728.335938</ele>
        <time>2011-02-13T10:24:30Z</time>
      </trkpt>
      <trkpt lat="44.49121" lon="6.11629">
        <ele>728.335938</ele>
        <time>2011-02-13T10:24:31Z</time>
      </trkpt>
      <trkpt lat="44.49134" lon="6.11642">
        <ele>726.894043</ele>
        <time>2011-02-13T10:24:33Z</time>
      </trkpt>
      <trkpt lat="44.49148" lon="6.11656">
        <ele>724.971436</ele>
        <time>2011-02-13T10:24:35Z</time>
      </trkpt>
      <trkpt lat="44.49168" lon="6.11677">
        <ele>724.01001</ele>
        <time>2011-02-13T10:24:38Z</time>
      </trkpt>
      <trkpt lat="44.49191" lon="6.11727">
        <ele>721.126221</ele>
        <time>2011-02-13T10:24:44Z</time>
      </trkpt>
      <trkpt lat="44.49193" lon="6.11759">
        <ele>718.7229</ele>
        <time>2011-02-13T10:24:47Z</time>
      </trkpt>
      <trkpt lat="44.49197" lon="6.11806">
        <ele>716.31958</ele>
        <time>2011-02-13T10:24:51Z</time>
      </trkpt>
      <trkpt lat="44.492" lon="6.11844">
        <ele>713.435547</ele>
        <time>2011-02-13T10:24:54Z</time>
      </trkpt>
      <trkpt lat="44.49208" lon="6.11909">
        <ele>710.070801</ele>
        <time>2011-02-13T10:24:59Z</time>
      </trkpt>
      <trkpt lat="44.49222" lon="6.11962">
        <ele>707.667725</ele>
        <time>2011-02-13T10:25:03Z</time>
      </trkpt>
      <trkpt lat="44.49224" lon="6.11989">
        <ele>706.225586</ele>
        <time>2011-02-13T10:25:05Z</time>
      </trkpt>
      <trkpt lat="44.49229" lon="6.12049">
        <ele>703.82251</ele>
        <time>2011-02-13T10:25:10Z</time>
      </trkpt>
      <trkpt lat="44.49237" lon="6.12105">
        <ele>701.419189</ele>
        <time>2011-02-13T10:25:15Z</time>
      </trkpt>
      <trkpt lat="44.4924" lon="6.12127">
        <ele>699.496338</ele>
        <time>2011-02-13T10:25:17Z</time>
      </trkpt>
      <trkpt lat="44.49243" lon="6.12149">
        <ele>698.054443</ele>
        <time>2011-02-13T10:25:19Z</time>
      </trkpt>
      <trkpt lat="44.4925" lon="6.12196">
        <ele>697.093018</ele>
        <time>2011-02-13T10:25:24Z</time>
      </trkpt>
      <trkpt lat="44.49247" lon="6.12224">
        <ele>695.651123</ele>
        <time>2011-02-13T10:25:27Z</time>
      </trkpt>
      <trkpt lat="44.49239" lon="6.12254">
        <ele>694.689697</ele>
        <time>2011-02-13T10:25:32Z</time>
      </trkpt>
      <trkpt lat="44.49214" lon="6.12267">
        <ele>692.767334</ele>
        <time>2011-02-13T10:25:37Z</time>
      </trkpt>
      <trkpt lat="44.49228" lon="6.12282">
        <ele>692.767334</ele>
        <time>2011-02-13T10:25:48Z</time>
      </trkpt>
      <trkpt lat="44.49228" lon="6.12282">
        <ele>692.767334</ele>
        <time>2011-02-13T10:26:15Z</time>
      </trkpt>
      <trkpt lat="44.49213" lon="6.12276">
        <ele>692.767334</ele>
        <time>2011-02-13T10:26:54Z</time>
      </trkpt>
      <trkpt lat="44.49208" lon="6.12298">
        <ele>690.844482</ele>
        <time>2011-02-13T10:26:59Z</time>
      </trkpt>
      <trkpt lat="44.492" lon="6.12315">
        <ele>690.364014</ele>
        <time>2011-02-13T10:27:02Z</time>
      </trkpt>
      <trkpt lat="44.4918" lon="6.12345">
        <ele>688.441406</ele>
        <time>2011-02-13T10:27:08Z</time>
      </trkpt>
      <trkpt lat="44.49137" lon="6.12402">
        <ele>685.076904</ele>
        <time>2011-02-13T10:27:19Z</time>
      </trkpt>
      <trkpt lat="44.49124" lon="6.12422">
        <ele>683.634521</ele>
        <time>2011-02-13T10:27:22Z</time>
      </trkpt>
      <trkpt lat="44.49117" lon="6.12436">
        <ele>682.67334</ele>
        <time>2011-02-13T10:27:24Z</time>
      </trkpt>
      <trkpt lat="44.49107" lon="6.12479">
        <ele>679.789307</ele>
        <time>2011-02-13T10:27:29Z</time>
      </trkpt>
      <trkpt lat="44.49109" lon="6.12551">
        <ele>675.463379</ele>
        <time>2011-02-13T10:27:36Z</time>
      </trkpt>
      <trkpt lat="44.49111" lon="6.12561">
        <ele>675.463379</ele>
        <time>2011-02-13T10:27:37Z</time>
      </trkpt>
      <trkpt lat="44.49129" lon="6.1261">
        <ele>675.463379</ele>
        <time>2011-02-13T10:27:43Z</time>
      </trkpt>
      <trkpt lat="44.49124" lon="6.12662">
        <ele>673.060303</ele>
        <time>2011-02-13T10:27:50Z</time>
      </trkpt>
      <trkpt lat="44.49112" lon="6.12688">
        <ele>671.137695</ele>
        <time>2011-02-13T10:27:53Z</time>
      </trkpt>
      <trkpt lat="44.49097" lon="6.12727">
        <ele>668.734375</ele>
        <time>2011-02-13T10:27:57Z</time>
      </trkpt>
      <trkpt lat="44.49088" lon="6.12747">
        <ele>667.772705</ele>
        <time>2011-02-13T10:27:59Z</time>
      </trkpt>
      <trkpt lat="44.49065" lon="6.1277">
        <ele>667.772705</ele>
        <time>2011-02-13T10:28:03Z</time>
      </trkpt>
      <trkpt lat="44.49051" lon="6.12798">
        <ele>667.292236</ele>
        <time>2011-02-13T10:28:07Z</time>
      </trkpt>
      <trkpt lat="44.49043" lon="6.12834">
        <ele>671.137695</ele>
        <time>2011-02-13T10:28:13Z</time>
      </trkpt>
      <trkpt lat="44.49042" lon="6.12837">
        <ele>671.137695</ele>
        <time>2011-02-13T10:28:14Z</time>
      </trkpt>
      <trkpt lat="44.49045" lon="6.12888">
        <ele>673.541016</ele>
        <time>2011-02-13T10:28:29Z</time>
      </trkpt>
      <trkpt lat="44.49037" lon="6.12895">
        <ele>674.502197</ele>
        <time>2011-02-13T10:28:33Z</time>
      </trkpt>
      <trkpt lat="44.49015" lon="6.12868">
        <ele>677.38623</ele>
        <time>2011-02-13T10:28:46Z</time>
      </trkpt>
      <trkpt lat="44.48986" lon="6.12825">
        <ele>680.750732</ele>
        <time>2011-02-13T10:29:04Z</time>
      </trkpt>
      <trkpt lat="44.48977" lon="6.12813">
        <ele>680.750732</ele>
        <time>2011-02-13T10:29:09Z</time>
      </trkpt>
      <trkpt lat="44.48935" lon="6.12783">
        <ele>679.789307</ele>
        <time>2011-02-13T10:29:23Z</time>
      </trkpt>
      <trkpt lat="44.48898" lon="6.12742">
        <ele>680.27002</ele>
        <time>2011-02-13T10:29:38Z</time>
      </trkpt>
      <trkpt lat="44.48867" lon="6.12697">
        <ele>681.711914</ele>
        <time>2011-02-13T10:29:53Z</time>
      </trkpt>
      <trkpt lat="44.48823" lon="6.1266">
        <ele>682.67334</ele>
        <time>2011-02-13T10:30:11Z</time>
      </trkpt>
      <trkpt lat="44.48791" lon="6.12626">
        <ele>682.67334</ele>
        <time>2011-02-13T10:30:24Z</time>
      </trkpt>
      <trkpt lat="44.4879" lon="6.12607">
        <ele>681.711914</ele>
        <time>2011-02-13T10:30:29Z</time>
      </trkpt>
      <trkpt lat="44.48785" lon="6.12579">
        <ele>678.828125</ele>
        <time>2011-02-13T10:30:33Z</time>
      </trkpt>
      <trkpt lat="44.4878" lon="6.12547">
        <ele>676.905518</ele>
        <time>2011-02-13T10:30:37Z</time>
      </trkpt>
      <trkpt lat="44.48771" lon="6.12507">
        <ele>674.502197</ele>
        <time>2011-02-13T10:30:42Z</time>
      </trkpt>
      <trkpt lat="44.48761" lon="6.12459">
        <ele>671.137695</ele>
        <time>2011-02-13T10:30:48Z</time>
      </trkpt>
      <trkpt lat="44.48759" lon="6.12452">
        <ele>671.137695</ele>
        <time>2011-02-13T10:30:49Z</time>
      </trkpt>
      <trkpt lat="44.48741" lon="6.12421">
        <ele>670.17627</ele>
        <time>2011-02-13T10:30:55Z</time>
      </trkpt>
      <trkpt lat="44.48696" lon="6.1231">
        <ele>670.656982</ele>
        <time>2011-02-13T10:31:16Z</time>
      </trkpt>
      <trkpt lat="44.48675" lon="6.12266">
        <ele>670.17627</ele>
        <time>2011-02-13T10:31:25Z</time>
      </trkpt>
      <trkpt lat="44.48659" lon="6.12215">
        <ele>668.734375</ele>
        <time>2011-02-13T10:31:33Z</time>
      </trkpt>
      <trkpt lat="44.48635" lon="6.12104">
        <ele>666.330811</ele>
        <time>2011-02-13T10:31:47Z</time>
      </trkpt>
      <trkpt lat="44.48621" lon="6.11964">
        <ele>665.369629</ele>
        <time>2011-02-13T10:32:05Z</time>
      </trkpt>
      <trkpt lat="44.4862" lon="6.1195">
        <ele>665.850342</ele>
        <time>2011-02-13T10:32:07Z</time>
      </trkpt>
      <trkpt lat="44.48617" lon="6.1193">
        <ele>665.850342</ele>
        <time>2011-02-13T10:32:10Z</time>
      </trkpt>
      <trkpt lat="44.48609" lon="6.11884">
        <ele>666.330811</ele>
        <time>2011-02-13T10:32:18Z</time>
      </trkpt>
      <trkpt lat="44.48603" lon="6.11867">
        <ele>666.330811</ele>
        <time>2011-02-13T10:32:21Z</time>
      </trkpt>
      <trkpt lat="44.48586" lon="6.11846">
        <ele>665.850342</ele>
        <time>2011-02-13T10:32:26Z</time>
      </trkpt>
      <trkpt lat="44.48574" lon="6.11805">
        <ele>666.330811</ele>
        <time>2011-02-13T10:32:33Z</time>
      </trkpt>
      <trkpt lat="44.48564" lon="6.11785">
        <ele>666.811523</ele>
        <time>2011-02-13T10:32:37Z</time>
      </trkpt>
      <trkpt lat="44.4855" lon="6.11764">
        <ele>666.811523</ele>
        <time>2011-02-13T10:32:42Z</time>
      </trkpt>
      <trkpt lat="44.48538" lon="6.11748">
        <ele>666.811523</ele>
        <time>2011-02-13T10:32:46Z</time>
      </trkpt>
      <trkpt lat="44.48519" lon="6.11719">
        <ele>668.253662</ele>
        <time>2011-02-13T10:32:53Z</time>
      </trkpt>
      <trkpt lat="44.48485" lon="6.1163">
        <ele>669.215088</ele>
        <time>2011-02-13T10:33:12Z</time>
      </trkpt>
      <trkpt lat="44.48445" lon="6.11549">
        <ele>669.215088</ele>
        <time>2011-02-13T10:33:31Z</time>
      </trkpt>
      <trkpt lat="44.48406" lon="6.1147">
        <ele>670.17627</ele>
        <time>2011-02-13T10:33:48Z</time>
      </trkpt>
      <trkpt lat="44.48355" lon="6.11388">
        <ele>671.618164</ele>
        <time>2011-02-13T10:34:07Z</time>
      </trkpt>
      <trkpt lat="44.4835" lon="6.1138">
        <ele>671.618164</ele>
        <time>2011-02-13T10:34:09Z</time>
      </trkpt>
      <trkpt lat="44.48297" lon="6.11298">
        <ele>672.098877</ele>
        <time>2011-02-13T10:34:28Z</time>
      </trkpt>
      <trkpt lat="44.48209" lon="6.11214">
        <ele>670.17627</ele>
        <time>2011-02-13T10:34:51Z</time>
      </trkpt>
      <trkpt lat="44.48205" lon="6.1121">
        <ele>670.17627</ele>
        <time>2011-02-13T10:34:52Z</time>
      </trkpt>
      <trkpt lat="44.48162" lon="6.11151">
        <ele>665.369629</ele>
        <time>2011-02-13T10:35:02Z</time>
      </trkpt>
      <trkpt lat="44.48156" lon="6.11145">
        <ele>665.369629</ele>
        <time>2011-02-13T10:35:03Z</time>
      </trkpt>
      <trkpt lat="44.48112" lon="6.11124">
        <ele>663.447021</ele>
        <time>2011-02-13T10:35:10Z</time>
      </trkpt>
      <trkpt lat="44.48088" lon="6.11132">
        <ele>661.043701</ele>
        <time>2011-02-13T10:35:13Z</time>
      </trkpt>
      <trkpt lat="44.48038" lon="6.1115">
        <ele>658.159912</ele>
        <time>2011-02-13T10:35:19Z</time>
      </trkpt>
      <trkpt lat="44.48029" lon="6.11153">
        <ele>658.159912</ele>
        <time>2011-02-13T10:35:20Z</time>
      </trkpt>
      <trkpt lat="44.47966" lon="6.11166">
        <ele>657.679199</ele>
        <time>2011-02-13T10:35:28Z</time>
      </trkpt>
      <trkpt lat="44.47923" lon="6.11148">
        <ele>655.275879</ele>
        <time>2011-02-13T10:35:34Z</time>
      </trkpt>
      <trkpt lat="44.47907" lon="6.11145">
        <ele>653.353271</ele>
        <time>2011-02-13T10:35:36Z</time>
      </trkpt>
      <trkpt lat="44.47889" lon="6.11138">
        <ele>651.43042</ele>
        <time>2011-02-13T10:35:38Z</time>
      </trkpt>
      <trkpt lat="44.47854" lon="6.11128">
        <ele>648.546387</ele>
        <time>2011-02-13T10:35:42Z</time>
      </trkpt>
      <trkpt lat="44.47845" lon="6.11125">
        <ele>648.546387</ele>
        <time>2011-02-13T10:35:43Z</time>
      </trkpt>
      <trkpt lat="44.47828" lon="6.11121">
        <ele>647.104492</ele>
        <time>2011-02-13T10:35:45Z</time>
      </trkpt>
      <trkpt lat="44.47806" lon="6.11117">
        <ele>646.143311</ele>
        <time>2011-02-13T10:35:48Z</time>
      </trkpt>
      <trkpt lat="44.47776" lon="6.11091">
        <ele>643.259277</ele>
        <time>2011-02-13T10:35:53Z</time>
      </trkpt>
      <trkpt lat="44.47756" lon="6.11069">
        <ele>638.933594</ele>
        <time>2011-02-13T10:35:56Z</time>
      </trkpt>
      <trkpt lat="44.47749" lon="6.11061">
        <ele>638.933594</ele>
        <time>2011-02-13T10:35:57Z</time>
      </trkpt>
      <trkpt lat="44.47735" lon="6.11048">
        <ele>637.491455</ele>
        <time>2011-02-13T10:35:59Z</time>
      </trkpt>
      <trkpt lat="44.47724" lon="6.11036">
        <ele>635.568604</ele>
        <time>2011-02-13T10:36:01Z</time>
      </trkpt>
      <trkpt lat="44.4771" lon="6.11023">
        <ele>634.126709</ele>
        <time>2011-02-13T10:36:04Z</time>
      </trkpt>
      <trkpt lat="44.47686" lon="6.10998">
        <ele>630.762207</ele>
        <time>2011-02-13T10:36:10Z</time>
      </trkpt>
      <trkpt lat="44.47682" lon="6.10995">
        <ele>630.762207</ele>
        <time>2011-02-13T10:36:11Z</time>
      </trkpt>
      <trkpt lat="44.47678" lon="6.10991">
        <ele>630.281494</ele>
        <time>2011-02-13T10:36:12Z</time>
      </trkpt>
      <trkpt lat="44.47668" lon="6.10983">
        <ele>629.800781</ele>
        <time>2011-02-13T10:36:21Z</time>
      </trkpt>
      <trkpt lat="44.47668" lon="6.10983">
        <ele>629.800781</ele>
        <time>2011-02-13T10:36:33Z</time>
      </trkpt>
      <trkpt lat="44.47651" lon="6.11018">
        <ele>627.397705</ele>
        <time>2011-02-13T10:36:44Z</time>
      </trkpt>
      <trkpt lat="44.47637" lon="6.11072">
        <ele>624.032959</ele>
        <time>2011-02-13T10:36:51Z</time>
      </trkpt>
      <trkpt lat="44.47629" lon="6.1111">
        <ele>622.110352</ele>
        <time>2011-02-13T10:36:55Z</time>
      </trkpt>
      <trkpt lat="44.47625" lon="6.1113">
        <ele>620.668457</ele>
        <time>2011-02-13T10:36:57Z</time>
      </trkpt>
      <trkpt lat="44.47617" lon="6.11162">
        <ele>619.707031</ele>
        <time>2011-02-13T10:37:01Z</time>
      </trkpt>
      <trkpt lat="44.47598" lon="6.11183">
        <ele>618.745605</ele>
        <time>2011-02-13T10:37:06Z</time>
      </trkpt>
      <trkpt lat="44.47498" lon="6.11198">
        <ele>618.745605</ele>
        <time>2011-02-13T10:37:25Z</time>
      </trkpt>
      <trkpt lat="44.47457" lon="6.11204">
        <ele>622.110352</ele>
        <time>2011-02-13T10:37:41Z</time>
      </trkpt>
      <trkpt lat="44.47426" lon="6.1121">
        <ele>624.994385</ele>
        <time>2011-02-13T10:37:56Z</time>
      </trkpt>
      <trkpt lat="44.47393" lon="6.11215">
        <ele>628.358887</ele>
        <time>2011-02-13T10:38:13Z</time>
      </trkpt>
      <trkpt lat="44.47361" lon="6.1122">
        <ele>631.24292</ele>
        <time>2011-02-13T10:38:30Z</time>
      </trkpt>
      <trkpt lat="44.47333" lon="6.11224">
        <ele>635.088135</ele>
        <time>2011-02-13T10:38:45Z</time>
      </trkpt>
      <trkpt lat="44.47297" lon="6.11229">
        <ele>637.972168</ele>
        <time>2011-02-13T10:39:04Z</time>
      </trkpt>
      <trkpt lat="44.47265" lon="6.11234">
        <ele>641.33667</ele>
        <time>2011-02-13T10:39:21Z</time>
      </trkpt>
      <trkpt lat="44.47231" lon="6.11238">
        <ele>644.701172</ele>
        <time>2011-02-13T10:39:40Z</time>
      </trkpt>
      <trkpt lat="44.47193" lon="6.11246">
        <ele>647.585205</ele>
        <time>2011-02-13T10:40:01Z</time>
      </trkpt>
      <trkpt lat="44.47163" lon="6.11253">
        <ele>650.949707</ele>
        <time>2011-02-13T10:40:19Z</time>
      </trkpt>
      <trkpt lat="44.47122" lon="6.11259">
        <ele>654.314697</ele>
        <time>2011-02-13T10:40:41Z</time>
      </trkpt>
      <trkpt lat="44.47079" lon="6.11259">
        <ele>657.198486</ele>
        <time>2011-02-13T10:41:04Z</time>
      </trkpt>
      <trkpt lat="44.47039" lon="6.11262">
        <ele>660.082275</ele>
        <time>2011-02-13T10:41:26Z</time>
      </trkpt>
      <trkpt lat="44.47015" lon="6.11268">
        <ele>662.485596</ele>
        <time>2011-02-13T10:41:39Z</time>
      </trkpt>
      <trkpt lat="44.46991" lon="6.11274">
        <ele>665.369629</ele>
        <time>2011-02-13T10:41:53Z</time>
      </trkpt>
      <trkpt lat="44.46972" lon="6.1128">
        <ele>665.369629</ele>
        <time>2011-02-13T10:42:04Z</time>
      </trkpt>
      <trkpt lat="44.46941" lon="6.11294">
        <ele>668.734375</ele>
        <time>2011-02-13T10:42:22Z</time>
      </trkpt>
      <trkpt lat="44.46927" lon="6.1129">
        <ele>670.17627</ele>
        <time>2011-02-13T10:42:30Z</time>
      </trkpt>
      <trkpt lat="44.46931" lon="6.11274">
        <ele>670.656982</ele>
        <time>2011-02-13T10:42:36Z</time>
      </trkpt>
      <trkpt lat="44.46959" lon="6.11232">
        <ele>672.098877</ele>
        <time>2011-02-13T10:42:57Z</time>
      </trkpt>
      <trkpt lat="44.46952" lon="6.11213">
        <ele>674.021484</ele>
        <time>2011-02-13T10:43:11Z</time>
      </trkpt>
      <trkpt lat="44.46987" lon="6.11136">
        <ele>675.463379</ele>
        <time>2011-02-13T10:43:28Z</time>
      </trkpt>
      <trkpt lat="44.47" lon="6.11084">
        <ele>677.866699</ele>
        <time>2011-02-13T10:43:45Z</time>
      </trkpt>
      <trkpt lat="44.4701" lon="6.11028">
        <ele>679.789307</ele>
        <time>2011-02-13T10:44:04Z</time>
      </trkpt>
      <trkpt lat="44.47011" lon="6.1097">
        <ele>682.192627</ele>
        <time>2011-02-13T10:44:23Z</time>
      </trkpt>
      <trkpt lat="44.47025" lon="6.10915">
        <ele>685.076904</ele>
        <time>2011-02-13T10:44:41Z</time>
      </trkpt>
      <trkpt lat="44.47043" lon="6.10859">
        <ele>687.47998</ele>
        <time>2011-02-13T10:45:02Z</time>
      </trkpt>
      <trkpt lat="44.47073" lon="6.10805">
        <ele>689.402588</ele>
        <time>2011-02-13T10:45:24Z</time>
      </trkpt>
      <trkpt lat="44.47101" lon="6.10764">
        <ele>691.805908</ele>
        <time>2011-02-13T10:45:42Z</time>
      </trkpt>
      <trkpt lat="44.47128" lon="6.10724">
        <ele>692.767334</ele>
        <time>2011-02-13T10:45:59Z</time>
      </trkpt>
      <trkpt lat="44.47137" lon="6.10681">
        <ele>694.209229</ele>
        <time>2011-02-13T10:46:14Z</time>
      </trkpt>
      <trkpt lat="44.47134" lon="6.10637">
        <ele>697.57373</ele>
        <time>2011-02-13T10:46:30Z</time>
      </trkpt>
      <trkpt lat="44.47115" lon="6.10595">
        <ele>700.938477</ele>
        <time>2011-02-13T10:46:47Z</time>
      </trkpt>
      <trkpt lat="44.4709" lon="6.10568">
        <ele>703.82251</ele>
        <time>2011-02-13T10:47:05Z</time>
      </trkpt>
      <trkpt lat="44.47089" lon="6.10567">
        <ele>704.303223</ele>
        <time>2011-02-13T10:47:06Z</time>
      </trkpt>
      <trkpt lat="44.4706" lon="6.10541">
        <ele>707.187012</ele>
        <time>2011-02-13T10:47:25Z</time>
      </trkpt>
      <trkpt lat="44.47016" lon="6.10526">
        <ele>710.070801</ele>
        <time>2011-02-13T10:47:48Z</time>
      </trkpt>
      <trkpt lat="44.46994" lon="6.10537">
        <ele>713.435547</ele>
        <time>2011-02-13T10:48:01Z</time>
      </trkpt>
      <trkpt lat="44.46981" lon="6.10561">
        <ele>715.838867</ele>
        <time>2011-02-13T10:48:18Z</time>
      </trkpt>
      <trkpt lat="44.46981" lon="6.10561">
        <ele>716.31958</ele>
        <time>2011-02-13T10:48:40Z</time>
      </trkpt>
      <trkpt lat="44.46978" lon="6.10596">
        <ele>715.838867</ele>
        <time>2011-02-13T10:51:46Z</time>
      </trkpt>
      <trkpt lat="44.46965" lon="6.10655">
        <ele>713.916016</ele>
        <time>2011-02-13T10:52:00Z</time>
      </trkpt>
      <trkpt lat="44.46949" lon="6.10676">
        <ele>711.993652</ele>
        <time>2011-02-13T10:52:04Z</time>
      </trkpt>
      <trkpt lat="44.4694" lon="6.10687">
        <ele>710.551514</ele>
        <time>2011-02-13T10:52:06Z</time>
      </trkpt>
      <trkpt lat="44.46922" lon="6.10716">
        <ele>708.628906</ele>
        <time>2011-02-13T10:52:11Z</time>
      </trkpt>
      <trkpt lat="44.46914" lon="6.10729">
        <ele>707.187012</ele>
        <time>2011-02-13T10:52:13Z</time>
      </trkpt>
      <trkpt lat="44.4691" lon="6.10735">
        <ele>706.225586</ele>
        <time>2011-02-13T10:52:14Z</time>
      </trkpt>
      <trkpt lat="44.46885" lon="6.10736">
        <ele>703.341797</ele>
        <time>2011-02-13T10:52:21Z</time>
      </trkpt>
      <trkpt lat="44.46882" lon="6.10718">
        <ele>701.899902</ele>
        <time>2011-02-13T10:52:24Z</time>
      </trkpt>
      <trkpt lat="44.46886" lon="6.10704">
        <ele>700.938477</ele>
        <time>2011-02-13T10:52:26Z</time>
      </trkpt>
      <trkpt lat="44.46902" lon="6.10665">
        <ele>698.534912</ele>
        <time>2011-02-13T10:52:31Z</time>
      </trkpt>
      <trkpt lat="44.46914" lon="6.10595">
        <ele>694.689697</ele>
        <time>2011-02-13T10:52:39Z</time>
      </trkpt>
      <trkpt lat="44.46913" lon="6.10572">
        <ele>693.728516</ele>
        <time>2011-02-13T10:52:41Z</time>
      </trkpt>
      <trkpt lat="44.4691" lon="6.10551">
        <ele>691.805908</ele>
        <time>2011-02-13T10:52:43Z</time>
      </trkpt>
      <trkpt lat="44.46911" lon="6.10505">
        <ele>688.922119</ele>
        <time>2011-02-13T10:52:47Z</time>
      </trkpt>
      <trkpt lat="44.46911" lon="6.10494">
        <ele>688.922119</ele>
        <time>2011-02-13T10:52:48Z</time>
      </trkpt>
      <trkpt lat="44.46914" lon="6.10372">
        <ele>686.038086</ele>
        <time>2011-02-13T10:52:59Z</time>
      </trkpt>
      <trkpt lat="44.46918" lon="6.10343">
        <ele>684.596191</ele>
        <time>2011-02-13T10:53:02Z</time>
      </trkpt>
      <trkpt lat="44.46936" lon="6.10261">
        <ele>677.38623</ele>
        <time>2011-02-13T10:53:10Z</time>
      </trkpt>
      <trkpt lat="44.46938" lon="6.10252">
        <ele>677.38623</ele>
        <time>2011-02-13T10:53:11Z</time>
      </trkpt>
      <trkpt lat="44.4694" lon="6.10244">
        <ele>680.750732</ele>
        <time>2011-02-13T10:53:12Z</time>
      </trkpt>
      <trkpt lat="44.46942" lon="6.10235">
        <ele>680.750732</ele>
        <time>2011-02-13T10:53:13Z</time>
      </trkpt>
      <trkpt lat="44.4695" lon="6.10197">
        <ele>678.828125</ele>
        <time>2011-02-13T10:53:17Z</time>
      </trkpt>
      <trkpt lat="44.46962" lon="6.10146">
        <ele>675.944092</ele>
        <time>2011-02-13T10:53:22Z</time>
      </trkpt>
      <trkpt lat="44.46974" lon="6.10115">
        <ele>673.541016</ele>
        <time>2011-02-13T10:53:25Z</time>
      </trkpt>
      <trkpt lat="44.47005" lon="6.1006">
        <ele>669.215088</ele>
        <time>2011-02-13T10:53:31Z</time>
      </trkpt>
      <trkpt lat="44.4701" lon="6.1005">
        <ele>669.215088</ele>
        <time>2011-02-13T10:53:32Z</time>
      </trkpt>
      <trkpt lat="44.4702" lon="6.10028">
        <ele>667.772705</ele>
        <time>2011-02-13T10:53:34Z</time>
      </trkpt>
      <trkpt lat="44.47032" lon="6.09999">
        <ele>666.811523</ele>
        <time>2011-02-13T10:53:37Z</time>
      </trkpt>
      <trkpt lat="44.47027" lon="6.09947">
        <ele>665.850342</ele>
        <time>2011-02-13T10:53:44Z</time>
      </trkpt>
      <trkpt lat="44.47023" lon="6.09942">
        <ele>665.369629</ele>
        <time>2011-02-13T10:53:45Z</time>
      </trkpt>
      <trkpt lat="44.47016" lon="6.09934">
        <ele>664.888916</ele>
        <time>2011-02-13T10:53:47Z</time>
      </trkpt>
      <trkpt lat="44.47014" lon="6.09882">
        <ele>662.005127</ele>
        <time>2011-02-13T10:53:56Z</time>
      </trkpt>
      <trkpt lat="44.47035" lon="6.09853">
        <ele>659.121094</ele>
        <time>2011-02-13T10:54:01Z</time>
      </trkpt>
      <trkpt lat="44.47048" lon="6.09842">
        <ele>657.198486</ele>
        <time>2011-02-13T10:54:03Z</time>
      </trkpt>
      <trkpt lat="44.47069" lon="6.09795">
        <ele>654.314697</ele>
        <time>2011-02-13T10:54:08Z</time>
      </trkpt>
      <trkpt lat="44.47091" lon="6.09714">
        <ele>652.391846</ele>
        <time>2011-02-13T10:54:16Z</time>
      </trkpt>
      <trkpt lat="44.47124" lon="6.09591">
        <ele>650.949707</ele>
        <time>2011-02-13T10:54:29Z</time>
      </trkpt>
      <trkpt lat="44.47124" lon="6.09486">
        <ele>649.988525</ele>
        <time>2011-02-13T10:54:41Z</time>
      </trkpt>
      <trkpt lat="44.47127" lon="6.09407">
        <ele>649.507813</ele>
        <time>2011-02-13T10:54:50Z</time>
      </trkpt>
      <trkpt lat="44.47136" lon="6.09379">
        <ele>649.507813</ele>
        <time>2011-02-13T10:54:54Z</time>
      </trkpt>
      <trkpt lat="44.47152" lon="6.09304">
        <ele>647.585205</ele>
        <time>2011-02-13T10:55:04Z</time>
      </trkpt>
      <trkpt lat="44.47152" lon="6.09212">
        <ele>644.701172</ele>
        <time>2011-02-13T10:55:14Z</time>
      </trkpt>
      <trkpt lat="44.47148" lon="6.09054">
        <ele>640.375488</ele>
        <time>2011-02-13T10:55:29Z</time>
      </trkpt>
      <trkpt lat="44.47148" lon="6.09043">
        <ele>640.375488</ele>
        <time>2011-02-13T10:55:30Z</time>
      </trkpt>
      <trkpt lat="44.47159" lon="6.09004">
        <ele>640.375488</ele>
        <time>2011-02-13T10:55:35Z</time>
      </trkpt>
      <trkpt lat="44.47162" lon="6.09001">
        <ele>641.817383</ele>
        <time>2011-02-13T10:55:37Z</time>
      </trkpt>
      <trkpt lat="44.47162" lon="6.09001">
        <ele>642.298096</ele>
        <time>2011-02-13T10:56:06Z</time>
      </trkpt>
      <trkpt lat="44.47162" lon="6.09001">
        <ele>642.298096</ele>
        <time>2011-02-13T10:57:54Z</time>
      </trkpt>
      <trkpt lat="44.47179" lon="6.08996">
        <ele>641.817383</ele>
        <time>2011-02-13T10:58:03Z</time>
      </trkpt>
      <trkpt lat="44.47196" lon="6.08928">
        <ele>640.375488</ele>
        <time>2011-02-13T10:58:16Z</time>
      </trkpt>
      <trkpt lat="44.47198" lon="6.08915">
        <ele>638.933594</ele>
        <time>2011-02-13T10:58:18Z</time>
      </trkpt>
      <trkpt lat="44.47203" lon="6.08884">
        <ele>637.972168</ele>
        <time>2011-02-13T10:58:23Z</time>
      </trkpt>
      <trkpt lat="44.47203" lon="6.08842">
        <ele>634.607422</ele>
        <time>2011-02-13T10:58:28Z</time>
      </trkpt>
      <trkpt lat="44.47196" lon="6.08786">
        <ele>630.762207</ele>
        <time>2011-02-13T10:58:34Z</time>
      </trkpt>
      <trkpt lat="44.47195" lon="6.08776">
        <ele>630.762207</ele>
        <time>2011-02-13T10:58:35Z</time>
      </trkpt>
      <trkpt lat="44.47192" lon="6.08754">
        <ele>629.320068</ele>
        <time>2011-02-13T10:58:37Z</time>
      </trkpt>
      <trkpt lat="44.47184" lon="6.08686">
        <ele>625.474854</ele>
        <time>2011-02-13T10:58:43Z</time>
      </trkpt>
      <trkpt lat="44.4718" lon="6.0865">
        <ele>624.032959</ele>
        <time>2011-02-13T10:58:46Z</time>
      </trkpt>
      <trkpt lat="44.47177" lon="6.08616">
        <ele>622.110352</ele>
        <time>2011-02-13T10:58:49Z</time>
      </trkpt>
      <trkpt lat="44.47171" lon="6.08509">
        <ele>621.14917</ele>
        <time>2011-02-13T10:59:02Z</time>
      </trkpt>
      <trkpt lat="44.47165" lon="6.08478">
        <ele>620.668457</ele>
        <time>2011-02-13T10:59:06Z</time>
      </trkpt>
      <trkpt lat="44.4716" lon="6.08455">
        <ele>619.707031</ele>
        <time>2011-02-13T10:59:09Z</time>
      </trkpt>
      <trkpt lat="44.47125" lon="6.08346">
        <ele>620.668457</ele>
        <time>2011-02-13T10:59:26Z</time>
      </trkpt>
      <trkpt lat="44.4711" lon="6.08302">
        <ele>619.226318</ele>
        <time>2011-02-13T10:59:37Z</time>
      </trkpt>
      <trkpt lat="44.47075" lon="6.08195">
        <ele>617.303711</ele>
        <time>2011-02-13T10:59:54Z</time>
      </trkpt>
      <trkpt lat="44.47025" lon="6.08082">
        <ele>615.381104</ele>
        <time>2011-02-13T11:00:12Z</time>
      </trkpt>
      <trkpt lat="44.47004" lon="6.08052">
        <ele>615.381104</ele>
        <time>2011-02-13T11:00:18Z</time>
      </trkpt>
      <trkpt lat="44.46972" lon="6.07968">
        <ele>615.861816</ele>
        <time>2011-02-13T11:00:32Z</time>
      </trkpt>
      <trkpt lat="44.46952" lon="6.07942">
        <ele>615.861816</ele>
        <time>2011-02-13T11:00:38Z</time>
      </trkpt>
      <trkpt lat="44.46941" lon="6.07932">
        <ele>616.342285</ele>
        <time>2011-02-13T11:00:41Z</time>
      </trkpt>
      <trkpt lat="44.46925" lon="6.07912">
        <ele>616.342285</ele>
        <time>2011-02-13T11:00:46Z</time>
      </trkpt>
      <trkpt lat="44.46904" lon="6.07862">
        <ele>616.342285</ele>
        <time>2011-02-13T11:00:56Z</time>
      </trkpt>
      <trkpt lat="44.46879" lon="6.07844">
        <ele>614.900391</ele>
        <time>2011-02-13T11:01:03Z</time>
      </trkpt>
      <trkpt lat="44.46875" lon="6.07849">
        <ele>613.938965</ele>
        <time>2011-02-13T11:01:04Z</time>
      </trkpt>
      <trkpt lat="44.46866" lon="6.07857">
        <ele>614.419678</ele>
        <time>2011-02-13T11:01:06Z</time>
      </trkpt>
      <trkpt lat="44.46847" lon="6.07866">
        <ele>613.938965</ele>
        <time>2011-02-13T11:01:10Z</time>
      </trkpt>
      <trkpt lat="44.46841" lon="6.07866">
        <ele>613.458496</ele>
        <time>2011-02-13T11:01:12Z</time>
      </trkpt>
      <trkpt lat="44.46821" lon="6.07852">
        <ele>611.055176</ele>
        <time>2011-02-13T11:01:17Z</time>
      </trkpt>
      <trkpt lat="44.46819" lon="6.07829">
        <ele>610.09375</ele>
        <time>2011-02-13T11:01:20Z</time>
      </trkpt>
      <trkpt lat="44.46826" lon="6.07818">
        <ele>608.651855</ele>
        <time>2011-02-13T11:01:23Z</time>
      </trkpt>
      <trkpt lat="44.46809" lon="6.0777">
        <ele>607.209961</ele>
        <time>2011-02-13T11:01:26Z</time>
      </trkpt>
      <trkpt lat="44.46796" lon="6.07762">
        <ele>605.768066</ele>
        <time>2011-02-13T11:01:28Z</time>
      </trkpt>
      <trkpt lat="44.46761" lon="6.07744">
        <ele>602.883789</ele>
        <time>2011-02-13T11:01:34Z</time>
      </trkpt>
      <trkpt lat="44.46677" lon="6.0768">
        <ele>602.403076</ele>
        <time>2011-02-13T11:01:51Z</time>
      </trkpt>
      <trkpt lat="44.46628" lon="6.07651">
        <ele>599.038574</ele>
        <time>2011-02-13T11:02:00Z</time>
      </trkpt>
      <trkpt lat="44.46622" lon="6.07646">
        <ele>599.038574</ele>
        <time>2011-02-13T11:02:01Z</time>
      </trkpt>
      <trkpt lat="44.4657" lon="6.07591">
        <ele>601.441895</ele>
        <time>2011-02-13T11:02:13Z</time>
      </trkpt>
      <trkpt lat="44.46557" lon="6.07569">
        <ele>600</ele>
        <time>2011-02-13T11:02:17Z</time>
      </trkpt>
      <trkpt lat="44.465" lon="6.07469">
        <ele>599.519287</ele>
        <time>2011-02-13T11:02:36Z</time>
      </trkpt>
      <trkpt lat="44.4647" lon="6.07382">
        <ele>599.519287</ele>
        <time>2011-02-13T11:02:53Z</time>
      </trkpt>
      <trkpt lat="44.4645" lon="6.07304">
        <ele>600.480713</ele>
        <time>2011-02-13T11:03:10Z</time>
      </trkpt>
      <trkpt lat="44.46431" lon="6.07205">
        <ele>600</ele>
        <time>2011-02-13T11:03:28Z</time>
      </trkpt>
      <trkpt lat="44.46417" lon="6.07148">
        <ele>603.364502</ele>
        <time>2011-02-13T11:03:41Z</time>
      </trkpt>
      <trkpt lat="44.46388" lon="6.07096">
        <ele>606.729248</ele>
        <time>2011-02-13T11:04:00Z</time>
      </trkpt>
      <trkpt lat="44.46353" lon="6.07061">
        <ele>608.651855</ele>
        <time>2011-02-13T11:04:17Z</time>
      </trkpt>
      <trkpt lat="44.46319" lon="6.07033">
        <ele>611.535889</ele>
        <time>2011-02-13T11:04:33Z</time>
      </trkpt>
      <trkpt lat="44.46292" lon="6.07006">
        <ele>614.900391</ele>
        <time>2011-02-13T11:04:48Z</time>
      </trkpt>
      <trkpt lat="44.46274" lon="6.06953">
        <ele>618.264893</ele>
        <time>2011-02-13T11:05:07Z</time>
      </trkpt>
      <trkpt lat="44.46278" lon="6.0689">
        <ele>621.14917</ele>
        <time>2011-02-13T11:05:26Z</time>
      </trkpt>
      <trkpt lat="44.46262" lon="6.06847">
        <ele>623.071777</ele>
        <time>2011-02-13T11:05:41Z</time>
      </trkpt>
      <trkpt lat="44.46228" lon="6.06803">
        <ele>623.55249</ele>
        <time>2011-02-13T11:05:58Z</time>
      </trkpt>
      <trkpt lat="44.46191" lon="6.06741">
        <ele>623.55249</ele>
        <time>2011-02-13T11:06:16Z</time>
      </trkpt>
      <trkpt lat="44.46164" lon="6.06647">
        <ele>623.071777</ele>
        <time>2011-02-13T11:06:36Z</time>
      </trkpt>
      <trkpt lat="44.46124" lon="6.06586">
        <ele>624.032959</ele>
        <time>2011-02-13T11:06:54Z</time>
      </trkpt>
      <trkpt lat="44.46069" lon="6.06547">
        <ele>623.55249</ele>
        <time>2011-02-13T11:07:13Z</time>
      </trkpt>
      <trkpt lat="44.4606" lon="6.06537">
        <ele>623.55249</ele>
        <time>2011-02-13T11:07:16Z</time>
      </trkpt>
      <trkpt lat="44.4605" lon="6.06526">
        <ele>622.110352</ele>
        <time>2011-02-13T11:07:19Z</time>
      </trkpt>
      <trkpt lat="44.46046" lon="6.06519">
        <ele>622.110352</ele>
        <time>2011-02-13T11:07:21Z</time>
      </trkpt>
      <trkpt lat="44.46046" lon="6.06499">
        <ele>621.14917</ele>
        <time>2011-02-13T11:07:25Z</time>
      </trkpt>
      <trkpt lat="44.46058" lon="6.06482">
        <ele>619.226318</ele>
        <time>2011-02-13T11:07:28Z</time>
      </trkpt>
      <trkpt lat="44.46082" lon="6.06452">
        <ele>615.861816</ele>
        <time>2011-02-13T11:07:33Z</time>
      </trkpt>
      <trkpt lat="44.46112" lon="6.06418">
        <ele>612.016602</ele>
        <time>2011-02-13T11:07:38Z</time>
      </trkpt>
      <trkpt lat="44.46118" lon="6.06411">
        <ele>612.016602</ele>
        <time>2011-02-13T11:07:39Z</time>
      </trkpt>
      <trkpt lat="44.46137" lon="6.06389">
        <ele>610.574463</ele>
        <time>2011-02-13T11:07:42Z</time>
      </trkpt>
      <trkpt lat="44.46176" lon="6.06343">
        <ele>608.651855</ele>
        <time>2011-02-13T11:07:49Z</time>
      </trkpt>
      <trkpt lat="44.46205" lon="6.0631">
        <ele>607.690674</ele>
        <time>2011-02-13T11:07:56Z</time>
      </trkpt>
      <trkpt lat="44.46214" lon="6.06289">
        <ele>607.690674</ele>
        <time>2011-02-13T11:08:01Z</time>
      </trkpt>
      <trkpt lat="44.46205" lon="6.06248">
        <ele>605.287354</ele>
        <time>2011-02-13T11:08:08Z</time>
      </trkpt>
      <trkpt lat="44.46199" lon="6.06233">
        <ele>604.326172</ele>
        <time>2011-02-13T11:08:10Z</time>
      </trkpt>
      <trkpt lat="44.4619" lon="6.06218">
        <ele>602.883789</ele>
        <time>2011-02-13T11:08:12Z</time>
      </trkpt>
      <trkpt lat="44.46178" lon="6.0617">
        <ele>599.519287</ele>
        <time>2011-02-13T11:08:17Z</time>
      </trkpt>
      <trkpt lat="44.46178" lon="6.06146">
        <ele>597.115967</ele>
        <time>2011-02-13T11:08:19Z</time>
      </trkpt>
      <trkpt lat="44.46178" lon="6.06093">
        <ele>594.232178</ele>
        <time>2011-02-13T11:08:23Z</time>
      </trkpt>
      <trkpt lat="44.46178" lon="6.05993">
        <ele>595.193359</ele>
        <time>2011-02-13T11:08:33Z</time>
      </trkpt>
      <trkpt lat="44.4618" lon="6.05977">
        <ele>596.635498</ele>
        <time>2011-02-13T11:08:41Z</time>
      </trkpt>
      <trkpt lat="44.4618" lon="6.05977">
        <ele>595.193359</ele>
        <time>2011-02-13T11:09:19Z</time>
      </trkpt>
      <trkpt lat="44.4618" lon="6.05977">
        <ele>596.635498</ele>
        <time>2011-02-13T11:09:21Z</time>
      </trkpt>
      <trkpt lat="44.4618" lon="6.05977">
        <ele>596.635498</ele>
        <time>2011-02-13T11:10:36Z</time>
      </trkpt>
      <trkpt lat="44.4618" lon="6.05977">
        <ele>597.59668</ele>
        <time>2011-02-13T11:12:53Z</time>
      </trkpt>
      <trkpt lat="44.4618" lon="6.05977">
        <ele>596.154785</ele>
        <time>2011-02-13T11:12:55Z</time>
      </trkpt>
      <trkpt lat="44.4618" lon="6.05977">
        <ele>596.635498</ele>
        <time>2011-02-13T11:14:36Z</time>
      </trkpt>
      <trkpt lat="44.4619" lon="6.05932">
        <ele>595.193359</ele>
        <time>2011-02-13T11:14:49Z</time>
      </trkpt>
      <trkpt lat="44.46212" lon="6.05818">
        <ele>592.30957</ele>
        <time>2011-02-13T11:15:05Z</time>
      </trkpt>
      <trkpt lat="44.46217" lon="6.05793">
        <ele>592.790283</ele>
        <time>2011-02-13T11:15:09Z</time>
      </trkpt>
      <trkpt lat="44.4626" lon="6.0574">
        <ele>594.712646</ele>
        <time>2011-02-13T11:15:24Z</time>
      </trkpt>
      <trkpt lat="44.46301" lon="6.05729">
        <ele>596.154785</ele>
        <time>2011-02-13T11:15:37Z</time>
      </trkpt>
      <trkpt lat="44.46324" lon="6.05724">
        <ele>597.59668</ele>
        <time>2011-02-13T11:15:47Z</time>
      </trkpt>
      <trkpt lat="44.46317" lon="6.05711">
        <ele>598.557861</ele>
        <time>2011-02-13T11:15:52Z</time>
      </trkpt>
      <trkpt lat="44.4631" lon="6.05706">
        <ele>600</ele>
        <time>2011-02-13T11:15:55Z</time>
      </trkpt>
      <trkpt lat="44.46274" lon="6.05666">
        <ele>601.922607</ele>
        <time>2011-02-13T11:16:13Z</time>
      </trkpt>
      <trkpt lat="44.46258" lon="6.05631">
        <ele>603.845215</ele>
        <time>2011-02-13T11:16:27Z</time>
      </trkpt>
      <trkpt lat="44.46234" lon="6.05618">
        <ele>604.806641</ele>
        <time>2011-02-13T11:16:35Z</time>
      </trkpt>
      <trkpt lat="44.46232" lon="6.05611">
        <ele>604.806641</ele>
        <time>2011-02-13T11:16:40Z</time>
      </trkpt>
      <trkpt lat="44.46236" lon="6.05555">
        <ele>603.364502</ele>
        <time>2011-02-13T11:16:55Z</time>
      </trkpt>
      <trkpt lat="44.46231" lon="6.0555">
        <ele>605.768066</ele>
        <time>2011-02-13T11:16:57Z</time>
      </trkpt>
      <trkpt lat="44.46189" lon="6.05518">
        <ele>606.248535</ele>
        <time>2011-02-13T11:17:13Z</time>
      </trkpt>
      <trkpt lat="44.46182" lon="6.05498">
        <ele>606.729248</ele>
        <time>2011-02-13T11:17:17Z</time>
      </trkpt>
      <trkpt lat="44.46205" lon="6.05449">
        <ele>607.690674</ele>
        <time>2011-02-13T11:17:32Z</time>
      </trkpt>
      <trkpt lat="44.46234" lon="6.05417">
        <ele>610.574463</ele>
        <time>2011-02-13T11:17:47Z</time>
      </trkpt>
      <trkpt lat="44.4627" lon="6.05379">
        <ele>613.458496</ele>
        <time>2011-02-13T11:18:05Z</time>
      </trkpt>
      <trkpt lat="44.46324" lon="6.05321">
        <ele>616.342285</ele>
        <time>2011-02-13T11:18:30Z</time>
      </trkpt>
      <trkpt lat="44.46367" lon="6.05275">
        <ele>618.745605</ele>
        <time>2011-02-13T11:18:50Z</time>
      </trkpt>
      <trkpt lat="44.46395" lon="6.05213">
        <ele>619.226318</ele>
        <time>2011-02-13T11:19:09Z</time>
      </trkpt>
      <trkpt lat="44.46397" lon="6.05198">
        <ele>619.226318</ele>
        <time>2011-02-13T11:19:12Z</time>
      </trkpt>
      <trkpt lat="44.46405" lon="6.05064">
        <ele>616.342285</ele>
        <time>2011-02-13T11:19:33Z</time>
      </trkpt>
      <trkpt lat="44.46409" lon="6.04943">
        <ele>616.822998</ele>
        <time>2011-02-13T11:19:53Z</time>
      </trkpt>
      <trkpt lat="44.46407" lon="6.04776">
        <ele>618.264893</ele>
        <time>2011-02-13T11:20:22Z</time>
      </trkpt>
      <trkpt lat="44.46387" lon="6.04655">
        <ele>617.78418</ele>
        <time>2011-02-13T11:20:44Z</time>
      </trkpt>
      <trkpt lat="44.46367" lon="6.0456">
        <ele>620.187744</ele>
        <time>2011-02-13T11:21:04Z</time>
      </trkpt>
      <trkpt lat="44.46339" lon="6.04446">
        <ele>618.264893</ele>
        <time>2011-02-13T11:21:25Z</time>
      </trkpt>
      <trkpt lat="44.46319" lon="6.04393">
        <ele>614.900391</ele>
        <time>2011-02-13T11:21:32Z</time>
      </trkpt>
      <trkpt lat="44.46247" lon="6.04247">
        <ele>612.49707</ele>
        <time>2011-02-13T11:21:51Z</time>
      </trkpt>
      <trkpt lat="44.46209" lon="6.04099">
        <ele>610.09375</ele>
        <time>2011-02-13T11:22:09Z</time>
      </trkpt>
      <trkpt lat="44.46169" lon="6.03944">
        <ele>608.651855</ele>
        <time>2011-02-13T11:22:28Z</time>
      </trkpt>
      <trkpt lat="44.46129" lon="6.03793">
        <ele>607.690674</ele>
        <time>2011-02-13T11:22:47Z</time>
      </trkpt>
      <trkpt lat="44.46095" lon="6.03655">
        <ele>606.248535</ele>
        <time>2011-02-13T11:23:05Z</time>
      </trkpt>
      <trkpt lat="44.4608" lon="6.0353">
        <ele>607.690674</ele>
        <time>2011-02-13T11:23:23Z</time>
      </trkpt>
      <trkpt lat="44.46088" lon="6.03442">
        <ele>611.055176</ele>
        <time>2011-02-13T11:23:41Z</time>
      </trkpt>
      <trkpt lat="44.46106" lon="6.03416">
        <ele>610.574463</ele>
        <time>2011-02-13T11:23:52Z</time>
      </trkpt>
      <trkpt lat="44.46106" lon="6.03416">
        <ele>611.535889</ele>
        <time>2011-02-13T11:24:07Z</time>
      </trkpt>
      <trkpt lat="44.46106" lon="6.03416">
        <ele>611.055176</ele>
        <time>2011-02-13T11:24:30Z</time>
      </trkpt>
      <trkpt lat="44.46113" lon="6.03411">
        <ele>611.535889</ele>
        <time>2011-02-13T11:24:48Z</time>
      </trkpt>
      <trkpt lat="44.46113" lon="6.03411">
        <ele>611.535889</ele>
        <time>2011-02-13T11:26:53Z</time>
      </trkpt>
      <trkpt lat="44.46113" lon="6.03411">
        <ele>612.977783</ele>
        <time>2011-02-13T11:26:59Z</time>
      </trkpt>
      <trkpt lat="44.46113" lon="6.03411">
        <ele>612.016602</ele>
        <time>2011-02-13T11:27:01Z</time>
      </trkpt>
      <trkpt lat="44.46113" lon="6.03411">
        <ele>611.535889</ele>
        <time>2011-02-13T11:27:34Z</time>
      </trkpt>
      <trkpt lat="44.46103" lon="6.03419">
        <ele>611.055176</ele>
        <time>2011-02-13T11:27:49Z</time>
      </trkpt>
      <trkpt lat="44.46101" lon="6.0342">
        <ele>611.055176</ele>
        <time>2011-02-13T11:27:50Z</time>
      </trkpt>
      <trkpt lat="44.46089" lon="6.03399">
        <ele>610.574463</ele>
        <time>2011-02-13T11:27:54Z</time>
      </trkpt>
      <trkpt lat="44.4607" lon="6.03396">
        <ele>606.729248</ele>
        <time>2011-02-13T11:27:58Z</time>
      </trkpt>
      <trkpt lat="44.46051" lon="6.03394">
        <ele>605.287354</ele>
        <time>2011-02-13T11:28:01Z</time>
      </trkpt>
      <trkpt lat="44.46015" lon="6.03388">
        <ele>603.364502</ele>
        <time>2011-02-13T11:28:06Z</time>
      </trkpt>
      <trkpt lat="44.45957" lon="6.0338">
        <ele>600.480713</ele>
        <time>2011-02-13T11:28:14Z</time>
      </trkpt>
      <trkpt lat="44.4595" lon="6.03379">
        <ele>600.480713</ele>
        <time>2011-02-13T11:28:15Z</time>
      </trkpt>
      <trkpt lat="44.45811" lon="6.03362">
        <ele>598.077393</ele>
        <time>2011-02-13T11:28:36Z</time>
      </trkpt>
      <trkpt lat="44.45763" lon="6.03356">
        <ele>598.557861</ele>
        <time>2011-02-13T11:28:45Z</time>
      </trkpt>
      <trkpt lat="44.45711" lon="6.03337">
        <ele>599.038574</ele>
        <time>2011-02-13T11:28:58Z</time>
      </trkpt>
      <trkpt lat="44.45695" lon="6.03244">
        <ele>600.480713</ele>
        <time>2011-02-13T11:29:17Z</time>
      </trkpt>
      <trkpt lat="44.45689" lon="6.03205">
        <ele>600</ele>
        <time>2011-02-13T11:29:25Z</time>
      </trkpt>
      <trkpt lat="44.45684" lon="6.03194">
        <ele>599.038574</ele>
        <time>2011-02-13T11:29:27Z</time>
      </trkpt>
      <trkpt lat="44.45641" lon="6.03088">
        <ele>597.115967</ele>
        <time>2011-02-13T11:29:45Z</time>
      </trkpt>
      <trkpt lat="44.45583" lon="6.0299">
        <ele>596.635498</ele>
        <time>2011-02-13T11:30:05Z</time>
      </trkpt>
      <trkpt lat="44.45563" lon="6.02964">
        <ele>596.635498</ele>
        <time>2011-02-13T11:30:11Z</time>
      </trkpt>
      <trkpt lat="44.45519" lon="6.02872">
        <ele>598.077393</ele>
        <time>2011-02-13T11:30:28Z</time>
      </trkpt>
      <trkpt lat="44.45451" lon="6.02756">
        <ele>599.519287</ele>
        <time>2011-02-13T11:30:54Z</time>
      </trkpt>
      <trkpt lat="44.45398" lon="6.02661">
        <ele>601.441895</ele>
        <time>2011-02-13T11:31:16Z</time>
      </trkpt>
      <trkpt lat="44.45359" lon="6.02566">
        <ele>602.883789</ele>
        <time>2011-02-13T11:31:37Z</time>
      </trkpt>
      <trkpt lat="44.45345" lon="6.02453">
        <ele>604.326172</ele>
        <time>2011-02-13T11:31:59Z</time>
      </trkpt>
      <trkpt lat="44.45364" lon="6.02359">
        <ele>605.768066</ele>
        <time>2011-02-13T11:32:20Z</time>
      </trkpt>
      <trkpt lat="44.45369" lon="6.02284">
        <ele>607.690674</ele>
        <time>2011-02-13T11:32:39Z</time>
      </trkpt>
      <trkpt lat="44.45386" lon="6.0224">
        <ele>609.613281</ele>
        <time>2011-02-13T11:32:54Z</time>
      </trkpt>
      <trkpt lat="44.45435" lon="6.02222">
        <ele>611.055176</ele>
        <time>2011-02-13T11:33:13Z</time>
      </trkpt>
      <trkpt lat="44.45511" lon="6.02211">
        <ele>613.458496</ele>
        <time>2011-02-13T11:33:35Z</time>
      </trkpt>
      <trkpt lat="44.45568" lon="6.02199">
        <ele>614.900391</ele>
        <time>2011-02-13T11:33:55Z</time>
      </trkpt>
      <trkpt lat="44.45637" lon="6.02184">
        <ele>616.822998</ele>
        <time>2011-02-13T11:34:18Z</time>
      </trkpt>
      <trkpt lat="44.45701" lon="6.02169">
        <ele>617.78418</ele>
        <time>2011-02-13T11:34:38Z</time>
      </trkpt>
      <trkpt lat="44.45758" lon="6.02179">
        <ele>618.745605</ele>
        <time>2011-02-13T11:34:56Z</time>
      </trkpt>
      <trkpt lat="44.45819" lon="6.02158">
        <ele>619.707031</ele>
        <time>2011-02-13T11:35:15Z</time>
      </trkpt>
      <trkpt lat="44.45884" lon="6.02131">
        <ele>621.14917</ele>
        <time>2011-02-13T11:35:36Z</time>
      </trkpt>
      <trkpt lat="44.45948" lon="6.0211">
        <ele>622.591064</ele>
        <time>2011-02-13T11:35:56Z</time>
      </trkpt>
      <trkpt lat="44.46021" lon="6.0208">
        <ele>623.55249</ele>
        <time>2011-02-13T11:36:20Z</time>
      </trkpt>
      <trkpt lat="44.46095" lon="6.02052">
        <ele>625.474854</ele>
        <time>2011-02-13T11:36:45Z</time>
      </trkpt>
      <trkpt lat="44.46158" lon="6.02027">
        <ele>627.397705</ele>
        <time>2011-02-13T11:37:07Z</time>
      </trkpt>
      <trkpt lat="44.46214" lon="6.02006">
        <ele>628.358887</ele>
        <time>2011-02-13T11:37:26Z</time>
      </trkpt>
      <trkpt lat="44.46267" lon="6.01986">
        <ele>630.281494</ele>
        <time>2011-02-13T11:37:45Z</time>
      </trkpt>
      <trkpt lat="44.46327" lon="6.01964">
        <ele>630.762207</ele>
        <time>2011-02-13T11:38:05Z</time>
      </trkpt>
      <trkpt lat="44.46378" lon="6.01944">
        <ele>631.723389</ele>
        <time>2011-02-13T11:38:22Z</time>
      </trkpt>
      <trkpt lat="44.46428" lon="6.01939">
        <ele>633.165283</ele>
        <time>2011-02-13T11:38:39Z</time>
      </trkpt>
      <trkpt lat="44.46483" lon="6.01921">
        <ele>634.126709</ele>
        <time>2011-02-13T11:38:58Z</time>
      </trkpt>
      <trkpt lat="44.46529" lon="6.01878">
        <ele>635.568604</ele>
        <time>2011-02-13T11:39:17Z</time>
      </trkpt>
      <trkpt lat="44.46564" lon="6.01823">
        <ele>636.530273</ele>
        <time>2011-02-13T11:39:34Z</time>
      </trkpt>
      <trkpt lat="44.46603" lon="6.01743">
        <ele>638.452881</ele>
        <time>2011-02-13T11:39:57Z</time>
      </trkpt>
      <trkpt lat="44.46632" lon="6.01679">
        <ele>640.855957</ele>
        <time>2011-02-13T11:40:17Z</time>
      </trkpt>
      <trkpt lat="44.46664" lon="6.01615">
        <ele>643.259277</ele>
        <time>2011-02-13T11:40:38Z</time>
      </trkpt>
      <trkpt lat="44.46696" lon="6.01548">
        <ele>644.701172</ele>
        <time>2011-02-13T11:41:00Z</time>
      </trkpt>
      <trkpt lat="44.46728" lon="6.01479">
        <ele>647.104492</ele>
        <time>2011-02-13T11:41:23Z</time>
      </trkpt>
      <trkpt lat="44.46761" lon="6.01411">
        <ele>649.988525</ele>
        <time>2011-02-13T11:41:46Z</time>
      </trkpt>
      <trkpt lat="44.46786" lon="6.01358">
        <ele>651.911133</ele>
        <time>2011-02-13T11:42:03Z</time>
      </trkpt>
      <trkpt lat="44.46823" lon="6.01279">
        <ele>654.795166</ele>
        <time>2011-02-13T11:42:29Z</time>
      </trkpt>
      <trkpt lat="44.4685" lon="6.01223">
        <ele>656.717773</ele>
        <time>2011-02-13T11:42:48Z</time>
      </trkpt>
      <trkpt lat="44.46857" lon="6.01207">
        <ele>657.198486</ele>
        <time>2011-02-13T11:42:54Z</time>
      </trkpt>
      <trkpt lat="44.46866" lon="6.01203">
        <ele>658.159912</ele>
        <time>2011-02-13T11:43:05Z</time>
      </trkpt>
      <trkpt lat="44.46866" lon="6.01203">
        <ele>658.159912</ele>
        <time>2011-02-13T11:45:28Z</time>
      </trkpt>
      <trkpt lat="44.46866" lon="6.01203">
        <ele>658.159912</ele>
        <time>2011-02-13T11:45:32Z</time>
      </trkpt>
      <trkpt lat="44.46874" lon="6.01173">
        <ele>658.159912</ele>
        <time>2011-02-13T11:45:43Z</time>
      </trkpt>
      <trkpt lat="44.46894" lon="6.0113">
        <ele>659.601807</ele>
        <time>2011-02-13T11:45:57Z</time>
      </trkpt>
      <trkpt lat="44.46916" lon="6.0108">
        <ele>661.043701</ele>
        <time>2011-02-13T11:46:14Z</time>
      </trkpt>
      <trkpt lat="44.46938" lon="6.01034">
        <ele>663.92749</ele>
        <time>2011-02-13T11:46:30Z</time>
      </trkpt>
      <trkpt lat="44.46962" lon="6.00983">
        <ele>665.850342</ele>
        <time>2011-02-13T11:46:48Z</time>
      </trkpt>
      <trkpt lat="44.46988" lon="6.00931">
        <ele>668.734375</ele>
        <time>2011-02-13T11:47:06Z</time>
      </trkpt>
      <trkpt lat="44.47016" lon="6.00871">
        <ele>672.57959</ele>
        <time>2011-02-13T11:47:27Z</time>
      </trkpt>
      <trkpt lat="44.47037" lon="6.00828">
        <ele>674.98291</ele>
        <time>2011-02-13T11:47:43Z</time>
      </trkpt>
      <trkpt lat="44.47068" lon="6.00797">
        <ele>676.905518</ele>
        <time>2011-02-13T11:48:01Z</time>
      </trkpt>
      <trkpt lat="44.47111" lon="6.00777">
        <ele>680.27002</ele>
        <time>2011-02-13T11:48:22Z</time>
      </trkpt>
      <trkpt lat="44.47147" lon="6.00756">
        <ele>683.153809</ele>
        <time>2011-02-13T11:48:43Z</time>
      </trkpt>
      <trkpt lat="44.47183" lon="6.00736">
        <ele>686.038086</ele>
        <time>2011-02-13T11:49:04Z</time>
      </trkpt>
      <trkpt lat="44.47217" lon="6.00709">
        <ele>689.402588</ele>
        <time>2011-02-13T11:49:25Z</time>
      </trkpt>
      <trkpt lat="44.47247" lon="6.00679">
        <ele>692.286621</ele>
        <time>2011-02-13T11:49:46Z</time>
      </trkpt>
      <trkpt lat="44.4728" lon="6.00655">
        <ele>695.17041</ele>
        <time>2011-02-13T11:50:05Z</time>
      </trkpt>
      <trkpt lat="44.47308" lon="6.00601">
        <ele>697.093018</ele>
        <time>2011-02-13T11:50:29Z</time>
      </trkpt>
      <trkpt lat="44.47313" lon="6.00558">
        <ele>698.054443</ele>
        <time>2011-02-13T11:50:43Z</time>
      </trkpt>
      <trkpt lat="44.47309" lon="6.0055">
        <ele>698.534912</ele>
        <time>2011-02-13T11:50:47Z</time>
      </trkpt>
      <trkpt lat="44.47301" lon="6.00545">
        <ele>699.496338</ele>
        <time>2011-02-13T11:50:52Z</time>
      </trkpt>
      <trkpt lat="44.47266" lon="6.00524">
        <ele>703.341797</ele>
        <time>2011-02-13T11:51:12Z</time>
      </trkpt>
      <trkpt lat="44.47233" lon="6.00515">
        <ele>705.264404</ele>
        <time>2011-02-13T11:51:29Z</time>
      </trkpt>
      <trkpt lat="44.47196" lon="6.00503">
        <ele>707.667725</ele>
        <time>2011-02-13T11:51:48Z</time>
      </trkpt>
      <trkpt lat="44.47195" lon="6.00501">
        <ele>707.667725</ele>
        <time>2011-02-13T11:51:49Z</time>
      </trkpt>
      <trkpt lat="44.47193" lon="6.00487">
        <ele>709.590332</ele>
        <time>2011-02-13T11:51:54Z</time>
      </trkpt>
      <trkpt lat="44.47203" lon="6.00442">
        <ele>712.954834</ele>
        <time>2011-02-13T11:52:11Z</time>
      </trkpt>
      <trkpt lat="44.47204" lon="6.00435">
        <ele>712.474121</ele>
        <time>2011-02-13T11:52:14Z</time>
      </trkpt>
      <trkpt lat="44.4723" lon="6.00385">
        <ele>715.838867</ele>
        <time>2011-02-13T11:52:38Z</time>
      </trkpt>
      <trkpt lat="44.47263" lon="6.0039">
        <ele>718.7229</ele>
        <time>2011-02-13T11:52:55Z</time>
      </trkpt>
      <trkpt lat="44.47309" lon="6.00403">
        <ele>721.606689</ele>
        <time>2011-02-13T11:53:19Z</time>
      </trkpt>
      <trkpt lat="44.47326" lon="6.00374">
        <ele>724.01001</ele>
        <time>2011-02-13T11:53:34Z</time>
      </trkpt>
      <trkpt lat="44.47313" lon="6.00328">
        <ele>725.451904</ele>
        <time>2011-02-13T11:53:51Z</time>
      </trkpt>
      <trkpt lat="44.47282" lon="6.0031">
        <ele>726.894043</ele>
        <time>2011-02-13T11:54:07Z</time>
      </trkpt>
      <trkpt lat="44.47246" lon="6.0031">
        <ele>728.81665</ele>
        <time>2011-02-13T11:54:24Z</time>
      </trkpt>
      <trkpt lat="44.47219" lon="6.00323">
        <ele>732.181396</ele>
        <time>2011-02-13T11:54:39Z</time>
      </trkpt>
      <trkpt lat="44.47199" lon="6.00354">
        <ele>735.545898</ele>
        <time>2011-02-13T11:54:56Z</time>
      </trkpt>
      <trkpt lat="44.47168" lon="6.00381">
        <ele>738.429932</ele>
        <time>2011-02-13T11:55:16Z</time>
      </trkpt>
      <trkpt lat="44.47145" lon="6.00414">
        <ele>740.352539</ele>
        <time>2011-02-13T11:55:34Z</time>
      </trkpt>
      <trkpt lat="44.47114" lon="6.00426">
        <ele>743.236328</ele>
        <time>2011-02-13T11:55:52Z</time>
      </trkpt>
      <trkpt lat="44.47092" lon="6.00464">
        <ele>746.601074</ele>
        <time>2011-02-13T11:56:13Z</time>
      </trkpt>
      <trkpt lat="44.4707" lon="6.00497">
        <ele>749.485107</ele>
        <time>2011-02-13T11:56:32Z</time>
      </trkpt>
      <trkpt lat="44.47049" lon="6.0048">
        <ele>752.368896</ele>
        <time>2011-02-13T11:56:46Z</time>
      </trkpt>
      <trkpt lat="44.47056" lon="6.00448">
        <ele>755.25293</ele>
        <time>2011-02-13T11:57:00Z</time>
      </trkpt>
      <trkpt lat="44.47084" lon="6.00415">
        <ele>758.136963</ele>
        <time>2011-02-13T11:57:20Z</time>
      </trkpt>
      <trkpt lat="44.47094" lon="6.00388">
        <ele>760.540039</ele>
        <time>2011-02-13T11:57:34Z</time>
      </trkpt>
      <trkpt lat="44.47096" lon="6.0038">
        <ele>760.540039</ele>
        <time>2011-02-13T11:57:38Z</time>
      </trkpt>
      <trkpt lat="44.47121" lon="6.00347">
        <ele>763.904541</ele>
        <time>2011-02-13T11:57:59Z</time>
      </trkpt>
      <trkpt lat="44.47131" lon="6.00315">
        <ele>766.788818</ele>
        <time>2011-02-13T11:58:14Z</time>
      </trkpt>
      <trkpt lat="44.47128" lon="6.00264">
        <ele>769.192139</ele>
        <time>2011-02-13T11:58:36Z</time>
      </trkpt>
      <trkpt lat="44.47125" lon="6.00226">
        <ele>771.595215</ele>
        <time>2011-02-13T11:58:52Z</time>
      </trkpt>
      <trkpt lat="44.47125" lon="6.00186">
        <ele>774.959961</ele>
        <time>2011-02-13T11:59:09Z</time>
      </trkpt>
      <trkpt lat="44.47132" lon="6.0016">
        <ele>778.324463</ele>
        <time>2011-02-13T11:59:21Z</time>
      </trkpt>
      <trkpt lat="44.47133" lon="6.00158">
        <ele>778.324463</ele>
        <time>2011-02-13T11:59:22Z</time>
      </trkpt>
      <trkpt lat="44.47136" lon="6.00117">
        <ele>782.169922</ele>
        <time>2011-02-13T11:59:40Z</time>
      </trkpt>
      <trkpt lat="44.47129" lon="6.00083">
        <ele>785.053955</ele>
        <time>2011-02-13T11:59:56Z</time>
      </trkpt>
      <trkpt lat="44.47115" lon="6.00048">
        <ele>788.418457</ele>
        <time>2011-02-13T12:00:14Z</time>
      </trkpt>
      <trkpt lat="44.47086" lon="6.00024">
        <ele>791.302246</ele>
        <time>2011-02-13T12:00:35Z</time>
      </trkpt>
      <trkpt lat="44.47062" lon="6.00015">
        <ele>794.186279</ele>
        <time>2011-02-13T12:00:51Z</time>
      </trkpt>
      <trkpt lat="44.47075" lon="5.99999">
        <ele>795.147461</ele>
        <time>2011-02-13T12:00:59Z</time>
      </trkpt>
      <trkpt lat="44.47082" lon="6.00004">
        <ele>796.589844</ele>
        <time>2011-02-13T12:01:08Z</time>
      </trkpt>
      <trkpt lat="44.47119" lon="6">
        <ele>799.473633</ele>
        <time>2011-02-13T12:01:30Z</time>
      </trkpt>
      <trkpt lat="44.4714" lon="5.99965">
        <ele>802.357422</ele>
        <time>2011-02-13T12:01:49Z</time>
      </trkpt>
      <trkpt lat="44.47162" lon="5.9995">
        <ele>804.280273</ele>
        <time>2011-02-13T12:02:04Z</time>
      </trkpt>
      <trkpt lat="44.47169" lon="5.9995">
        <ele>805.241455</ele>
        <time>2011-02-13T12:02:08Z</time>
      </trkpt>
      <trkpt lat="44.472" lon="5.99941">
        <ele>808.125488</ele>
        <time>2011-02-13T12:02:27Z</time>
      </trkpt>
      <trkpt lat="44.472" lon="5.99905">
        <ele>811.48999</ele>
        <time>2011-02-13T12:02:43Z</time>
      </trkpt>
      <trkpt lat="44.47198" lon="5.99889">
        <ele>812.932129</ele>
        <time>2011-02-13T12:02:51Z</time>
      </trkpt>
      <trkpt lat="44.47207" lon="5.99878">
        <ele>813.893311</ele>
        <time>2011-02-13T12:02:59Z</time>
      </trkpt>
      <trkpt lat="44.47222" lon="5.99871">
        <ele>816.296631</ele>
        <time>2011-02-13T12:03:10Z</time>
      </trkpt>
      <trkpt lat="44.47243" lon="5.9987">
        <ele>818.699951</ele>
        <time>2011-02-13T12:03:23Z</time>
      </trkpt>
      <trkpt lat="44.47248" lon="5.99868">
        <ele>819.180664</ele>
        <time>2011-02-13T12:03:26Z</time>
      </trkpt>
      <trkpt lat="44.47277" lon="5.99853">
        <ele>822.545166</ele>
        <time>2011-02-13T12:03:46Z</time>
      </trkpt>
      <trkpt lat="44.4731" lon="5.9984">
        <ele>824.948486</ele>
        <time>2011-02-13T12:04:05Z</time>
      </trkpt>
      <trkpt lat="44.4732" lon="5.99833">
        <ele>825.909668</ele>
        <time>2011-02-13T12:04:12Z</time>
      </trkpt>
      <trkpt lat="44.4731" lon="5.99819">
        <ele>827.351807</ele>
        <time>2011-02-13T12:04:22Z</time>
      </trkpt>
      <trkpt lat="44.47283" lon="5.99829">
        <ele>830.23584</ele>
        <time>2011-02-13T12:04:39Z</time>
      </trkpt>
      <trkpt lat="44.47257" lon="5.99832">
        <ele>833.600342</ele>
        <time>2011-02-13T12:04:56Z</time>
      </trkpt>
      <trkpt lat="44.47239" lon="5.99835">
        <ele>835.04248</ele>
        <time>2011-02-13T12:05:07Z</time>
      </trkpt>
      <trkpt lat="44.47215" lon="5.99816">
        <ele>838.406982</ele>
        <time>2011-02-13T12:05:25Z</time>
      </trkpt>
      <trkpt lat="44.47189" lon="5.99798">
        <ele>841.771484</ele>
        <time>2011-02-13T12:05:42Z</time>
      </trkpt>
      <trkpt lat="44.47179" lon="5.99798">
        <ele>842.73291</ele>
        <time>2011-02-13T12:05:48Z</time>
      </trkpt>
      <trkpt lat="44.47146" lon="5.99821">
        <ele>846.097656</ele>
        <time>2011-02-13T12:06:10Z</time>
      </trkpt>
      <trkpt lat="44.47114" lon="5.99801">
        <ele>848.981445</ele>
        <time>2011-02-13T12:06:32Z</time>
      </trkpt>
      <trkpt lat="44.47101" lon="5.99796">
        <ele>850.423584</ele>
        <time>2011-02-13T12:06:41Z</time>
      </trkpt>
      <trkpt lat="44.47081" lon="5.99799">
        <ele>852.82666</ele>
        <time>2011-02-13T12:06:54Z</time>
      </trkpt>
      <trkpt lat="44.47049" lon="5.99783">
        <ele>856.191162</ele>
        <time>2011-02-13T12:07:15Z</time>
      </trkpt>
      <trkpt lat="44.47032" lon="5.99773">
        <ele>857.633301</ele>
        <time>2011-02-13T12:07:26Z</time>
      </trkpt>
      <trkpt lat="44.47001" lon="5.99772">
        <ele>860.517334</ele>
        <time>2011-02-13T12:07:45Z</time>
      </trkpt>
      <trkpt lat="44.46984" lon="5.99756">
        <ele>863.401367</ele>
        <time>2011-02-13T12:07:59Z</time>
      </trkpt>
      <trkpt lat="44.46998" lon="5.99731">
        <ele>865.323975</ele>
        <time>2011-02-13T12:08:15Z</time>
      </trkpt>
      <trkpt lat="44.47021" lon="5.99713">
        <ele>868.207764</ele>
        <time>2011-02-13T12:08:31Z</time>
      </trkpt>
      <trkpt lat="44.47026" lon="5.99704">
        <ele>869.169189</ele>
        <time>2011-02-13T12:08:36Z</time>
      </trkpt>
      <trkpt lat="44.47029" lon="5.99701">
        <ele>870.130371</ele>
        <time>2011-02-13T12:08:54Z</time>
      </trkpt>
      <trkpt lat="44.47029" lon="5.99701">
        <ele>870.130371</ele>
        <time>2011-02-13T12:09:01Z</time>
      </trkpt>
      <trkpt lat="44.47029" lon="5.99701">
        <ele>867.727051</ele>
        <time>2011-02-13T12:09:20Z</time>
      </trkpt>
      <trkpt lat="44.47029" lon="5.99701">
        <ele>871.091797</ele>
        <time>2011-02-13T12:09:21Z</time>
      </trkpt>
      <trkpt lat="44.47029" lon="5.99701">
        <ele>871.091797</ele>
        <time>2011-02-13T12:09:22Z</time>
      </trkpt>
      <trkpt lat="44.47029" lon="5.99701">
        <ele>869.169189</ele>
        <time>2011-02-13T12:09:24Z</time>
      </trkpt>
      <trkpt lat="44.47029" lon="5.99701">
        <ele>869.649902</ele>
        <time>2011-02-13T12:09:31Z</time>
      </trkpt>
      <trkpt lat="44.47027" lon="5.99702">
        <ele>869.169189</ele>
        <time>2011-02-13T12:09:39Z</time>
      </trkpt>
      <trkpt lat="44.47028" lon="5.99701">
        <ele>869.169189</ele>
        <time>2011-02-13T12:11:38Z</time>
      </trkpt>
      <trkpt lat="44.47044" lon="5.99664">
        <ele>872.052979</ele>
        <time>2011-02-13T12:11:57Z</time>
      </trkpt>
      <trkpt lat="44.47054" lon="5.99622">
        <ele>875.41748</ele>
        <time>2011-02-13T12:12:16Z</time>
      </trkpt>
      <trkpt lat="44.47056" lon="5.99584">
        <ele>878.782471</ele>
        <time>2011-02-13T12:12:33Z</time>
      </trkpt>
      <trkpt lat="44.47061" lon="5.99534">
        <ele>881.185791</ele>
        <time>2011-02-13T12:12:54Z</time>
      </trkpt>
      <trkpt lat="44.47065" lon="5.99511">
        <ele>883.108154</ele>
        <time>2011-02-13T12:13:05Z</time>
      </trkpt>
      <trkpt lat="44.47072" lon="5.99483">
        <ele>885.511475</ele>
        <time>2011-02-13T12:13:18Z</time>
      </trkpt>
      <trkpt lat="44.47085" lon="5.99443">
        <ele>888.876221</ele>
        <time>2011-02-13T12:13:38Z</time>
      </trkpt>
      <trkpt lat="44.4709" lon="5.99435">
        <ele>890.318115</ele>
        <time>2011-02-13T12:13:43Z</time>
      </trkpt>
      <trkpt lat="44.47105" lon="5.994">
        <ele>893.202148</ele>
        <time>2011-02-13T12:14:02Z</time>
      </trkpt>
      <trkpt lat="44.4712" lon="5.99366">
        <ele>896.566895</ele>
        <time>2011-02-13T12:14:20Z</time>
      </trkpt>
      <trkpt lat="44.47146" lon="5.99344">
        <ele>899.450684</ele>
        <time>2011-02-13T12:14:39Z</time>
      </trkpt>
      <trkpt lat="44.47186" lon="5.99345">
        <ele>901.854004</ele>
        <time>2011-02-13T12:15:01Z</time>
      </trkpt>
      <trkpt lat="44.47221" lon="5.99352">
        <ele>903.776611</ele>
        <time>2011-02-13T12:15:20Z</time>
      </trkpt>
      <trkpt lat="44.47263" lon="5.99362">
        <ele>906.179688</ele>
        <time>2011-02-13T12:15:42Z</time>
      </trkpt>
      <trkpt lat="44.47294" lon="5.99382">
        <ele>907.621826</ele>
        <time>2011-02-13T12:15:59Z</time>
      </trkpt>
      <trkpt lat="44.47327" lon="5.99405">
        <ele>909.544678</ele>
        <time>2011-02-13T12:16:18Z</time>
      </trkpt>
      <trkpt lat="44.4737" lon="5.99433">
        <ele>912.428467</ele>
        <time>2011-02-13T12:16:44Z</time>
      </trkpt>
      <trkpt lat="44.47388" lon="5.99441">
        <ele>913.389893</ele>
        <time>2011-02-13T12:16:55Z</time>
      </trkpt>
      <trkpt lat="44.4739" lon="5.9943">
        <ele>913.870361</ele>
        <time>2011-02-13T12:17:00Z</time>
      </trkpt>
      <trkpt lat="44.47387" lon="5.99424">
        <ele>914.831787</ele>
        <time>2011-02-13T12:17:03Z</time>
      </trkpt>
      <trkpt lat="44.4736" lon="5.99391">
        <ele>917.235107</ele>
        <time>2011-02-13T12:17:25Z</time>
      </trkpt>
      <trkpt lat="44.47337" lon="5.99355">
        <ele>919.638428</ele>
        <time>2011-02-13T12:17:46Z</time>
      </trkpt>
      <trkpt lat="44.47317" lon="5.99318">
        <ele>923.00293</ele>
        <time>2011-02-13T12:18:06Z</time>
      </trkpt>
      <trkpt lat="44.47294" lon="5.99276">
        <ele>925.40625</ele>
        <time>2011-02-13T12:18:29Z</time>
      </trkpt>
      <trkpt lat="44.4729" lon="5.99272">
        <ele>925.886963</ele>
        <time>2011-02-13T12:18:32Z</time>
      </trkpt>
      <trkpt lat="44.47273" lon="5.99228">
        <ele>927.80957</ele>
        <time>2011-02-13T12:18:53Z</time>
      </trkpt>
      <trkpt lat="44.47257" lon="5.99194">
        <ele>931.174316</ele>
        <time>2011-02-13T12:19:11Z</time>
      </trkpt>
      <trkpt lat="44.47239" lon="5.9916">
        <ele>934.058105</ele>
        <time>2011-02-13T12:19:30Z</time>
      </trkpt>
      <trkpt lat="44.47233" lon="5.99125">
        <ele>936.461426</ele>
        <time>2011-02-13T12:19:46Z</time>
      </trkpt>
      <trkpt lat="44.4724" lon="5.99099">
        <ele>937.90332</ele>
        <time>2011-02-13T12:19:57Z</time>
      </trkpt>
      <trkpt lat="44.47247" lon="5.99095">
        <ele>938.384033</ele>
        <time>2011-02-13T12:20:01Z</time>
      </trkpt>
      <trkpt lat="44.47281" lon="5.99114">
        <ele>940.787354</ele>
        <time>2011-02-13T12:20:19Z</time>
      </trkpt>
      <trkpt lat="44.47317" lon="5.99129">
        <ele>942.710205</ele>
        <time>2011-02-13T12:20:39Z</time>
      </trkpt>
      <trkpt lat="44.47351" lon="5.99128">
        <ele>944.632568</ele>
        <time>2011-02-13T12:20:57Z</time>
      </trkpt>
      <trkpt lat="44.47399" lon="5.99132">
        <ele>946.074707</ele>
        <time>2011-02-13T12:21:20Z</time>
      </trkpt>
      <trkpt lat="44.47437" lon="5.99131">
        <ele>947.516602</ele>
        <time>2011-02-13T12:21:39Z</time>
      </trkpt>
      <trkpt lat="44.47471" lon="5.9912">
        <ele>949.919922</ele>
        <time>2011-02-13T12:21:58Z</time>
      </trkpt>
      <trkpt lat="44.47482" lon="5.99112">
        <ele>950.881104</ele>
        <time>2011-02-13T12:22:04Z</time>
      </trkpt>
      <trkpt lat="44.475" lon="5.99083">
        <ele>952.322998</ele>
        <time>2011-02-13T12:22:19Z</time>
      </trkpt>
      <trkpt lat="44.47486" lon="5.99036">
        <ele>954.24585</ele>
        <time>2011-02-13T12:22:37Z</time>
      </trkpt>
      <trkpt lat="44.47472" lon="5.98995">
        <ele>956.168457</ele>
        <time>2011-02-13T12:22:55Z</time>
      </trkpt>
      <trkpt lat="44.47459" lon="5.98959">
        <ele>959.05249</ele>
        <time>2011-02-13T12:23:12Z</time>
      </trkpt>
      <trkpt lat="44.47438" lon="5.98921">
        <ele>961.455811</ele>
        <time>2011-02-13T12:23:33Z</time>
      </trkpt>
      <trkpt lat="44.47421" lon="5.98887">
        <ele>963.858887</ele>
        <time>2011-02-13T12:23:50Z</time>
      </trkpt>
      <trkpt lat="44.47411" lon="5.98844">
        <ele>966.74292</ele>
        <time>2011-02-13T12:24:09Z</time>
      </trkpt>
      <trkpt lat="44.47419" lon="5.98799">
        <ele>970.107422</ele>
        <time>2011-02-13T12:24:29Z</time>
      </trkpt>
      <trkpt lat="44.47431" lon="5.98772">
        <ele>972.510986</ele>
        <time>2011-02-13T12:24:42Z</time>
      </trkpt>
      <trkpt lat="44.47433" lon="5.98767">
        <ele>972.991699</ele>
        <time>2011-02-13T12:24:45Z</time>
      </trkpt>
      <trkpt lat="44.47435" lon="5.98765">
        <ele>972.510986</ele>
        <time>2011-02-13T12:24:47Z</time>
      </trkpt>
      <trkpt lat="44.47453" lon="5.98728">
        <ele>976.356201</ele>
        <time>2011-02-13T12:25:07Z</time>
      </trkpt>
      <trkpt lat="44.47483" lon="5.98715">
        <ele>978.759521</ele>
        <time>2011-02-13T12:25:26Z</time>
      </trkpt>
      <trkpt lat="44.47513" lon="5.98711">
        <ele>981.643311</ele>
        <time>2011-02-13T12:25:44Z</time>
      </trkpt>
      <trkpt lat="44.4755" lon="5.98699">
        <ele>985.008057</ele>
        <time>2011-02-13T12:26:05Z</time>
      </trkpt>
      <trkpt lat="44.47583" lon="5.98676">
        <ele>985.488525</ele>
        <time>2011-02-13T12:26:23Z</time>
      </trkpt>
      <trkpt lat="44.47617" lon="5.98632">
        <ele>985.488525</ele>
        <time>2011-02-13T12:26:39Z</time>
      </trkpt>
      <trkpt lat="44.47663" lon="5.98568">
        <ele>985.008057</ele>
        <time>2011-02-13T12:26:58Z</time>
      </trkpt>
      <trkpt lat="44.47693" lon="5.98518">
        <ele>984.527344</ele>
        <time>2011-02-13T12:27:12Z</time>
      </trkpt>
      <trkpt lat="44.47729" lon="5.98459">
        <ele>986.93042</ele>
        <time>2011-02-13T12:27:33Z</time>
      </trkpt>
      <trkpt lat="44.47763" lon="5.98406">
        <ele>988.372803</ele>
        <time>2011-02-13T12:27:53Z</time>
      </trkpt>
      <trkpt lat="44.47802" lon="5.98343">
        <ele>990.29541</ele>
        <time>2011-02-13T12:28:17Z</time>
      </trkpt>
      <trkpt lat="44.47826" lon="5.98287">
        <ele>993.179199</ele>
        <time>2011-02-13T12:28:36Z</time>
      </trkpt>
      <trkpt lat="44.47843" lon="5.98241">
        <ele>996.543945</ele>
        <time>2011-02-13T12:28:52Z</time>
      </trkpt>
      <trkpt lat="44.47862" lon="5.98197">
        <ele>999.427734</ele>
        <time>2011-02-13T12:29:09Z</time>
      </trkpt>
      <trkpt lat="44.47875" lon="5.98153">
        <ele>1000.869629</ele>
        <time>2011-02-13T12:29:24Z</time>
      </trkpt>
      <trkpt lat="44.47868" lon="5.98079">
        <ele>1000.869629</ele>
        <time>2011-02-13T12:29:42Z</time>
      </trkpt>
      <trkpt lat="44.47871" lon="5.97996">
        <ele>1000.869629</ele>
        <time>2011-02-13T12:29:59Z</time>
      </trkpt>
      <trkpt lat="44.47888" lon="5.97927">
        <ele>1001.350342</ele>
        <time>2011-02-13T12:30:15Z</time>
      </trkpt>
      <trkpt lat="44.47896" lon="5.97897">
        <ele>1005.195801</ele>
        <time>2011-02-13T12:30:24Z</time>
      </trkpt>
      <trkpt lat="44.47897" lon="5.97894">
        <ele>1004.715088</ele>
        <time>2011-02-13T12:30:25Z</time>
      </trkpt>
      <trkpt lat="44.47922" lon="5.97863">
        <ele>1007.599121</ele>
        <time>2011-02-13T12:30:42Z</time>
      </trkpt>
      <trkpt lat="44.47924" lon="5.97864">
        <ele>1007.599121</ele>
        <time>2011-02-13T12:30:56Z</time>
      </trkpt>
      <trkpt lat="44.47923" lon="5.97864">
        <ele>1007.599121</ele>
        <time>2011-02-13T12:31:30Z</time>
      </trkpt>
      <trkpt lat="44.47924" lon="5.97865">
        <ele>1008.560303</ele>
        <time>2011-02-13T12:32:44Z</time>
      </trkpt>
      <trkpt lat="44.47924" lon="5.97865">
        <ele>1009.521729</ele>
        <time>2011-02-13T12:33:53Z</time>
      </trkpt>
      <trkpt lat="44.47942" lon="5.97884">
        <ele>1009.041016</ele>
        <time>2011-02-13T12:35:00Z</time>
      </trkpt>
      <trkpt lat="44.47972" lon="5.97927">
        <ele>1010.48291</ele>
        <time>2011-02-13T12:35:16Z</time>
      </trkpt>
      <trkpt lat="44.48002" lon="5.97972">
        <ele>1012.88623</ele>
        <time>2011-02-13T12:35:33Z</time>
      </trkpt>
      <trkpt lat="44.48037" lon="5.98021">
        <ele>1015.770264</ele>
        <time>2011-02-13T12:35:54Z</time>
      </trkpt>
      <trkpt lat="44.48074" lon="5.98078">
        <ele>1019.134766</ele>
        <time>2011-02-13T12:36:17Z</time>
      </trkpt>
      <trkpt lat="44.48121" lon="5.98147">
        <ele>1022.018799</ele>
        <time>2011-02-13T12:36:45Z</time>
      </trkpt>
      <trkpt lat="44.48148" lon="5.98192">
        <ele>1025.383301</ele>
        <time>2011-02-13T12:37:03Z</time>
      </trkpt>
      <trkpt lat="44.48179" lon="5.98247">
        <ele>1027.306152</ele>
        <time>2011-02-13T12:37:23Z</time>
      </trkpt>
      <trkpt lat="44.48205" lon="5.98296">
        <ele>1030.189941</ele>
        <time>2011-02-13T12:37:41Z</time>
      </trkpt>
      <trkpt lat="44.48229" lon="5.98344">
        <ele>1033.07373</ele>
        <time>2011-02-13T12:38:00Z</time>
      </trkpt>
      <trkpt lat="44.48256" lon="5.98395">
        <ele>1035.477051</ele>
        <time>2011-02-13T12:38:20Z</time>
      </trkpt>
      <trkpt lat="44.48278" lon="5.98437">
        <ele>1038.842041</ele>
        <time>2011-02-13T12:38:36Z</time>
      </trkpt>
      <trkpt lat="44.48303" lon="5.98486">
        <ele>1041.245117</ele>
        <time>2011-02-13T12:38:55Z</time>
      </trkpt>
      <trkpt lat="44.48338" lon="5.98521">
        <ele>1044.609619</ele>
        <time>2011-02-13T12:39:14Z</time>
      </trkpt>
      <trkpt lat="44.48389" lon="5.98517">
        <ele>1045.090332</ele>
        <time>2011-02-13T12:39:32Z</time>
      </trkpt>
      <trkpt lat="44.48448" lon="5.98493">
        <ele>1044.609619</ele>
        <time>2011-02-13T12:39:48Z</time>
      </trkpt>
      <trkpt lat="44.48493" lon="5.985">
        <ele>1043.648438</ele>
        <time>2011-02-13T12:39:57Z</time>
      </trkpt>
      <trkpt lat="44.48524" lon="5.98513">
        <ele>1042.687256</ele>
        <time>2011-02-13T12:40:03Z</time>
      </trkpt>
      <trkpt lat="44.48547" lon="5.98533">
        <ele>1042.206543</ele>
        <time>2011-02-13T12:40:08Z</time>
      </trkpt>
      <trkpt lat="44.48567" lon="5.9857">
        <ele>1042.687256</ele>
        <time>2011-02-13T12:40:14Z</time>
      </trkpt>
      <trkpt lat="44.48587" lon="5.98595">
        <ele>1042.206543</ele>
        <time>2011-02-13T12:40:19Z</time>
      </trkpt>
      <trkpt lat="44.48598" lon="5.98602">
        <ele>1042.687256</ele>
        <time>2011-02-13T12:40:21Z</time>
      </trkpt>
      <trkpt lat="44.48702" lon="5.98628">
        <ele>1042.206543</ele>
        <time>2011-02-13T12:40:39Z</time>
      </trkpt>
      <trkpt lat="44.4877" lon="5.98618">
        <ele>1041.72583</ele>
        <time>2011-02-13T12:40:52Z</time>
      </trkpt>
      <trkpt lat="44.48886" lon="5.98589">
        <ele>1043.167725</ele>
        <time>2011-02-13T12:41:15Z</time>
      </trkpt>
      <trkpt lat="44.48891" lon="5.98588">
        <ele>1042.687256</ele>
        <time>2011-02-13T12:41:16Z</time>
      </trkpt>
      <trkpt lat="44.4896" lon="5.98572">
        <ele>1043.167725</ele>
        <time>2011-02-13T12:41:30Z</time>
      </trkpt>
      <trkpt lat="44.49014" lon="5.98558">
        <ele>1041.72583</ele>
        <time>2011-02-13T12:41:40Z</time>
      </trkpt>
      <trkpt lat="44.49116" lon="5.98534">
        <ele>1041.245117</ele>
        <time>2011-02-13T12:41:58Z</time>
      </trkpt>
      <trkpt lat="44.49209" lon="5.98549">
        <ele>1040.764404</ele>
        <time>2011-02-13T12:42:13Z</time>
      </trkpt>
      <trkpt lat="44.493" lon="5.98569">
        <ele>1041.72583</ele>
        <time>2011-02-13T12:42:30Z</time>
      </trkpt>
      <trkpt lat="44.49367" lon="5.98585">
        <ele>1041.72583</ele>
        <time>2011-02-13T12:42:43Z</time>
      </trkpt>
      <trkpt lat="44.49389" lon="5.98589">
        <ele>1042.206543</ele>
        <time>2011-02-13T12:42:47Z</time>
      </trkpt>
      <trkpt lat="44.49399" lon="5.98592">
        <ele>1042.687256</ele>
        <time>2011-02-13T12:42:49Z</time>
      </trkpt>
      <trkpt lat="44.49491" lon="5.98613">
        <ele>1041.245117</ele>
        <time>2011-02-13T12:43:06Z</time>
      </trkpt>
      <trkpt lat="44.49537" lon="5.98644">
        <ele>1040.764404</ele>
        <time>2011-02-13T12:43:15Z</time>
      </trkpt>
      <trkpt lat="44.49594" lon="5.98665">
        <ele>1041.245117</ele>
        <time>2011-02-13T12:43:26Z</time>
      </trkpt>
      <trkpt lat="44.49621" lon="5.98712">
        <ele>1040.283936</ele>
        <time>2011-02-13T12:43:34Z</time>
      </trkpt>
      <trkpt lat="44.49647" lon="5.98862">
        <ele>1041.245117</ele>
        <time>2011-02-13T12:43:55Z</time>
      </trkpt>
      <trkpt lat="44.49668" lon="5.98906">
        <ele>1040.764404</ele>
        <time>2011-02-13T12:44:02Z</time>
      </trkpt>
      <trkpt lat="44.49675" lon="5.98917">
        <ele>1040.764404</ele>
        <time>2011-02-13T12:44:04Z</time>
      </trkpt>
      <trkpt lat="44.49719" lon="5.98955">
        <ele>1041.72583</ele>
        <time>2011-02-13T12:44:13Z</time>
      </trkpt>
      <trkpt lat="44.49757" lon="5.98984">
        <ele>1041.245117</ele>
        <time>2011-02-13T12:44:21Z</time>
      </trkpt>
      <trkpt lat="44.49775" lon="5.99013">
        <ele>1040.764404</ele>
        <time>2011-02-13T12:44:26Z</time>
      </trkpt>
      <trkpt lat="44.49781" lon="5.99027">
        <ele>1040.764404</ele>
        <time>2011-02-13T12:44:28Z</time>
      </trkpt>
      <trkpt lat="44.49789" lon="5.9909">
        <ele>1039.32251</ele>
        <time>2011-02-13T12:44:36Z</time>
      </trkpt>
      <trkpt lat="44.4979" lon="5.99105">
        <ele>1040.283936</ele>
        <time>2011-02-13T12:44:38Z</time>
      </trkpt>
      <trkpt lat="44.49794" lon="5.99146">
        <ele>1040.764404</ele>
        <time>2011-02-13T12:44:44Z</time>
      </trkpt>
      <trkpt lat="44.49798" lon="5.99181">
        <ele>1041.245117</ele>
        <time>2011-02-13T12:44:49Z</time>
      </trkpt>
      <trkpt lat="44.498" lon="5.99204">
        <ele>1040.764404</ele>
        <time>2011-02-13T12:44:52Z</time>
      </trkpt>
      <trkpt lat="44.49788" lon="5.99286">
        <ele>1041.72583</ele>
        <time>2011-02-13T12:45:03Z</time>
      </trkpt>
      <trkpt lat="44.49775" lon="5.99332">
        <ele>1041.72583</ele>
        <time>2011-02-13T12:45:10Z</time>
      </trkpt>
      <trkpt lat="44.4975" lon="5.99371">
        <ele>1041.245117</ele>
        <time>2011-02-13T12:45:17Z</time>
      </trkpt>
      <trkpt lat="44.4973" lon="5.99391">
        <ele>1041.245117</ele>
        <time>2011-02-13T12:45:22Z</time>
      </trkpt>
      <trkpt lat="44.49723" lon="5.99407">
        <ele>1042.687256</ele>
        <time>2011-02-13T12:45:25Z</time>
      </trkpt>
      <trkpt lat="44.49712" lon="5.99429">
        <ele>1040.764404</ele>
        <time>2011-02-13T12:45:29Z</time>
      </trkpt>
      <trkpt lat="44.49706" lon="5.99447">
        <ele>1042.206543</ele>
        <time>2011-02-13T12:45:32Z</time>
      </trkpt>
      <trkpt lat="44.49697" lon="5.99468">
        <ele>1042.687256</ele>
        <time>2011-02-13T12:45:36Z</time>
      </trkpt>
      <trkpt lat="44.49725" lon="5.9952">
        <ele>1042.687256</ele>
        <time>2011-02-13T12:45:46Z</time>
      </trkpt>
      <trkpt lat="44.49801" lon="5.99554">
        <ele>1038.361328</ele>
        <time>2011-02-13T12:45:58Z</time>
      </trkpt>
      <trkpt lat="44.49808" lon="5.99555">
        <ele>1038.361328</ele>
        <time>2011-02-13T12:45:59Z</time>
      </trkpt>
      <trkpt lat="44.49887" lon="5.99551">
        <ele>1036.438721</ele>
        <time>2011-02-13T12:46:09Z</time>
      </trkpt>
      <trkpt lat="44.49922" lon="5.99548">
        <ele>1034.515869</ele>
        <time>2011-02-13T12:46:13Z</time>
      </trkpt>
      <trkpt lat="44.49948" lon="5.9954">
        <ele>1032.112549</ele>
        <time>2011-02-13T12:46:16Z</time>
      </trkpt>
      <trkpt lat="44.50001" lon="5.99523">
        <ele>1029.228516</ele>
        <time>2011-02-13T12:46:22Z</time>
      </trkpt>
      <trkpt lat="44.5001" lon="5.9952">
        <ele>1029.228516</ele>
        <time>2011-02-13T12:46:23Z</time>
      </trkpt>
      <trkpt lat="44.50089" lon="5.99492">
        <ele>1026.825439</ele>
        <time>2011-02-13T12:46:32Z</time>
      </trkpt>
      <trkpt lat="44.50108" lon="5.99489">
        <ele>1025.864014</ele>
        <time>2011-02-13T12:46:34Z</time>
      </trkpt>
      <trkpt lat="44.50196" lon="5.99509">
        <ele>1022.018799</ele>
        <time>2011-02-13T12:46:44Z</time>
      </trkpt>
      <trkpt lat="44.50205" lon="5.99513">
        <ele>1022.018799</ele>
        <time>2011-02-13T12:46:45Z</time>
      </trkpt>
      <trkpt lat="44.50292" lon="5.99534">
        <ele>1022.499512</ele>
        <time>2011-02-13T12:46:56Z</time>
      </trkpt>
      <trkpt lat="44.50396" lon="5.99518">
        <ele>1021.057617</ele>
        <time>2011-02-13T12:47:10Z</time>
      </trkpt>
      <trkpt lat="44.50459" lon="5.99524">
        <ele>1022.499512</ele>
        <time>2011-02-13T12:47:19Z</time>
      </trkpt>
      <trkpt lat="44.50481" lon="5.99519">
        <ele>1021.057617</ele>
        <time>2011-02-13T12:47:22Z</time>
      </trkpt>
      <trkpt lat="44.5059" lon="5.9946">
        <ele>1020.576904</ele>
        <time>2011-02-13T12:47:39Z</time>
      </trkpt>
      <trkpt lat="44.50621" lon="5.99436">
        <ele>1018.654053</ele>
        <time>2011-02-13T12:47:44Z</time>
      </trkpt>
      <trkpt lat="44.50643" lon="5.99404">
        <ele>1018.17334</ele>
        <time>2011-02-13T12:47:49Z</time>
      </trkpt>
      <trkpt lat="44.50671" lon="5.99344">
        <ele>1017.212158</ele>
        <time>2011-02-13T12:47:57Z</time>
      </trkpt>
      <trkpt lat="44.50732" lon="5.99237">
        <ele>1016.731445</ele>
        <time>2011-02-13T12:48:13Z</time>
      </trkpt>
      <trkpt lat="44.50751" lon="5.99213">
        <ele>1016.731445</ele>
        <time>2011-02-13T12:48:18Z</time>
      </trkpt>
      <trkpt lat="44.50807" lon="5.99195">
        <ele>1015.770264</ele>
        <time>2011-02-13T12:48:28Z</time>
      </trkpt>
      <trkpt lat="44.50822" lon="5.99196">
        <ele>1014.328125</ele>
        <time>2011-02-13T12:48:30Z</time>
      </trkpt>
      <trkpt lat="44.50837" lon="5.99199">
        <ele>1012.88623</ele>
        <time>2011-02-13T12:48:32Z</time>
      </trkpt>
      <trkpt lat="44.509" lon="5.9921">
        <ele>1010.002197</ele>
        <time>2011-02-13T12:48:40Z</time>
      </trkpt>
      <trkpt lat="44.50908" lon="5.99211">
        <ele>1010.002197</ele>
        <time>2011-02-13T12:48:41Z</time>
      </trkpt>
      <trkpt lat="44.50972" lon="5.99223">
        <ele>1008.560303</ele>
        <time>2011-02-13T12:48:49Z</time>
      </trkpt>
      <trkpt lat="44.51008" lon="5.99285">
        <ele>1003.753662</ele>
        <time>2011-02-13T12:48:57Z</time>
      </trkpt>
      <trkpt lat="44.51008" lon="5.99297">
        <ele>1003.753662</ele>
        <time>2011-02-13T12:48:58Z</time>
      </trkpt>
      <trkpt lat="44.51006" lon="5.99318">
        <ele>1003.272949</ele>
        <time>2011-02-13T12:49:00Z</time>
      </trkpt>
      <trkpt lat="44.51004" lon="5.99339">
        <ele>1004.715088</ele>
        <time>2011-02-13T12:49:02Z</time>
      </trkpt>
      <trkpt lat="44.50997" lon="5.99419">
        <ele>1002.792236</ele>
        <time>2011-02-13T12:49:10Z</time>
      </trkpt>
      <trkpt lat="44.51013" lon="5.99482">
        <ele>1001.831055</ele>
        <time>2011-02-13T12:49:17Z</time>
      </trkpt>
      <trkpt lat="44.51067" lon="5.99582">
        <ele>1001.350342</ele>
        <time>2011-02-13T12:49:32Z</time>
      </trkpt>
      <trkpt lat="44.51078" lon="5.99602">
        <ele>999.908447</ele>
        <time>2011-02-13T12:49:35Z</time>
      </trkpt>
      <trkpt lat="44.51088" lon="5.99621">
        <ele>999.427734</ele>
        <time>2011-02-13T12:49:38Z</time>
      </trkpt>
      <trkpt lat="44.51091" lon="5.99692">
        <ele>997.505127</ele>
        <time>2011-02-13T12:49:47Z</time>
      </trkpt>
      <trkpt lat="44.51083" lon="5.99704">
        <ele>996.543945</ele>
        <time>2011-02-13T12:49:49Z</time>
      </trkpt>
      <trkpt lat="44.51056" lon="5.99747">
        <ele>997.505127</ele>
        <time>2011-02-13T12:49:57Z</time>
      </trkpt>
      <trkpt lat="44.51035" lon="5.99809">
        <ele>998.466309</ele>
        <time>2011-02-13T12:50:07Z</time>
      </trkpt>
      <trkpt lat="44.51036" lon="5.9985">
        <ele>997.98584</ele>
        <time>2011-02-13T12:50:13Z</time>
      </trkpt>
      <trkpt lat="44.51072" lon="5.99945">
        <ele>995.101807</ele>
        <time>2011-02-13T12:50:26Z</time>
      </trkpt>
      <trkpt lat="44.51075" lon="5.99952">
        <ele>994.621094</ele>
        <time>2011-02-13T12:50:27Z</time>
      </trkpt>
      <trkpt lat="44.51099" lon="5.99985">
        <ele>994.140625</ele>
        <time>2011-02-13T12:50:32Z</time>
      </trkpt>
      <trkpt lat="44.51146" lon="6.00017">
        <ele>992.69873</ele>
        <time>2011-02-13T12:50:39Z</time>
      </trkpt>
      <trkpt lat="44.51168" lon="6.00087">
        <ele>991.737305</ele>
        <time>2011-02-13T12:50:48Z</time>
      </trkpt>
      <trkpt lat="44.51161" lon="6.00157">
        <ele>992.69873</ele>
        <time>2011-02-13T12:50:57Z</time>
      </trkpt>
      <trkpt lat="44.51158" lon="6.00285">
        <ele>991.737305</ele>
        <time>2011-02-13T12:51:14Z</time>
      </trkpt>
      <trkpt lat="44.5116" lon="6.00309">
        <ele>991.256592</ele>
        <time>2011-02-13T12:51:17Z</time>
      </trkpt>
      <trkpt lat="44.51184" lon="6.0045">
        <ele>990.775879</ele>
        <time>2011-02-13T12:51:36Z</time>
      </trkpt>
      <trkpt lat="44.51217" lon="6.00628">
        <ele>986.93042</ele>
        <time>2011-02-13T12:51:57Z</time>
      </trkpt>
      <trkpt lat="44.51219" lon="6.00637">
        <ele>986.93042</ele>
        <time>2011-02-13T12:51:58Z</time>
      </trkpt>
      <trkpt lat="44.51242" lon="6.00793">
        <ele>987.411133</ele>
        <time>2011-02-13T12:52:15Z</time>
      </trkpt>
      <trkpt lat="44.51254" lon="6.00864">
        <ele>987.411133</ele>
        <time>2011-02-13T12:52:23Z</time>
      </trkpt>
      <trkpt lat="44.51274" lon="6.009">
        <ele>985.969238</ele>
        <time>2011-02-13T12:52:28Z</time>
      </trkpt>
      <trkpt lat="44.51313" lon="6.00941">
        <ele>986.449951</ele>
        <time>2011-02-13T12:52:35Z</time>
      </trkpt>
      <trkpt lat="44.51325" lon="6.00951">
        <ele>985.008057</ele>
        <time>2011-02-13T12:52:37Z</time>
      </trkpt>
      <trkpt lat="44.51347" lon="6.00964">
        <ele>983.085205</ele>
        <time>2011-02-13T12:52:40Z</time>
      </trkpt>
      <trkpt lat="44.51425" lon="6.01006">
        <ele>979.23999</ele>
        <time>2011-02-13T12:52:50Z</time>
      </trkpt>
      <trkpt lat="44.51434" lon="6.01011">
        <ele>978.759521</ele>
        <time>2011-02-13T12:52:51Z</time>
      </trkpt>
      <trkpt lat="44.51459" lon="6.01025">
        <ele>979.23999</ele>
        <time>2011-02-13T12:52:54Z</time>
      </trkpt>
      <trkpt lat="44.51484" lon="6.01054">
        <ele>978.278809</ele>
        <time>2011-02-13T12:52:58Z</time>
      </trkpt>
      <trkpt lat="44.51497" lon="6.01085">
        <ele>975.394775</ele>
        <time>2011-02-13T12:53:01Z</time>
      </trkpt>
      <trkpt lat="44.51504" lon="6.01107">
        <ele>972.991699</ele>
        <time>2011-02-13T12:53:03Z</time>
      </trkpt>
      <trkpt lat="44.5151" lon="6.01129">
        <ele>971.068848</ele>
        <time>2011-02-13T12:53:05Z</time>
      </trkpt>
      <trkpt lat="44.51515" lon="6.01146">
        <ele>972.510986</ele>
        <time>2011-02-13T12:53:07Z</time>
      </trkpt>
      <trkpt lat="44.51537" lon="6.01181">
        <ele>970.107422</ele>
        <time>2011-02-13T12:53:12Z</time>
      </trkpt>
      <trkpt lat="44.51563" lon="6.01169">
        <ele>970.107422</ele>
        <time>2011-02-13T12:53:16Z</time>
      </trkpt>
      <trkpt lat="44.51593" lon="6.01135">
        <ele>971.549316</ele>
        <time>2011-02-13T12:53:22Z</time>
      </trkpt>
      <trkpt lat="44.51689" lon="6.01069">
        <ele>974.433594</ele>
        <time>2011-02-13T12:53:41Z</time>
      </trkpt>
      <trkpt lat="44.51714" lon="6.01054">
        <ele>974.914307</ele>
        <time>2011-02-13T12:53:46Z</time>
      </trkpt>
      <trkpt lat="44.51751" lon="6.01043">
        <ele>974.914307</ele>
        <time>2011-02-13T12:53:53Z</time>
      </trkpt>
      <trkpt lat="44.51854" lon="6.01061">
        <ele>974.914307</ele>
        <time>2011-02-13T12:54:13Z</time>
      </trkpt>
      <trkpt lat="44.51915" lon="6.01066">
        <ele>973.952881</ele>
        <time>2011-02-13T12:54:24Z</time>
      </trkpt>
      <trkpt lat="44.52005" lon="6.01029">
        <ele>973.952881</ele>
        <time>2011-02-13T12:54:39Z</time>
      </trkpt>
      <trkpt lat="44.52111" lon="6.00926">
        <ele>974.433594</ele>
        <time>2011-02-13T12:54:59Z</time>
      </trkpt>
      <trkpt lat="44.52184" lon="6.00813">
        <ele>972.030273</ele>
        <time>2011-02-13T12:55:15Z</time>
      </trkpt>
      <trkpt lat="44.5227" lon="6.00781">
        <ele>971.068848</ele>
        <time>2011-02-13T12:55:28Z</time>
      </trkpt>
      <trkpt lat="44.52377" lon="6.00743">
        <ele>969.14624</ele>
        <time>2011-02-13T12:55:44Z</time>
      </trkpt>
      <trkpt lat="44.52471" lon="6.00717">
        <ele>966.74292</ele>
        <time>2011-02-13T12:55:57Z</time>
      </trkpt>
      <trkpt lat="44.52488" lon="6.0072">
        <ele>965.301025</ele>
        <time>2011-02-13T12:55:59Z</time>
      </trkpt>
      <trkpt lat="44.52504" lon="6.00728">
        <ele>963.858887</ele>
        <time>2011-02-13T12:56:01Z</time>
      </trkpt>
      <trkpt lat="44.52529" lon="6.00744">
        <ele>962.416992</ele>
        <time>2011-02-13T12:56:04Z</time>
      </trkpt>
      <trkpt lat="44.52573" lon="6.00791">
        <ele>958.091309</ele>
        <time>2011-02-13T12:56:10Z</time>
      </trkpt>
      <trkpt lat="44.52581" lon="6.008">
        <ele>958.091309</ele>
        <time>2011-02-13T12:56:11Z</time>
      </trkpt>
      <trkpt lat="44.52596" lon="6.00818">
        <ele>956.168457</ele>
        <time>2011-02-13T12:56:13Z</time>
      </trkpt>
      <trkpt lat="44.52628" lon="6.00853">
        <ele>953.284424</ele>
        <time>2011-02-13T12:56:17Z</time>
      </trkpt>
      <trkpt lat="44.52636" lon="6.00862">
        <ele>953.284424</ele>
        <time>2011-02-13T12:56:18Z</time>
      </trkpt>
      <trkpt lat="44.5269" lon="6.00924">
        <ele>950.881104</ele>
        <time>2011-02-13T12:56:25Z</time>
      </trkpt>
      <trkpt lat="44.52746" lon="6.00989">
        <ele>947.516602</ele>
        <time>2011-02-13T12:56:33Z</time>
      </trkpt>
      <trkpt lat="44.52755" lon="6.00996">
        <ele>947.516602</ele>
        <time>2011-02-13T12:56:34Z</time>
      </trkpt>
      <trkpt lat="44.52851" lon="6.01029">
        <ele>946.074707</ele>
        <time>2011-02-13T12:56:45Z</time>
      </trkpt>
      <trkpt lat="44.52873" lon="6.01032">
        <ele>948.477783</ele>
        <time>2011-02-13T12:56:48Z</time>
      </trkpt>
      <trkpt lat="44.52912" lon="6.01036">
        <ele>949.439209</ele>
        <time>2011-02-13T12:56:54Z</time>
      </trkpt>
      <trkpt lat="44.52939" lon="6.01051">
        <ele>949.919922</ele>
        <time>2011-02-13T12:56:59Z</time>
      </trkpt>
      <trkpt lat="44.52977" lon="6.01079">
        <ele>947.516602</ele>
        <time>2011-02-13T12:57:06Z</time>
      </trkpt>
      <trkpt lat="44.53002" lon="6.01099">
        <ele>946.074707</ele>
        <time>2011-02-13T12:57:09Z</time>
      </trkpt>
      <trkpt lat="44.53012" lon="6.01105">
        <ele>943.671387</ele>
        <time>2011-02-13T12:57:11Z</time>
      </trkpt>
      <trkpt lat="44.53025" lon="6.01122">
        <ele>942.229492</ele>
        <time>2011-02-13T12:57:13Z</time>
      </trkpt>
      <trkpt lat="44.53033" lon="6.01129">
        <ele>940.787354</ele>
        <time>2011-02-13T12:57:14Z</time>
      </trkpt>
      <trkpt lat="44.53078" lon="6.01147">
        <ele>941.748779</ele>
        <time>2011-02-13T12:57:19Z</time>
      </trkpt>
      <trkpt lat="44.5314" lon="6.01132">
        <ele>943.671387</ele>
        <time>2011-02-13T12:57:25Z</time>
      </trkpt>
      <trkpt lat="44.53182" lon="6.01108">
        <ele>947.035889</ele>
        <time>2011-02-13T12:57:35Z</time>
      </trkpt>
      <trkpt lat="44.53259" lon="6.01039">
        <ele>947.516602</ele>
        <time>2011-02-13T12:57:53Z</time>
      </trkpt>
      <trkpt lat="44.53274" lon="6.01037">
        <ele>947.997314</ele>
        <time>2011-02-13T12:57:56Z</time>
      </trkpt>
      <trkpt lat="44.53349" lon="6.01018">
        <ele>950.400635</ele>
        <time>2011-02-13T12:58:14Z</time>
      </trkpt>
      <trkpt lat="44.53413" lon="6.01013">
        <ele>952.803711</ele>
        <time>2011-02-13T12:58:33Z</time>
      </trkpt>
      <trkpt lat="44.53475" lon="6.01025">
        <ele>955.207031</ele>
        <time>2011-02-13T12:58:54Z</time>
      </trkpt>
      <trkpt lat="44.5353" lon="6.01039">
        <ele>958.571777</ele>
        <time>2011-02-13T12:59:15Z</time>
      </trkpt>
      <trkpt lat="44.53572" lon="6.01083">
        <ele>960.494385</ele>
        <time>2011-02-13T12:59:34Z</time>
      </trkpt>
      <trkpt lat="44.53593" lon="6.0115">
        <ele>959.533203</ele>
        <time>2011-02-13T12:59:47Z</time>
      </trkpt>
      <trkpt lat="44.53595" lon="6.01282">
        <ele>958.571777</ele>
        <time>2011-02-13T13:00:06Z</time>
      </trkpt>
      <trkpt lat="44.53603" lon="6.01311">
        <ele>957.610596</ele>
        <time>2011-02-13T13:00:10Z</time>
      </trkpt>
      <trkpt lat="44.53626" lon="6.01351">
        <ele>956.64917</ele>
        <time>2011-02-13T13:00:15Z</time>
      </trkpt>
      <trkpt lat="44.53629" lon="6.01377">
        <ele>956.168457</ele>
        <time>2011-02-13T13:00:19Z</time>
      </trkpt>
      <trkpt lat="44.53648" lon="6.01404">
        <ele>958.571777</ele>
        <time>2011-02-13T13:00:25Z</time>
      </trkpt>
      <trkpt lat="44.53679" lon="6.01448">
        <ele>961.936523</ele>
        <time>2011-02-13T13:00:40Z</time>
      </trkpt>
      <trkpt lat="44.53708" lon="6.01478">
        <ele>964.820313</ele>
        <time>2011-02-13T13:00:53Z</time>
      </trkpt>
      <trkpt lat="44.53751" lon="6.01514">
        <ele>967.704102</ele>
        <time>2011-02-13T13:01:14Z</time>
      </trkpt>
      <trkpt lat="44.53787" lon="6.01577">
        <ele>967.223633</ele>
        <time>2011-02-13T13:01:32Z</time>
      </trkpt>
      <trkpt lat="44.53797" lon="6.01617">
        <ele>966.262207</ele>
        <time>2011-02-13T13:01:38Z</time>
      </trkpt>
      <trkpt lat="44.53809" lon="6.01648">
        <ele>965.781738</ele>
        <time>2011-02-13T13:01:43Z</time>
      </trkpt>
      <trkpt lat="44.53818" lon="6.01655">
        <ele>966.74292</ele>
        <time>2011-02-13T13:01:45Z</time>
      </trkpt>
      <trkpt lat="44.53831" lon="6.01663">
        <ele>966.74292</ele>
        <time>2011-02-13T13:01:48Z</time>
      </trkpt>
      <trkpt lat="44.53883" lon="6.01684">
        <ele>969.626953</ele>
        <time>2011-02-13T13:02:04Z</time>
      </trkpt>
      <trkpt lat="44.53929" lon="6.01736">
        <ele>972.510986</ele>
        <time>2011-02-13T13:02:24Z</time>
      </trkpt>
      <trkpt lat="44.53964" lon="6.0178">
        <ele>973.952881</ele>
        <time>2011-02-13T13:02:40Z</time>
      </trkpt>
      <trkpt lat="44.53982" lon="6.01794">
        <ele>974.433594</ele>
        <time>2011-02-13T13:02:47Z</time>
      </trkpt>
      <trkpt lat="44.53982" lon="6.01809">
        <ele>975.394775</ele>
        <time>2011-02-13T13:02:51Z</time>
      </trkpt>
      <trkpt lat="44.53975" lon="6.01908">
        <ele>975.394775</ele>
        <time>2011-02-13T13:03:10Z</time>
      </trkpt>
      <trkpt lat="44.53954" lon="6.01999">
        <ele>975.394775</ele>
        <time>2011-02-13T13:03:27Z</time>
      </trkpt>
      <trkpt lat="44.53955" lon="6.02013">
        <ele>975.394775</ele>
        <time>2011-02-13T13:03:29Z</time>
      </trkpt>
      <trkpt lat="44.53986" lon="6.02123">
        <ele>975.875488</ele>
        <time>2011-02-13T13:03:46Z</time>
      </trkpt>
      <trkpt lat="44.54009" lon="6.02244">
        <ele>975.875488</ele>
        <time>2011-02-13T13:04:03Z</time>
      </trkpt>
      <trkpt lat="44.54002" lon="6.02333">
        <ele>975.875488</ele>
        <time>2011-02-13T13:04:16Z</time>
      </trkpt>
      <trkpt lat="44.53991" lon="6.02442">
        <ele>976.836914</ele>
        <time>2011-02-13T13:04:33Z</time>
      </trkpt>
      <trkpt lat="44.54003" lon="6.02495">
        <ele>977.317627</ele>
        <time>2011-02-13T13:04:41Z</time>
      </trkpt>
      <trkpt lat="44.54054" lon="6.02557">
        <ele>977.317627</ele>
        <time>2011-02-13T13:04:55Z</time>
      </trkpt>
      <trkpt lat="44.54128" lon="6.02562">
        <ele>977.798096</ele>
        <time>2011-02-13T13:05:09Z</time>
      </trkpt>
      <trkpt lat="44.54228" lon="6.02505">
        <ele>977.798096</ele>
        <time>2011-02-13T13:05:27Z</time>
      </trkpt>
      <trkpt lat="44.5433" lon="6.02427">
        <ele>977.317627</ele>
        <time>2011-02-13T13:05:47Z</time>
      </trkpt>
      <trkpt lat="44.54419" lon="6.02391">
        <ele>978.278809</ele>
        <time>2011-02-13T13:06:04Z</time>
      </trkpt>
      <trkpt lat="44.54517" lon="6.02379">
        <ele>978.759521</ele>
        <time>2011-02-13T13:06:22Z</time>
      </trkpt>
      <trkpt lat="44.54636" lon="6.02391">
        <ele>978.759521</ele>
        <time>2011-02-13T13:06:46Z</time>
      </trkpt>
      <trkpt lat="44.54757" lon="6.02399">
        <ele>978.759521</ele>
        <time>2011-02-13T13:07:09Z</time>
      </trkpt>
      <trkpt lat="44.54767" lon="6.024">
        <ele>979.23999</ele>
        <time>2011-02-13T13:07:11Z</time>
      </trkpt>
      <trkpt lat="44.54891" lon="6.02412">
        <ele>981.162842</ele>
        <time>2011-02-13T13:07:35Z</time>
      </trkpt>
      <trkpt lat="44.5493" lon="6.02428">
        <ele>980.682129</ele>
        <time>2011-02-13T13:07:42Z</time>
      </trkpt>
      <trkpt lat="44.54958" lon="6.02496">
        <ele>979.720703</ele>
        <time>2011-02-13T13:07:52Z</time>
      </trkpt>
      <trkpt lat="44.54945" lon="6.02636">
        <ele>981.643311</ele>
        <time>2011-02-13T13:08:12Z</time>
      </trkpt>
      <trkpt lat="44.54951" lon="6.02707">
        <ele>982.604736</ele>
        <time>2011-02-13T13:08:23Z</time>
      </trkpt>
      <trkpt lat="44.54992" lon="6.02815">
        <ele>983.565918</ele>
        <time>2011-02-13T13:08:44Z</time>
      </trkpt>
      <trkpt lat="44.55063" lon="6.02925">
        <ele>982.124023</ele>
        <time>2011-02-13T13:09:06Z</time>
      </trkpt>
      <trkpt lat="44.55126" lon="6.03027">
        <ele>979.23999</ele>
        <time>2011-02-13T13:09:23Z</time>
      </trkpt>
      <trkpt lat="44.5513" lon="6.03034">
        <ele>979.23999</ele>
        <time>2011-02-13T13:09:24Z</time>
      </trkpt>
      <trkpt lat="44.55181" lon="6.03112">
        <ele>975.394775</ele>
        <time>2011-02-13T13:09:35Z</time>
      </trkpt>
      <trkpt lat="44.55186" lon="6.03119">
        <ele>975.394775</ele>
        <time>2011-02-13T13:09:36Z</time>
      </trkpt>
      <trkpt lat="44.55218" lon="6.03166">
        <ele>972.510986</ele>
        <time>2011-02-13T13:09:42Z</time>
      </trkpt>
      <trkpt lat="44.55259" lon="6.03227">
        <ele>970.107422</ele>
        <time>2011-02-13T13:09:49Z</time>
      </trkpt>
      <trkpt lat="44.55275" lon="6.03258">
        <ele>968.184814</ele>
        <time>2011-02-13T13:09:52Z</time>
      </trkpt>
      <trkpt lat="44.55298" lon="6.03334">
        <ele>964.3396</ele>
        <time>2011-02-13T13:09:58Z</time>
      </trkpt>
      <trkpt lat="44.553" lon="6.03347">
        <ele>964.3396</ele>
        <time>2011-02-13T13:09:59Z</time>
      </trkpt>
      <trkpt lat="44.55302" lon="6.03376">
        <ele>962.897705</ele>
        <time>2011-02-13T13:10:01Z</time>
      </trkpt>
      <trkpt lat="44.55296" lon="6.0343">
        <ele>960.494385</ele>
        <time>2011-02-13T13:10:05Z</time>
      </trkpt>
      <trkpt lat="44.55277" lon="6.0349">
        <ele>960.013672</ele>
        <time>2011-02-13T13:10:10Z</time>
      </trkpt>
      <trkpt lat="44.55259" lon="6.0352">
        <ele>957.610596</ele>
        <time>2011-02-13T13:10:13Z</time>
      </trkpt>
      <trkpt lat="44.55182" lon="6.03579">
        <ele>954.24585</ele>
        <time>2011-02-13T13:10:23Z</time>
      </trkpt>
      <trkpt lat="44.5509" lon="6.03587">
        <ele>950.400635</ele>
        <time>2011-02-13T13:10:34Z</time>
      </trkpt>
      <trkpt lat="44.55073" lon="6.03591">
        <ele>949.439209</ele>
        <time>2011-02-13T13:10:36Z</time>
      </trkpt>
      <trkpt lat="44.55021" lon="6.03622">
        <ele>947.035889</ele>
        <time>2011-02-13T13:10:43Z</time>
      </trkpt>
      <trkpt lat="44.55006" lon="6.03635">
        <ele>944.632568</ele>
        <time>2011-02-13T13:10:45Z</time>
      </trkpt>
      <trkpt lat="44.54975" lon="6.03661">
        <ele>940.306885</ele>
        <time>2011-02-13T13:10:49Z</time>
      </trkpt>
      <trkpt lat="44.54967" lon="6.03667">
        <ele>940.306885</ele>
        <time>2011-02-13T13:10:50Z</time>
      </trkpt>
      <trkpt lat="44.54953" lon="6.0368">
        <ele>938.384033</ele>
        <time>2011-02-13T13:10:52Z</time>
      </trkpt>
      <trkpt lat="44.54896" lon="6.03728">
        <ele>938.864746</ele>
        <time>2011-02-13T13:11:00Z</time>
      </trkpt>
      <trkpt lat="44.54871" lon="6.0374">
        <ele>934.538818</ele>
        <time>2011-02-13T13:11:03Z</time>
      </trkpt>
      <trkpt lat="44.54862" lon="6.03743">
        <ele>934.538818</ele>
        <time>2011-02-13T13:11:04Z</time>
      </trkpt>
      <trkpt lat="44.54854" lon="6.03744">
        <ele>933.577393</ele>
        <time>2011-02-13T13:11:05Z</time>
      </trkpt>
      <trkpt lat="44.54839" lon="6.03746">
        <ele>934.058105</ele>
        <time>2011-02-13T13:11:07Z</time>
      </trkpt>
      <trkpt lat="44.54827" lon="6.03748">
        <ele>936.941895</ele>
        <time>2011-02-13T13:11:09Z</time>
      </trkpt>
      <trkpt lat="44.54818" lon="6.03756">
        <ele>938.384033</ele>
        <time>2011-02-13T13:11:11Z</time>
      </trkpt>
      <trkpt lat="44.54812" lon="6.038">
        <ele>936.461426</ele>
        <time>2011-02-13T13:11:17Z</time>
      </trkpt>
      <trkpt lat="44.54822" lon="6.03819">
        <ele>935.5</ele>
        <time>2011-02-13T13:11:20Z</time>
      </trkpt>
      <trkpt lat="44.5486" lon="6.03819">
        <ele>932.135498</ele>
        <time>2011-02-13T13:11:26Z</time>
      </trkpt>
      <trkpt lat="44.54868" lon="6.03813">
        <ele>932.135498</ele>
        <time>2011-02-13T13:11:27Z</time>
      </trkpt>
      <trkpt lat="44.54886" lon="6.03803">
        <ele>930.693604</ele>
        <time>2011-02-13T13:11:29Z</time>
      </trkpt>
      <trkpt lat="44.54896" lon="6.03798">
        <ele>928.770996</ele>
        <time>2011-02-13T13:11:30Z</time>
      </trkpt>
      <trkpt lat="44.54938" lon="6.03791">
        <ele>926.848389</ele>
        <time>2011-02-13T13:11:34Z</time>
      </trkpt>
      <trkpt lat="44.54948" lon="6.03792">
        <ele>926.848389</ele>
        <time>2011-02-13T13:11:35Z</time>
      </trkpt>
      <trkpt lat="44.54978" lon="6.03796">
        <ele>924.925781</ele>
        <time>2011-02-13T13:11:38Z</time>
      </trkpt>
      <trkpt lat="44.54999" lon="6.03801">
        <ele>921.560791</ele>
        <time>2011-02-13T13:11:40Z</time>
      </trkpt>
      <trkpt lat="44.5501" lon="6.03804">
        <ele>921.560791</ele>
        <time>2011-02-13T13:11:41Z</time>
      </trkpt>
      <trkpt lat="44.55053" lon="6.0381">
        <ele>919.157715</ele>
        <time>2011-02-13T13:11:45Z</time>
      </trkpt>
      <trkpt lat="44.55077" lon="6.03816">
        <ele>915.793213</ele>
        <time>2011-02-13T13:11:47Z</time>
      </trkpt>
      <trkpt lat="44.55088" lon="6.03819">
        <ele>915.793213</ele>
        <time>2011-02-13T13:11:48Z</time>
      </trkpt>
      <trkpt lat="44.5511" lon="6.03828">
        <ele>913.870361</ele>
        <time>2011-02-13T13:11:50Z</time>
      </trkpt>
      <trkpt lat="44.55154" lon="6.03845">
        <ele>910.505859</ele>
        <time>2011-02-13T13:11:54Z</time>
      </trkpt>
      <trkpt lat="44.55165" lon="6.0385">
        <ele>910.505859</ele>
        <time>2011-02-13T13:11:55Z</time>
      </trkpt>
      <trkpt lat="44.55187" lon="6.03863">
        <ele>909.063965</ele>
        <time>2011-02-13T13:11:57Z</time>
      </trkpt>
      <trkpt lat="44.55247" lon="6.03905">
        <ele>904.737793</ele>
        <time>2011-02-13T13:12:03Z</time>
      </trkpt>
      <trkpt lat="44.55257" lon="6.03913">
        <ele>904.737793</ele>
        <time>2011-02-13T13:12:04Z</time>
      </trkpt>
      <trkpt lat="44.55295" lon="6.03946">
        <ele>902.334473</ele>
        <time>2011-02-13T13:12:08Z</time>
      </trkpt>
      <trkpt lat="44.55349" lon="6.04012">
        <ele>902.334473</ele>
        <time>2011-02-13T13:12:15Z</time>
      </trkpt>
      <trkpt lat="44.55373" lon="6.04038">
        <ele>900.412109</ele>
        <time>2011-02-13T13:12:18Z</time>
      </trkpt>
      <trkpt lat="44.55405" lon="6.04067">
        <ele>898.489258</ele>
        <time>2011-02-13T13:12:22Z</time>
      </trkpt>
      <trkpt lat="44.55429" lon="6.04092">
        <ele>896.086182</ele>
        <time>2011-02-13T13:12:25Z</time>
      </trkpt>
      <trkpt lat="44.55459" lon="6.04129">
        <ele>893.202148</ele>
        <time>2011-02-13T13:12:29Z</time>
      </trkpt>
      <trkpt lat="44.55499" lon="6.04195">
        <ele>890.318115</ele>
        <time>2011-02-13T13:12:35Z</time>
      </trkpt>
      <trkpt lat="44.55544" lon="6.04274">
        <ele>886.4729</ele>
        <time>2011-02-13T13:12:42Z</time>
      </trkpt>
      <trkpt lat="44.5555" lon="6.04286">
        <ele>886.4729</ele>
        <time>2011-02-13T13:12:43Z</time>
      </trkpt>
      <trkpt lat="44.55563" lon="6.04308">
        <ele>884.550293</ele>
        <time>2011-02-13T13:12:45Z</time>
      </trkpt>
      <trkpt lat="44.55598" lon="6.04374">
        <ele>881.185791</ele>
        <time>2011-02-13T13:12:51Z</time>
      </trkpt>
      <trkpt lat="44.55604" lon="6.04387">
        <ele>881.185791</ele>
        <time>2011-02-13T13:12:52Z</time>
      </trkpt>
      <trkpt lat="44.55632" lon="6.04462">
        <ele>877.821045</ele>
        <time>2011-02-13T13:12:58Z</time>
      </trkpt>
      <trkpt lat="44.55634" lon="6.04475">
        <ele>877.821045</ele>
        <time>2011-02-13T13:12:59Z</time>
      </trkpt>
      <trkpt lat="44.5564" lon="6.04501">
        <ele>873.975586</ele>
        <time>2011-02-13T13:13:01Z</time>
      </trkpt>
      <trkpt lat="44.55643" lon="6.04514">
        <ele>873.975586</ele>
        <time>2011-02-13T13:13:02Z</time>
      </trkpt>
      <trkpt lat="44.55662" lon="6.04644">
        <ele>870.611084</ele>
        <time>2011-02-13T13:13:12Z</time>
      </trkpt>
      <trkpt lat="44.55669" lon="6.04726">
        <ele>867.727051</ele>
        <time>2011-02-13T13:13:18Z</time>
      </trkpt>
      <trkpt lat="44.55685" lon="6.04833">
        <ele>864.362549</ele>
        <time>2011-02-13T13:13:26Z</time>
      </trkpt>
      <trkpt lat="44.55696" lon="6.0487">
        <ele>862.920654</ele>
        <time>2011-02-13T13:13:29Z</time>
      </trkpt>
      <trkpt lat="44.55705" lon="6.04896">
        <ele>859.555908</ele>
        <time>2011-02-13T13:13:31Z</time>
      </trkpt>
      <trkpt lat="44.55709" lon="6.0491">
        <ele>859.555908</ele>
        <time>2011-02-13T13:13:32Z</time>
      </trkpt>
      <trkpt lat="44.55734" lon="6.04991">
        <ele>856.191162</ele>
        <time>2011-02-13T13:13:38Z</time>
      </trkpt>
      <trkpt lat="44.55738" lon="6.05006">
        <ele>856.191162</ele>
        <time>2011-02-13T13:13:39Z</time>
      </trkpt>
      <trkpt lat="44.55753" lon="6.0509">
        <ele>852.345947</ele>
        <time>2011-02-13T13:13:45Z</time>
      </trkpt>
      <trkpt lat="44.55755" lon="6.05104">
        <ele>852.345947</ele>
        <time>2011-02-13T13:13:46Z</time>
      </trkpt>
      <trkpt lat="44.55763" lon="6.05186">
        <ele>849.462158</ele>
        <time>2011-02-13T13:13:52Z</time>
      </trkpt>
      <trkpt lat="44.55765" lon="6.05228">
        <ele>847.539551</ele>
        <time>2011-02-13T13:13:55Z</time>
      </trkpt>
      <trkpt lat="44.55763" lon="6.05282">
        <ele>843.694092</ele>
        <time>2011-02-13T13:13:59Z</time>
      </trkpt>
      <trkpt lat="44.55763" lon="6.05295">
        <ele>843.694092</ele>
        <time>2011-02-13T13:14:00Z</time>
      </trkpt>
      <trkpt lat="44.55761" lon="6.05383">
        <ele>841.771484</ele>
        <time>2011-02-13T13:14:07Z</time>
      </trkpt>
      <trkpt lat="44.55761" lon="6.05457">
        <ele>838.406982</ele>
        <time>2011-02-13T13:14:14Z</time>
      </trkpt>
      <trkpt lat="44.55739" lon="6.05495">
        <ele>837.92627</ele>
        <time>2011-02-13T13:14:19Z</time>
      </trkpt>
      <trkpt lat="44.55742" lon="6.05536">
        <ele>838.406982</ele>
        <time>2011-02-13T13:14:23Z</time>
      </trkpt>
      <trkpt lat="44.55749" lon="6.05561">
        <ele>838.406982</ele>
        <time>2011-02-13T13:14:26Z</time>
      </trkpt>
      <trkpt lat="44.55751" lon="6.05691">
        <ele>836.003662</ele>
        <time>2011-02-13T13:14:40Z</time>
      </trkpt>
      <trkpt lat="44.55748" lon="6.058">
        <ele>833.600342</ele>
        <time>2011-02-13T13:14:52Z</time>
      </trkpt>
      <trkpt lat="44.55742" lon="6.05989">
        <ele>832.63916</ele>
        <time>2011-02-13T13:15:12Z</time>
      </trkpt>
      <trkpt lat="44.5574" lon="6.06005">
        <ele>832.63916</ele>
        <time>2011-02-13T13:15:14Z</time>
      </trkpt>
      <trkpt lat="44.5574" lon="6.06031">
        <ele>832.158447</ele>
        <time>2011-02-13T13:15:18Z</time>
      </trkpt>
      <trkpt lat="44.55722" lon="6.06043">
        <ele>832.158447</ele>
        <time>2011-02-13T13:15:20Z</time>
      </trkpt>
      <trkpt lat="44.55704" lon="6.0607">
        <ele>831.197266</ele>
        <time>2011-02-13T13:15:25Z</time>
      </trkpt>
      <trkpt lat="44.55682" lon="6.06096">
        <ele>828.793945</ele>
        <time>2011-02-13T13:15:30Z</time>
      </trkpt>
      <trkpt lat="44.55658" lon="6.0613">
        <ele>826.871094</ele>
        <time>2011-02-13T13:15:35Z</time>
      </trkpt>
      <trkpt lat="44.55647" lon="6.06204">
        <ele>824.948486</ele>
        <time>2011-02-13T13:15:43Z</time>
      </trkpt>
      <trkpt lat="44.55664" lon="6.06228">
        <ele>823.987061</ele>
        <time>2011-02-13T13:15:46Z</time>
      </trkpt>
      <trkpt lat="44.55695" lon="6.06254">
        <ele>820.622559</ele>
        <time>2011-02-13T13:15:50Z</time>
      </trkpt>
      <trkpt lat="44.55724" lon="6.06312">
        <ele>817.258057</ele>
        <time>2011-02-13T13:15:56Z</time>
      </trkpt>
      <trkpt lat="44.55723" lon="6.06338">
        <ele>816.296631</ele>
        <time>2011-02-13T13:15:58Z</time>
      </trkpt>
      <trkpt lat="44.55697" lon="6.06385">
        <ele>812.932129</ele>
        <time>2011-02-13T13:16:03Z</time>
      </trkpt>
      <trkpt lat="44.55682" lon="6.06398">
        <ele>811.48999</ele>
        <time>2011-02-13T13:16:05Z</time>
      </trkpt>
      <trkpt lat="44.55624" lon="6.06453">
        <ele>808.125488</ele>
        <time>2011-02-13T13:16:13Z</time>
      </trkpt>
      <trkpt lat="44.55618" lon="6.0646">
        <ele>808.125488</ele>
        <time>2011-02-13T13:16:14Z</time>
      </trkpt>
      <trkpt lat="44.55597" lon="6.06533">
        <ele>805.722168</ele>
        <time>2011-02-13T13:16:21Z</time>
      </trkpt>
      <trkpt lat="44.55601" lon="6.06558">
        <ele>803.799561</ele>
        <time>2011-02-13T13:16:23Z</time>
      </trkpt>
      <trkpt lat="44.55605" lon="6.0657">
        <ele>802.357422</ele>
        <time>2011-02-13T13:16:24Z</time>
      </trkpt>
      <trkpt lat="44.5562" lon="6.06619">
        <ele>800.915527</ele>
        <time>2011-02-13T13:16:28Z</time>
      </trkpt>
      <trkpt lat="44.55635" lon="6.06668">
        <ele>798.031738</ele>
        <time>2011-02-13T13:16:32Z</time>
      </trkpt>
      <trkpt lat="44.55644" lon="6.06693">
        <ele>796.589844</ele>
        <time>2011-02-13T13:16:34Z</time>
      </trkpt>
      <trkpt lat="44.55663" lon="6.06753">
        <ele>794.186279</ele>
        <time>2011-02-13T13:16:39Z</time>
      </trkpt>
      <trkpt lat="44.55692" lon="6.06793">
        <ele>793.705566</ele>
        <time>2011-02-13T13:16:44Z</time>
      </trkpt>
      <trkpt lat="44.55716" lon="6.06803">
        <ele>791.782959</ele>
        <time>2011-02-13T13:16:47Z</time>
      </trkpt>
      <trkpt lat="44.55741" lon="6.06806">
        <ele>791.302246</ele>
        <time>2011-02-13T13:16:50Z</time>
      </trkpt>
      <trkpt lat="44.55774" lon="6.06827">
        <ele>790.341064</ele>
        <time>2011-02-13T13:16:58Z</time>
      </trkpt>
      <trkpt lat="44.55791" lon="6.06877">
        <ele>789.379639</ele>
        <time>2011-02-13T13:17:00Z</time>
      </trkpt>
      <trkpt lat="44.5577" lon="6.06915">
        <ele>786.015137</ele>
        <time>2011-02-13T13:17:05Z</time>
      </trkpt>
      <trkpt lat="44.5576" lon="6.06932">
        <ele>785.053955</ele>
        <time>2011-02-13T13:17:07Z</time>
      </trkpt>
      <trkpt lat="44.55748" lon="6.06948">
        <ele>783.611816</ele>
        <time>2011-02-13T13:17:09Z</time>
      </trkpt>
      <trkpt lat="44.55735" lon="6.06963">
        <ele>782.650635</ele>
        <time>2011-02-13T13:17:11Z</time>
      </trkpt>
      <trkpt lat="44.55705" lon="6.07009">
        <ele>782.650635</ele>
        <time>2011-02-13T13:17:18Z</time>
      </trkpt>
      <trkpt lat="44.55703" lon="6.07015">
        <ele>781.689209</ele>
        <time>2011-02-13T13:17:20Z</time>
      </trkpt>
      <trkpt lat="44.55701" lon="6.07033">
        <ele>782.169922</ele>
        <time>2011-02-13T13:17:24Z</time>
      </trkpt>
      <trkpt lat="44.55701" lon="6.07052">
        <ele>781.20874</ele>
        <time>2011-02-13T13:17:27Z</time>
      </trkpt>
      <trkpt lat="44.55713" lon="6.071">
        <ele>777.84375</ele>
        <time>2011-02-13T13:17:33Z</time>
      </trkpt>
      <trkpt lat="44.55732" lon="6.07149">
        <ele>774.479248</ele>
        <time>2011-02-13T13:17:38Z</time>
      </trkpt>
      <trkpt lat="44.55772" lon="6.0716">
        <ele>774.479248</ele>
        <time>2011-02-13T13:17:45Z</time>
      </trkpt>
      <trkpt lat="44.55782" lon="6.07126">
        <ele>773.518066</ele>
        <time>2011-02-13T13:17:50Z</time>
      </trkpt>
      <trkpt lat="44.55784" lon="6.07108">
        <ele>773.037354</ele>
        <time>2011-02-13T13:17:52Z</time>
      </trkpt>
      <trkpt lat="44.55802" lon="6.07096">
        <ele>771.114746</ele>
        <time>2011-02-13T13:17:59Z</time>
      </trkpt>
      <trkpt lat="44.55802" lon="6.07101">
        <ele>771.114746</ele>
        <time>2011-02-13T13:18:00Z</time>
      </trkpt>
      <trkpt lat="44.55786" lon="6.07102">
        <ele>768.230713</ele>
        <time>2011-02-13T13:18:03Z</time>
      </trkpt>
      <trkpt lat="44.5578" lon="6.07145">
        <ele>764.385498</ele>
        <time>2011-02-13T13:18:11Z</time>
      </trkpt>
      <trkpt lat="44.5578" lon="6.07145">
        <ele>764.385498</ele>
        <time>2011-02-13T13:18:12Z</time>
      </trkpt>
      <trkpt lat="44.5581" lon="6.07178">
        <ele>762.943359</ele>
        <time>2011-02-13T13:18:14Z</time>
      </trkpt>
      <trkpt lat="44.55811" lon="6.07193">
        <ele>761.020752</ele>
        <time>2011-02-13T13:18:16Z</time>
      </trkpt>
      <trkpt lat="44.55814" lon="6.07225">
        <ele>758.136963</ele>
        <time>2011-02-13T13:18:21Z</time>
      </trkpt>
      <trkpt lat="44.55817" lon="6.07245">
        <ele>755.733643</ele>
        <time>2011-02-13T13:18:24Z</time>
      </trkpt>
      <trkpt lat="44.55819" lon="6.0726">
        <ele>754.291748</ele>
        <time>2011-02-13T13:18:26Z</time>
      </trkpt>
      <trkpt lat="44.55819" lon="6.07303">
        <ele>750.927002</ele>
        <time>2011-02-13T13:18:34Z</time>
      </trkpt>
      <trkpt lat="44.55819" lon="6.07309">
        <ele>750.927002</ele>
        <time>2011-02-13T13:18:35Z</time>
      </trkpt>
      <trkpt lat="44.55817" lon="6.07358">
        <ele>748.043213</ele>
        <time>2011-02-13T13:18:43Z</time>
      </trkpt>
      <trkpt lat="44.55817" lon="6.07391">
        <ele>745.158936</ele>
        <time>2011-02-13T13:18:49Z</time>
      </trkpt>
      <trkpt lat="44.55824" lon="6.07444">
        <ele>745.158936</ele>
        <time>2011-02-13T13:19:03Z</time>
      </trkpt>
      <trkpt lat="44.55859" lon="6.07476">
        <ele>746.601074</ele>
        <time>2011-02-13T13:19:20Z</time>
      </trkpt>
      <trkpt lat="44.55872" lon="6.07488">
        <ele>746.601074</ele>
        <time>2011-02-13T13:19:29Z</time>
      </trkpt>
      <trkpt lat="44.55877" lon="6.07493">
        <ele>748.043213</ele>
        <time>2011-02-13T13:19:43Z</time>
      </trkpt>
      <trkpt lat="44.55877" lon="6.07493">
        <ele>747.562256</ele>
        <time>2011-02-13T13:19:55Z</time>
      </trkpt>
    </trkseg>
  </trk>
</gpx>